<?xml version="1.0" encoding="UTF-8" standalone="no" ?>
<gpx xmlns="http://www.topografix.com/GPX/1/1" xmlns:xsi="http://www.w3.org/2001/XMLSchema-instance" xsi:schemaLocation="http://www.topografix.com/GPX/1/1 http://www.topografix.com/GPX/1/1/gpx.xsd" version="1.1" creator="VisuGPX - https://www.visugpx.com">
  <metadata>
    <name>Brouilly</name>
  </metadata>
  <trk>
    <name><![CDATA[15589489-Brouilly]]></name>
    <trkseg>
      <trkpt lat="45.98236" lon="4.50952">
        <ele>328</ele>
        <time>2022-09-29T21:37:25Z</time>
      </trkpt>
      <trkpt lat="45.98271" lon="4.50953">
        <ele>329</ele>
        <time>2022-09-29T21:37:31Z</time>
      </trkpt>
      <trkpt lat="45.98292" lon="4.50958">
        <ele>330</ele>
        <time>2022-09-29T21:37:35Z</time>
      </trkpt>
      <trkpt lat="45.98321" lon="4.50981">
        <ele>336</ele>
        <time>2022-09-29T21:37:41Z</time>
      </trkpt>
      <trkpt lat="45.98357" lon="4.51034">
        <ele>341</ele>
        <time>2022-09-29T21:37:50Z</time>
      </trkpt>
      <trkpt lat="45.98375" lon="4.51066">
        <ele>344</ele>
        <time>2022-09-29T21:37:55Z</time>
      </trkpt>
      <trkpt lat="45.98391" lon="4.51098">
        <ele>348</ele>
        <time>2022-09-29T21:38:00Z</time>
      </trkpt>
      <trkpt lat="45.98406" lon="4.51109">
        <ele>348</ele>
        <time>2022-09-29T21:38:03Z</time>
      </trkpt>
      <trkpt lat="45.98422" lon="4.5111">
        <ele>349</ele>
        <time>2022-09-29T21:38:06Z</time>
      </trkpt>
      <trkpt lat="45.98427" lon="4.51101">
        <ele>350</ele>
        <time>2022-09-29T21:38:07Z</time>
      </trkpt>
      <trkpt lat="45.98436" lon="4.51092">
        <ele>350</ele>
        <time>2022-09-29T21:38:09Z</time>
      </trkpt>
      <trkpt lat="45.98475" lon="4.51082">
        <ele>349</ele>
        <time>2022-09-29T21:38:16Z</time>
      </trkpt>
      <trkpt lat="45.98519" lon="4.51049">
        <ele>344</ele>
        <time>2022-09-29T21:38:25Z</time>
      </trkpt>
      <trkpt lat="45.98562" lon="4.50985">
        <ele>336</ele>
        <time>2022-09-29T21:38:36Z</time>
      </trkpt>
      <trkpt lat="45.98598" lon="4.50904">
        <ele>329</ele>
        <time>2022-09-29T21:38:48Z</time>
      </trkpt>
      <trkpt lat="45.98604" lon="4.50871">
        <ele>326</ele>
        <time>2022-09-29T21:38:52Z</time>
      </trkpt>
      <trkpt lat="45.98605" lon="4.50826">
        <ele>322</ele>
        <time>2022-09-29T21:38:58Z</time>
      </trkpt>
      <trkpt lat="45.98613" lon="4.50793">
        <ele>322</ele>
        <time>2022-09-29T21:39:02Z</time>
      </trkpt>
      <trkpt lat="45.98621" lon="4.50774">
        <ele>322</ele>
        <time>2022-09-29T21:39:05Z</time>
      </trkpt>
      <trkpt lat="45.9862" lon="4.50755">
        <ele>321</ele>
        <time>2022-09-29T21:39:07Z</time>
      </trkpt>
      <trkpt lat="45.98615" lon="4.50743">
        <ele>320</ele>
        <time>2022-09-29T21:39:09Z</time>
      </trkpt>
      <trkpt lat="45.98625" lon="4.50677">
        <ele>321</ele>
        <time>2022-09-29T21:39:17Z</time>
      </trkpt>
      <trkpt lat="45.9863" lon="4.50655">
        <ele>321</ele>
        <time>2022-09-29T21:39:20Z</time>
      </trkpt>
      <trkpt lat="45.98639" lon="4.50632">
        <ele>321</ele>
        <time>2022-09-29T21:39:23Z</time>
      </trkpt>
      <trkpt lat="45.98645" lon="4.5062">
        <ele>321</ele>
        <time>2022-09-29T21:39:25Z</time>
      </trkpt>
      <trkpt lat="45.98662" lon="4.50598">
        <ele>319</ele>
        <time>2022-09-29T21:39:29Z</time>
      </trkpt>
      <trkpt lat="45.98693" lon="4.50564">
        <ele>319</ele>
        <time>2022-09-29T21:39:36Z</time>
      </trkpt>
      <trkpt lat="45.98705" lon="4.50549">
        <ele>320</ele>
        <time>2022-09-29T21:39:39Z</time>
      </trkpt>
      <trkpt lat="45.98713" lon="4.50535">
        <ele>320</ele>
        <time>2022-09-29T21:39:41Z</time>
      </trkpt>
      <trkpt lat="45.98726" lon="4.50507">
        <ele>319</ele>
        <time>2022-09-29T21:39:46Z</time>
      </trkpt>
      <trkpt lat="45.98735" lon="4.50467">
        <ele>319</ele>
        <time>2022-09-29T21:39:51Z</time>
      </trkpt>
      <trkpt lat="45.98742" lon="4.50388">
        <ele>318</ele>
        <time>2022-09-29T21:40:01Z</time>
      </trkpt>
      <trkpt lat="45.98748" lon="4.50338">
        <ele>316</ele>
        <time>2022-09-29T21:40:07Z</time>
      </trkpt>
      <trkpt lat="45.98761" lon="4.50301">
        <ele>316</ele>
        <time>2022-09-29T21:40:12Z</time>
      </trkpt>
      <trkpt lat="45.98777" lon="4.50273">
        <ele>317</ele>
        <time>2022-09-29T21:40:16Z</time>
      </trkpt>
      <trkpt lat="45.98793" lon="4.50254">
        <ele>318</ele>
        <time>2022-09-29T21:40:20Z</time>
      </trkpt>
      <trkpt lat="45.98814" lon="4.50237">
        <ele>318</ele>
        <time>2022-09-29T21:40:24Z</time>
      </trkpt>
      <trkpt lat="45.98828" lon="4.50231">
        <ele>319</ele>
        <time>2022-09-29T21:40:27Z</time>
      </trkpt>
      <trkpt lat="45.98871" lon="4.50219">
        <ele>319</ele>
        <time>2022-09-29T21:40:35Z</time>
      </trkpt>
      <trkpt lat="45.98906" lon="4.50213">
        <ele>319</ele>
        <time>2022-09-29T21:40:41Z</time>
      </trkpt>
      <trkpt lat="45.98916" lon="4.50213">
        <ele>320</ele>
        <time>2022-09-29T21:40:43Z</time>
      </trkpt>
      <trkpt lat="45.98935" lon="4.50218">
        <ele>320</ele>
        <time>2022-09-29T21:40:46Z</time>
      </trkpt>
      <trkpt lat="45.9895" lon="4.50228">
        <ele>321</ele>
        <time>2022-09-29T21:40:49Z</time>
      </trkpt>
      <trkpt lat="45.98971" lon="4.50255">
        <ele>322</ele>
        <time>2022-09-29T21:40:54Z</time>
      </trkpt>
      <trkpt lat="45.98992" lon="4.50307">
        <ele>326</ele>
        <time>2022-09-29T21:41:02Z</time>
      </trkpt>
      <trkpt lat="45.9901" lon="4.50346">
        <ele>330</ele>
        <time>2022-09-29T21:41:07Z</time>
      </trkpt>
      <trkpt lat="45.99017" lon="4.50356">
        <ele>331</ele>
        <time>2022-09-29T21:41:09Z</time>
      </trkpt>
      <trkpt lat="45.99031" lon="4.5037">
        <ele>333</ele>
        <time>2022-09-29T21:41:12Z</time>
      </trkpt>
      <trkpt lat="45.99047" lon="4.5038">
        <ele>333</ele>
        <time>2022-09-29T21:41:15Z</time>
      </trkpt>
      <trkpt lat="45.9907" lon="4.50388">
        <ele>332</ele>
        <time>2022-09-29T21:41:20Z</time>
      </trkpt>
      <trkpt lat="45.99106" lon="4.50394">
        <ele>331</ele>
        <time>2022-09-29T21:41:26Z</time>
      </trkpt>
      <trkpt lat="45.99133" lon="4.50395">
        <ele>331</ele>
        <time>2022-09-29T21:41:31Z</time>
      </trkpt>
      <trkpt lat="45.99166" lon="4.50392">
        <ele>331</ele>
        <time>2022-09-29T21:41:37Z</time>
      </trkpt>
      <trkpt lat="45.99253" lon="4.50375">
        <ele>329</ele>
        <time>2022-09-29T21:41:52Z</time>
      </trkpt>
      <trkpt lat="45.99274" lon="4.5037">
        <ele>330</ele>
        <time>2022-09-29T21:41:56Z</time>
      </trkpt>
      <trkpt lat="45.99292" lon="4.50363">
        <ele>330</ele>
        <time>2022-09-29T21:41:59Z</time>
      </trkpt>
      <trkpt lat="45.99314" lon="4.5035">
        <ele>329</ele>
        <time>2022-09-29T21:42:04Z</time>
      </trkpt>
      <trkpt lat="45.99348" lon="4.50321">
        <ele>330</ele>
        <time>2022-09-29T21:42:11Z</time>
      </trkpt>
      <trkpt lat="45.99378" lon="4.50292">
        <ele>333</ele>
        <time>2022-09-29T21:42:17Z</time>
      </trkpt>
      <trkpt lat="45.99449" lon="4.5021">
        <ele>334</ele>
        <time>2022-09-29T21:42:33Z</time>
      </trkpt>
      <trkpt lat="45.99475" lon="4.50172">
        <ele>333</ele>
        <time>2022-09-29T21:42:40Z</time>
      </trkpt>
      <trkpt lat="45.99547" lon="4.50053">
        <ele>327</ele>
        <time>2022-09-29T21:42:59Z</time>
      </trkpt>
      <trkpt lat="45.99582" lon="4.50007">
        <ele>324</ele>
        <time>2022-09-29T21:43:08Z</time>
      </trkpt>
      <trkpt lat="45.9961" lon="4.49981">
        <ele>327</ele>
        <time>2022-09-29T21:43:14Z</time>
      </trkpt>
      <trkpt lat="45.99665" lon="4.49945">
        <ele>326</ele>
        <time>2022-09-29T21:43:25Z</time>
      </trkpt>
      <trkpt lat="45.99692" lon="4.49931">
        <ele>325</ele>
        <time>2022-09-29T21:43:30Z</time>
      </trkpt>
      <trkpt lat="45.99707" lon="4.49924">
        <ele>324</ele>
        <time>2022-09-29T21:43:32Z</time>
      </trkpt>
      <trkpt lat="45.99722" lon="4.49921">
        <ele>324</ele>
        <time>2022-09-29T21:43:35Z</time>
      </trkpt>
      <trkpt lat="45.99743" lon="4.49921">
        <ele>325</ele>
        <time>2022-09-29T21:43:39Z</time>
      </trkpt>
      <trkpt lat="45.99792" lon="4.49934">
        <ele>329</ele>
        <time>2022-09-29T21:43:48Z</time>
      </trkpt>
      <trkpt lat="45.99814" lon="4.49936">
        <ele>331</ele>
        <time>2022-09-29T21:43:52Z</time>
      </trkpt>
      <trkpt lat="45.99843" lon="4.49935">
        <ele>332</ele>
        <time>2022-09-29T21:43:57Z</time>
      </trkpt>
      <trkpt lat="45.99861" lon="4.49932">
        <ele>333</ele>
        <time>2022-09-29T21:44:00Z</time>
      </trkpt>
      <trkpt lat="45.99887" lon="4.49922">
        <ele>333</ele>
        <time>2022-09-29T21:44:05Z</time>
      </trkpt>
      <trkpt lat="45.99908" lon="4.49911">
        <ele>332</ele>
        <time>2022-09-29T21:44:09Z</time>
      </trkpt>
      <trkpt lat="45.99953" lon="4.49881">
        <ele>331</ele>
        <time>2022-09-29T21:44:18Z</time>
      </trkpt>
      <trkpt lat="46.0016" lon="4.49732">
        <ele>328</ele>
        <time>2022-09-29T21:44:59Z</time>
      </trkpt>
      <trkpt lat="46.00206" lon="4.49706">
        <ele>331</ele>
        <time>2022-09-29T21:45:08Z</time>
      </trkpt>
      <trkpt lat="46.00255" lon="4.49694">
        <ele>332</ele>
        <time>2022-09-29T21:45:16Z</time>
      </trkpt>
      <trkpt lat="46.0041" lon="4.49679">
        <ele>335</ele>
        <time>2022-09-29T21:45:44Z</time>
      </trkpt>
      <trkpt lat="46.00444" lon="4.49686">
        <ele>334</ele>
        <time>2022-09-29T21:45:50Z</time>
      </trkpt>
      <trkpt lat="46.00484" lon="4.49705">
        <ele>333</ele>
        <time>2022-09-29T21:45:58Z</time>
      </trkpt>
      <trkpt lat="46.00544" lon="4.49746">
        <ele>329</ele>
        <time>2022-09-29T21:46:10Z</time>
      </trkpt>
      <trkpt lat="46.00598" lon="4.4977">
        <ele>327</ele>
        <time>2022-09-29T21:46:20Z</time>
      </trkpt>
      <trkpt lat="46.00653" lon="4.49783">
        <ele>330</ele>
        <time>2022-09-29T21:46:29Z</time>
      </trkpt>
      <trkpt lat="46.007" lon="4.49777">
        <ele>331</ele>
        <time>2022-09-29T21:46:38Z</time>
      </trkpt>
      <trkpt lat="46.00719" lon="4.49772">
        <ele>331</ele>
        <time>2022-09-29T21:46:41Z</time>
      </trkpt>
      <trkpt lat="46.00831" lon="4.49705">
        <ele>335</ele>
        <time>2022-09-29T21:47:03Z</time>
      </trkpt>
      <trkpt lat="46.0095" lon="4.49696">
        <ele>335</ele>
        <time>2022-09-29T21:47:24Z</time>
      </trkpt>
      <trkpt lat="46.00987" lon="4.49712">
        <ele>336</ele>
        <time>2022-09-29T21:47:31Z</time>
      </trkpt>
      <trkpt lat="46.01023" lon="4.49734">
        <ele>339</ele>
        <time>2022-09-29T21:47:38Z</time>
      </trkpt>
      <trkpt lat="46.01117" lon="4.49773">
        <ele>344</ele>
        <time>2022-09-29T21:47:55Z</time>
      </trkpt>
      <trkpt lat="46.01144" lon="4.49778">
        <ele>343</ele>
        <time>2022-09-29T21:48:00Z</time>
      </trkpt>
      <trkpt lat="46.01193" lon="4.49774">
        <ele>341</ele>
        <time>2022-09-29T21:48:09Z</time>
      </trkpt>
      <trkpt lat="46.01231" lon="4.49763">
        <ele>340</ele>
        <time>2022-09-29T21:48:16Z</time>
      </trkpt>
      <trkpt lat="46.01269" lon="4.49756">
        <ele>338</ele>
        <time>2022-09-29T21:48:23Z</time>
      </trkpt>
      <trkpt lat="46.01287" lon="4.4976">
        <ele>339</ele>
        <time>2022-09-29T21:48:26Z</time>
      </trkpt>
      <trkpt lat="46.01303" lon="4.49767">
        <ele>340</ele>
        <time>2022-09-29T21:48:29Z</time>
      </trkpt>
      <trkpt lat="46.01316" lon="4.49776">
        <ele>341</ele>
        <time>2022-09-29T21:48:31Z</time>
      </trkpt>
      <trkpt lat="46.01367" lon="4.49814">
        <ele>347</ele>
        <time>2022-09-29T21:48:42Z</time>
      </trkpt>
      <trkpt lat="46.01387" lon="4.49824">
        <ele>347</ele>
        <time>2022-09-29T21:48:45Z</time>
      </trkpt>
      <trkpt lat="46.01412" lon="4.49821">
        <ele>344</ele>
        <time>2022-09-29T21:48:50Z</time>
      </trkpt>
      <trkpt lat="46.01437" lon="4.49811">
        <ele>345</ele>
        <time>2022-09-29T21:48:54Z</time>
      </trkpt>
      <trkpt lat="46.01542" lon="4.49724">
        <ele>344</ele>
        <time>2022-09-29T21:49:16Z</time>
      </trkpt>
      <trkpt lat="46.01568" lon="4.49717">
        <ele>345</ele>
        <time>2022-09-29T21:49:21Z</time>
      </trkpt>
      <trkpt lat="46.01591" lon="4.49718">
        <ele>345</ele>
        <time>2022-09-29T21:49:25Z</time>
      </trkpt>
      <trkpt lat="46.01604" lon="4.49722">
        <ele>345</ele>
        <time>2022-09-29T21:49:27Z</time>
      </trkpt>
      <trkpt lat="46.01615" lon="4.49729">
        <ele>344</ele>
        <time>2022-09-29T21:49:29Z</time>
      </trkpt>
      <trkpt lat="46.01707" lon="4.49797">
        <ele>347</ele>
        <time>2022-09-29T21:49:48Z</time>
      </trkpt>
      <trkpt lat="46.01805" lon="4.49859">
        <ele>348</ele>
        <time>2022-09-29T21:50:07Z</time>
      </trkpt>
      <trkpt lat="46.01826" lon="4.49881">
        <ele>349</ele>
        <time>2022-09-29T21:50:11Z</time>
      </trkpt>
      <trkpt lat="46.01854" lon="4.49904">
        <ele>350</ele>
        <time>2022-09-29T21:50:17Z</time>
      </trkpt>
      <trkpt lat="46.0196" lon="4.49941">
        <ele>351</ele>
        <time>2022-09-29T21:50:37Z</time>
      </trkpt>
      <trkpt lat="46.01979" lon="4.49941">
        <ele>350</ele>
        <time>2022-09-29T21:50:40Z</time>
      </trkpt>
      <trkpt lat="46.02051" lon="4.49928">
        <ele>346</ele>
        <time>2022-09-29T21:50:53Z</time>
      </trkpt>
      <trkpt lat="46.02096" lon="4.49939">
        <ele>346</ele>
        <time>2022-09-29T21:51:01Z</time>
      </trkpt>
      <trkpt lat="46.02154" lon="4.49948">
        <ele>343</ele>
        <time>2022-09-29T21:51:11Z</time>
      </trkpt>
      <trkpt lat="46.02193" lon="4.49951">
        <ele>342</ele>
        <time>2022-09-29T21:51:18Z</time>
      </trkpt>
      <trkpt lat="46.02195" lon="4.50011">
        <ele>347</ele>
        <time>2022-09-29T21:51:26Z</time>
      </trkpt>
      <trkpt lat="46.02202" lon="4.50048">
        <ele>351</ele>
        <time>2022-09-29T21:51:30Z</time>
      </trkpt>
      <trkpt lat="46.02224" lon="4.50121">
        <ele>353</ele>
        <time>2022-09-29T21:51:40Z</time>
      </trkpt>
      <trkpt lat="46.02261" lon="4.50214">
        <ele>354</ele>
        <time>2022-09-29T21:51:54Z</time>
      </trkpt>
      <trkpt lat="46.0232" lon="4.50384">
        <ele>358</ele>
        <time>2022-09-29T21:52:17Z</time>
      </trkpt>
      <trkpt lat="46.02342" lon="4.50449">
        <ele>361</ele>
        <time>2022-09-29T21:52:26Z</time>
      </trkpt>
      <trkpt lat="46.02349" lon="4.50524">
        <ele>368</ele>
        <time>2022-09-29T21:52:35Z</time>
      </trkpt>
      <trkpt lat="46.02397" lon="4.50624">
        <ele>369</ele>
        <time>2022-09-29T21:52:50Z</time>
      </trkpt>
      <trkpt lat="46.02411" lon="4.50694">
        <ele>370</ele>
        <time>2022-09-29T21:52:59Z</time>
      </trkpt>
      <trkpt lat="46.0245" lon="4.50802">
        <ele>373</ele>
        <time>2022-09-29T21:53:14Z</time>
      </trkpt>
      <trkpt lat="46.02478" lon="4.51223">
        <ele>386</ele>
        <time>2022-09-29T21:54:07Z</time>
      </trkpt>
      <trkpt lat="46.02485" lon="4.51259">
        <ele>383</ele>
        <time>2022-09-29T21:54:11Z</time>
      </trkpt>
      <trkpt lat="46.02494" lon="4.51289">
        <ele>379</ele>
        <time>2022-09-29T21:54:15Z</time>
      </trkpt>
      <trkpt lat="46.02504" lon="4.51304">
        <ele>377</ele>
        <time>2022-09-29T21:54:18Z</time>
      </trkpt>
      <trkpt lat="46.02517" lon="4.51315">
        <ele>377</ele>
        <time>2022-09-29T21:54:20Z</time>
      </trkpt>
      <trkpt lat="46.02545" lon="4.51323">
        <ele>376</ele>
        <time>2022-09-29T21:54:26Z</time>
      </trkpt>
      <trkpt lat="46.02553" lon="4.5133">
        <ele>376</ele>
        <time>2022-09-29T21:54:27Z</time>
      </trkpt>
      <trkpt lat="46.02572" lon="4.51335">
        <ele>374</ele>
        <time>2022-09-29T21:54:31Z</time>
      </trkpt>
      <trkpt lat="46.02583" lon="4.51358">
        <ele>373</ele>
        <time>2022-09-29T21:54:34Z</time>
      </trkpt>
      <trkpt lat="46.02587" lon="4.51385">
        <ele>372</ele>
        <time>2022-09-29T21:54:38Z</time>
      </trkpt>
      <trkpt lat="46.02586" lon="4.51395">
        <ele>371</ele>
        <time>2022-09-29T21:54:39Z</time>
      </trkpt>
      <trkpt lat="46.02574" lon="4.51435">
        <ele>371</ele>
        <time>2022-09-29T21:54:44Z</time>
      </trkpt>
      <trkpt lat="46.02575" lon="4.51458">
        <ele>371</ele>
        <time>2022-09-29T21:54:47Z</time>
      </trkpt>
      <trkpt lat="46.02583" lon="4.51494">
        <ele>371</ele>
        <time>2022-09-29T21:54:52Z</time>
      </trkpt>
      <trkpt lat="46.02639" lon="4.51625">
        <ele>386</ele>
        <time>2022-09-29T21:55:11Z</time>
      </trkpt>
      <trkpt lat="46.02647" lon="4.51676">
        <ele>386</ele>
        <time>2022-09-29T21:55:17Z</time>
      </trkpt>
      <trkpt lat="46.02656" lon="4.51718">
        <ele>387</ele>
        <time>2022-09-29T21:55:23Z</time>
      </trkpt>
      <trkpt lat="46.02675" lon="4.51784">
        <ele>387</ele>
        <time>2022-09-29T21:55:31Z</time>
      </trkpt>
      <trkpt lat="46.02696" lon="4.5182">
        <ele>387</ele>
        <time>2022-09-29T21:55:37Z</time>
      </trkpt>
      <trkpt lat="46.027" lon="4.51831">
        <ele>386</ele>
        <time>2022-09-29T21:55:39Z</time>
      </trkpt>
      <trkpt lat="46.02702" lon="4.51847">
        <ele>386</ele>
        <time>2022-09-29T21:55:41Z</time>
      </trkpt>
      <trkpt lat="46.0269" lon="4.51913">
        <ele>386</ele>
        <time>2022-09-29T21:55:49Z</time>
      </trkpt>
      <trkpt lat="46.02688" lon="4.5193">
        <ele>387</ele>
        <time>2022-09-29T21:55:51Z</time>
      </trkpt>
      <trkpt lat="46.02688" lon="4.5195">
        <ele>389</ele>
        <time>2022-09-29T21:55:54Z</time>
      </trkpt>
      <trkpt lat="46.02715" lon="4.52024">
        <ele>403</ele>
        <time>2022-09-29T21:56:04Z</time>
      </trkpt>
      <trkpt lat="46.02745" lon="4.52123">
        <ele>407</ele>
        <time>2022-09-29T21:56:17Z</time>
      </trkpt>
      <trkpt lat="46.02748" lon="4.52137">
        <ele>406</ele>
        <time>2022-09-29T21:56:19Z</time>
      </trkpt>
      <trkpt lat="46.02754" lon="4.52209">
        <ele>406</ele>
        <time>2022-09-29T21:56:28Z</time>
      </trkpt>
      <trkpt lat="46.02774" lon="4.52287">
        <ele>414</ele>
        <time>2022-09-29T21:56:39Z</time>
      </trkpt>
      <trkpt lat="46.02784" lon="4.52365">
        <ele>417</ele>
        <time>2022-09-29T21:56:48Z</time>
      </trkpt>
      <trkpt lat="46.02786" lon="4.52429">
        <ele>420</ele>
        <time>2022-09-29T21:56:56Z</time>
      </trkpt>
      <trkpt lat="46.02785" lon="4.52454">
        <ele>419</ele>
        <time>2022-09-29T21:56:59Z</time>
      </trkpt>
      <trkpt lat="46.0278" lon="4.52466">
        <ele>418</ele>
        <time>2022-09-29T21:57:01Z</time>
      </trkpt>
      <trkpt lat="46.02768" lon="4.52481">
        <ele>417</ele>
        <time>2022-09-29T21:57:04Z</time>
      </trkpt>
      <trkpt lat="46.02764" lon="4.52499">
        <ele>417</ele>
        <time>2022-09-29T21:57:06Z</time>
      </trkpt>
      <trkpt lat="46.02762" lon="4.5253">
        <ele>418</ele>
        <time>2022-09-29T21:57:10Z</time>
      </trkpt>
      <trkpt lat="46.02756" lon="4.52688">
        <ele>422</ele>
        <time>2022-09-29T21:57:30Z</time>
      </trkpt>
      <trkpt lat="46.0275" lon="4.52716">
        <ele>421</ele>
        <time>2022-09-29T21:57:33Z</time>
      </trkpt>
      <trkpt lat="46.0274" lon="4.52744">
        <ele>425</ele>
        <time>2022-09-29T21:57:37Z</time>
      </trkpt>
      <trkpt lat="46.02682" lon="4.52859">
        <ele>443</ele>
        <time>2022-09-29T21:57:55Z</time>
      </trkpt>
      <trkpt lat="46.02679" lon="4.52874">
        <ele>444</ele>
        <time>2022-09-29T21:57:57Z</time>
      </trkpt>
      <trkpt lat="46.02678" lon="4.52973">
        <ele>447</ele>
        <time>2022-09-29T21:58:09Z</time>
      </trkpt>
      <trkpt lat="46.0268" lon="4.53028">
        <ele>448</ele>
        <time>2022-09-29T21:58:16Z</time>
      </trkpt>
      <trkpt lat="46.02676" lon="4.53044">
        <ele>449</ele>
        <time>2022-09-29T21:58:18Z</time>
      </trkpt>
      <trkpt lat="46.02654" lon="4.53092">
        <ele>457</ele>
        <time>2022-09-29T21:58:25Z</time>
      </trkpt>
      <trkpt lat="46.02658" lon="4.53209">
        <ele>464</ele>
        <time>2022-09-29T21:58:39Z</time>
      </trkpt>
      <trkpt lat="46.02665" lon="4.53243">
        <ele>465</ele>
        <time>2022-09-29T21:58:44Z</time>
      </trkpt>
      <trkpt lat="46.0267" lon="4.53266">
        <ele>465</ele>
        <time>2022-09-29T21:58:47Z</time>
      </trkpt>
      <trkpt lat="46.02668" lon="4.53294">
        <ele>466</ele>
        <time>2022-09-29T21:58:50Z</time>
      </trkpt>
      <trkpt lat="46.02663" lon="4.53322">
        <ele>468</ele>
        <time>2022-09-29T21:58:54Z</time>
      </trkpt>
      <trkpt lat="46.02641" lon="4.53397">
        <ele>484</ele>
        <time>2022-09-29T21:59:04Z</time>
      </trkpt>
      <trkpt lat="46.02636" lon="4.53421">
        <ele>488</ele>
        <time>2022-09-29T21:59:07Z</time>
      </trkpt>
      <trkpt lat="46.02627" lon="4.53485">
        <ele>499</ele>
        <time>2022-09-29T21:59:15Z</time>
      </trkpt>
      <trkpt lat="46.02618" lon="4.53518">
        <ele>505</ele>
        <time>2022-09-29T21:59:19Z</time>
      </trkpt>
      <trkpt lat="46.02606" lon="4.53553">
        <ele>512</ele>
        <time>2022-09-29T21:59:24Z</time>
      </trkpt>
      <trkpt lat="46.02561" lon="4.53633">
        <ele>533</ele>
        <time>2022-09-29T21:59:37Z</time>
      </trkpt>
      <trkpt lat="46.02562" lon="4.5365">
        <ele>533</ele>
        <time>2022-09-29T21:59:39Z</time>
      </trkpt>
      <trkpt lat="46.02565" lon="4.53664">
        <ele>532</ele>
        <time>2022-09-29T21:59:41Z</time>
      </trkpt>
      <trkpt lat="46.02578" lon="4.53685">
        <ele>530</ele>
        <time>2022-09-29T21:59:44Z</time>
      </trkpt>
      <trkpt lat="46.02657" lon="4.53751">
        <ele>518</ele>
        <time>2022-09-29T22:00:00Z</time>
      </trkpt>
      <trkpt lat="46.02668" lon="4.53777">
        <ele>518</ele>
        <time>2022-09-29T22:00:04Z</time>
      </trkpt>
      <trkpt lat="46.02671" lon="4.53788">
        <ele>518</ele>
        <time>2022-09-29T22:00:06Z</time>
      </trkpt>
      <trkpt lat="46.02679" lon="4.53868">
        <ele>525</ele>
        <time>2022-09-29T22:00:16Z</time>
      </trkpt>
      <trkpt lat="46.0268" lon="4.53899">
        <ele>527</ele>
        <time>2022-09-29T22:00:20Z</time>
      </trkpt>
      <trkpt lat="46.02658" lon="4.54003">
        <ele>535</ele>
        <time>2022-09-29T22:00:33Z</time>
      </trkpt>
      <trkpt lat="46.02649" lon="4.54078">
        <ele>538</ele>
        <time>2022-09-29T22:00:42Z</time>
      </trkpt>
      <trkpt lat="46.02652" lon="4.5409">
        <ele>537</ele>
        <time>2022-09-29T22:00:44Z</time>
      </trkpt>
      <trkpt lat="46.02659" lon="4.54097">
        <ele>535</ele>
        <time>2022-09-29T22:00:45Z</time>
      </trkpt>
      <trkpt lat="46.02672" lon="4.541">
        <ele>533</ele>
        <time>2022-09-29T22:00:48Z</time>
      </trkpt>
      <trkpt lat="46.02718" lon="4.54095">
        <ele>540</ele>
        <time>2022-09-29T22:00:56Z</time>
      </trkpt>
      <trkpt lat="46.02775" lon="4.54057">
        <ele>537</ele>
        <time>2022-09-29T22:01:07Z</time>
      </trkpt>
      <trkpt lat="46.02791" lon="4.54052">
        <ele>538</ele>
        <time>2022-09-29T22:01:10Z</time>
      </trkpt>
      <trkpt lat="46.02802" lon="4.54051">
        <ele>539</ele>
        <time>2022-09-29T22:01:12Z</time>
      </trkpt>
      <trkpt lat="46.02875" lon="4.5407">
        <ele>541</ele>
        <time>2022-09-29T22:01:25Z</time>
      </trkpt>
      <trkpt lat="46.02887" lon="4.54075">
        <ele>540</ele>
        <time>2022-09-29T22:01:27Z</time>
      </trkpt>
      <trkpt lat="46.02931" lon="4.54107">
        <ele>538</ele>
        <time>2022-09-29T22:01:36Z</time>
      </trkpt>
      <trkpt lat="46.02946" lon="4.54115">
        <ele>538</ele>
        <time>2022-09-29T22:01:39Z</time>
      </trkpt>
      <trkpt lat="46.02995" lon="4.54128">
        <ele>533</ele>
        <time>2022-09-29T22:01:48Z</time>
      </trkpt>
      <trkpt lat="46.03008" lon="4.5416">
        <ele>532</ele>
        <time>2022-09-29T22:01:53Z</time>
      </trkpt>
      <trkpt lat="46.03014" lon="4.54181">
        <ele>535</ele>
        <time>2022-09-29T22:01:55Z</time>
      </trkpt>
      <trkpt lat="46.03029" lon="4.54242">
        <ele>542</ele>
        <time>2022-09-29T22:02:03Z</time>
      </trkpt>
      <trkpt lat="46.03041" lon="4.54303">
        <ele>548</ele>
        <time>2022-09-29T22:02:11Z</time>
      </trkpt>
      <trkpt lat="46.03044" lon="4.54374">
        <ele>555</ele>
        <time>2022-09-29T22:02:20Z</time>
      </trkpt>
      <trkpt lat="46.03031" lon="4.54436">
        <ele>562</ele>
        <time>2022-09-29T22:02:28Z</time>
      </trkpt>
      <trkpt lat="46.03031" lon="4.5448">
        <ele>565</ele>
        <time>2022-09-29T22:02:33Z</time>
      </trkpt>
      <trkpt lat="46.03035" lon="4.54489">
        <ele>565</ele>
        <time>2022-09-29T22:02:35Z</time>
      </trkpt>
      <trkpt lat="46.03042" lon="4.54493">
        <ele>564</ele>
        <time>2022-09-29T22:02:36Z</time>
      </trkpt>
      <trkpt lat="46.03065" lon="4.54499">
        <ele>561</ele>
        <time>2022-09-29T22:02:40Z</time>
      </trkpt>
      <trkpt lat="46.03098" lon="4.54559">
        <ele>568</ele>
        <time>2022-09-29T22:02:50Z</time>
      </trkpt>
      <trkpt lat="46.0312" lon="4.54583">
        <ele>574</ele>
        <time>2022-09-29T22:02:55Z</time>
      </trkpt>
      <trkpt lat="46.0312" lon="4.54592">
        <ele>575</ele>
        <time>2022-09-29T22:02:56Z</time>
      </trkpt>
      <trkpt lat="46.03095" lon="4.54632">
        <ele>579</ele>
        <time>2022-09-29T22:03:02Z</time>
      </trkpt>
      <trkpt lat="46.03083" lon="4.54659">
        <ele>581</ele>
        <time>2022-09-29T22:03:06Z</time>
      </trkpt>
      <trkpt lat="46.03036" lon="4.54842">
        <ele>600</ele>
        <time>2022-09-29T22:03:30Z</time>
      </trkpt>
      <trkpt lat="46.0302" lon="4.54886">
        <ele>602</ele>
        <time>2022-09-29T22:03:37Z</time>
      </trkpt>
      <trkpt lat="46.02999" lon="4.55023">
        <ele>609</ele>
        <time>2022-09-29T22:03:54Z</time>
      </trkpt>
      <trkpt lat="46.02966" lon="4.5513">
        <ele>619</ele>
        <time>2022-09-29T22:04:08Z</time>
      </trkpt>
      <trkpt lat="46.02946" lon="4.55218">
        <ele>627</ele>
        <time>2022-09-29T22:04:20Z</time>
      </trkpt>
      <trkpt lat="46.02943" lon="4.55226">
        <ele>627</ele>
        <time>2022-09-29T22:04:21Z</time>
      </trkpt>
      <trkpt lat="46.02877" lon="4.55326">
        <ele>636</ele>
        <time>2022-09-29T22:04:38Z</time>
      </trkpt>
      <trkpt lat="46.02787" lon="4.55502">
        <ele>659</ele>
        <time>2022-09-29T22:05:05Z</time>
      </trkpt>
      <trkpt lat="46.02755" lon="4.55552">
        <ele>668</ele>
        <time>2022-09-29T22:05:13Z</time>
      </trkpt>
      <trkpt lat="46.02705" lon="4.55601">
        <ele>679</ele>
        <time>2022-09-29T22:05:24Z</time>
      </trkpt>
      <trkpt lat="46.0268" lon="4.55631">
        <ele>683</ele>
        <time>2022-09-29T22:05:30Z</time>
      </trkpt>
      <trkpt lat="46.02671" lon="4.55644">
        <ele>684</ele>
        <time>2022-09-29T22:05:32Z</time>
      </trkpt>
      <trkpt lat="46.0266" lon="4.55667">
        <ele>686</ele>
        <time>2022-09-29T22:05:36Z</time>
      </trkpt>
      <trkpt lat="46.02642" lon="4.55695">
        <ele>682</ele>
        <time>2022-09-29T22:05:40Z</time>
      </trkpt>
      <trkpt lat="46.0263" lon="4.55711">
        <ele>680</ele>
        <time>2022-09-29T22:05:43Z</time>
      </trkpt>
      <trkpt lat="46.02554" lon="4.55786">
        <ele>674</ele>
        <time>2022-09-29T22:06:00Z</time>
      </trkpt>
      <trkpt lat="46.02532" lon="4.55818">
        <ele>674</ele>
        <time>2022-09-29T22:06:05Z</time>
      </trkpt>
      <trkpt lat="46.02521" lon="4.55852">
        <ele>670</ele>
        <time>2022-09-29T22:06:10Z</time>
      </trkpt>
      <trkpt lat="46.02516" lon="4.5589">
        <ele>662</ele>
        <time>2022-09-29T22:06:15Z</time>
      </trkpt>
      <trkpt lat="46.0251" lon="4.55987">
        <ele>647</ele>
        <time>2022-09-29T22:06:27Z</time>
      </trkpt>
      <trkpt lat="46.02509" lon="4.56035">
        <ele>642</ele>
        <time>2022-09-29T22:06:33Z</time>
      </trkpt>
      <trkpt lat="46.02513" lon="4.56101">
        <ele>633</ele>
        <time>2022-09-29T22:06:41Z</time>
      </trkpt>
      <trkpt lat="46.02511" lon="4.56123">
        <ele>631</ele>
        <time>2022-09-29T22:06:44Z</time>
      </trkpt>
      <trkpt lat="46.02496" lon="4.5617">
        <ele>628</ele>
        <time>2022-09-29T22:06:50Z</time>
      </trkpt>
      <trkpt lat="46.02501" lon="4.56186">
        <ele>627</ele>
        <time>2022-09-29T22:06:52Z</time>
      </trkpt>
      <trkpt lat="46.02474" lon="4.5624">
        <ele>619</ele>
        <time>2022-09-29T22:07:00Z</time>
      </trkpt>
      <trkpt lat="46.02489" lon="4.56257">
        <ele>621</ele>
        <time>2022-09-29T22:07:04Z</time>
      </trkpt>
      <trkpt lat="46.02495" lon="4.56259">
        <ele>621</ele>
        <time>2022-09-29T22:07:05Z</time>
      </trkpt>
      <trkpt lat="46.02501" lon="4.56265">
        <ele>622</ele>
        <time>2022-09-29T22:07:06Z</time>
      </trkpt>
      <trkpt lat="46.02533" lon="4.56307">
        <ele>616</ele>
        <time>2022-09-29T22:07:14Z</time>
      </trkpt>
      <trkpt lat="46.02562" lon="4.56396">
        <ele>612</ele>
        <time>2022-09-29T22:07:26Z</time>
      </trkpt>
      <trkpt lat="46.02573" lon="4.56449">
        <ele>613</ele>
        <time>2022-09-29T22:07:33Z</time>
      </trkpt>
      <trkpt lat="46.02583" lon="4.5647">
        <ele>611</ele>
        <time>2022-09-29T22:07:36Z</time>
      </trkpt>
      <trkpt lat="46.02635" lon="4.56526">
        <ele>606</ele>
        <time>2022-09-29T22:07:47Z</time>
      </trkpt>
      <trkpt lat="46.02655" lon="4.56558">
        <ele>605</ele>
        <time>2022-09-29T22:07:53Z</time>
      </trkpt>
      <trkpt lat="46.02677" lon="4.56622">
        <ele>608</ele>
        <time>2022-09-29T22:08:02Z</time>
      </trkpt>
      <trkpt lat="46.02696" lon="4.56645">
        <ele>606</ele>
        <time>2022-09-29T22:08:06Z</time>
      </trkpt>
      <trkpt lat="46.02725" lon="4.56662">
        <ele>600</ele>
        <time>2022-09-29T22:08:12Z</time>
      </trkpt>
      <trkpt lat="46.02744" lon="4.56684">
        <ele>600</ele>
        <time>2022-09-29T22:08:16Z</time>
      </trkpt>
      <trkpt lat="46.02766" lon="4.56691">
        <ele>599</ele>
        <time>2022-09-29T22:08:20Z</time>
      </trkpt>
      <trkpt lat="46.02793" lon="4.56697">
        <ele>597</ele>
        <time>2022-09-29T22:08:25Z</time>
      </trkpt>
      <trkpt lat="46.0296" lon="4.56654">
        <ele>581</ele>
        <time>2022-09-29T22:08:55Z</time>
      </trkpt>
      <trkpt lat="46.03068" lon="4.56631">
        <ele>572</ele>
        <time>2022-09-29T22:09:14Z</time>
      </trkpt>
      <trkpt lat="46.03139" lon="4.56639">
        <ele>568</ele>
        <time>2022-09-29T22:09:27Z</time>
      </trkpt>
      <trkpt lat="46.03187" lon="4.56661">
        <ele>563</ele>
        <time>2022-09-29T22:09:36Z</time>
      </trkpt>
      <trkpt lat="46.03218" lon="4.56694">
        <ele>560</ele>
        <time>2022-09-29T22:09:43Z</time>
      </trkpt>
      <trkpt lat="46.0326" lon="4.56721">
        <ele>554</ele>
        <time>2022-09-29T22:09:51Z</time>
      </trkpt>
      <trkpt lat="46.03293" lon="4.56774">
        <ele>552</ele>
        <time>2022-09-29T22:10:00Z</time>
      </trkpt>
      <trkpt lat="46.03307" lon="4.56808">
        <ele>551</ele>
        <time>2022-09-29T22:10:05Z</time>
      </trkpt>
      <trkpt lat="46.03333" lon="4.56898">
        <ele>543</ele>
        <time>2022-09-29T22:10:17Z</time>
      </trkpt>
      <trkpt lat="46.03382" lon="4.57048">
        <ele>527</ele>
        <time>2022-09-29T22:10:37Z</time>
      </trkpt>
      <trkpt lat="46.03404" lon="4.57069">
        <ele>521</ele>
        <time>2022-09-29T22:10:42Z</time>
      </trkpt>
      <trkpt lat="46.03428" lon="4.57058">
        <ele>517</ele>
        <time>2022-09-29T22:10:46Z</time>
      </trkpt>
      <trkpt lat="46.03496" lon="4.57015">
        <ele>510</ele>
        <time>2022-09-29T22:11:00Z</time>
      </trkpt>
      <trkpt lat="46.03569" lon="4.5698">
        <ele>502</ele>
        <time>2022-09-29T22:11:13Z</time>
      </trkpt>
      <trkpt lat="46.03646" lon="4.5698">
        <ele>497</ele>
        <time>2022-09-29T22:11:27Z</time>
      </trkpt>
      <trkpt lat="46.03802" lon="4.56949">
        <ele>485</ele>
        <time>2022-09-29T22:11:55Z</time>
      </trkpt>
      <trkpt lat="46.03835" lon="4.56937">
        <ele>482</ele>
        <time>2022-09-29T22:12:01Z</time>
      </trkpt>
      <trkpt lat="46.03853" lon="4.56925">
        <ele>480</ele>
        <time>2022-09-29T22:12:05Z</time>
      </trkpt>
      <trkpt lat="46.03906" lon="4.56874">
        <ele>470</ele>
        <time>2022-09-29T22:12:16Z</time>
      </trkpt>
      <trkpt lat="46.03928" lon="4.56862">
        <ele>468</ele>
        <time>2022-09-29T22:12:20Z</time>
      </trkpt>
      <trkpt lat="46.04015" lon="4.56836">
        <ele>463</ele>
        <time>2022-09-29T22:12:36Z</time>
      </trkpt>
      <trkpt lat="46.04042" lon="4.56809">
        <ele>457</ele>
        <time>2022-09-29T22:12:42Z</time>
      </trkpt>
      <trkpt lat="46.0406" lon="4.56785">
        <ele>453</ele>
        <time>2022-09-29T22:12:46Z</time>
      </trkpt>
      <trkpt lat="46.04068" lon="4.56777">
        <ele>451</ele>
        <time>2022-09-29T22:12:48Z</time>
      </trkpt>
      <trkpt lat="46.04077" lon="4.56773">
        <ele>451</ele>
        <time>2022-09-29T22:12:50Z</time>
      </trkpt>
      <trkpt lat="46.041" lon="4.56769">
        <ele>448</ele>
        <time>2022-09-29T22:12:54Z</time>
      </trkpt>
      <trkpt lat="46.04115" lon="4.56769">
        <ele>446</ele>
        <time>2022-09-29T22:12:56Z</time>
      </trkpt>
      <trkpt lat="46.04139" lon="4.56782">
        <ele>444</ele>
        <time>2022-09-29T22:13:01Z</time>
      </trkpt>
      <trkpt lat="46.04145" lon="4.56791">
        <ele>445</ele>
        <time>2022-09-29T22:13:03Z</time>
      </trkpt>
      <trkpt lat="46.04156" lon="4.5683">
        <ele>449</ele>
        <time>2022-09-29T22:13:08Z</time>
      </trkpt>
      <trkpt lat="46.04163" lon="4.56845">
        <ele>450</ele>
        <time>2022-09-29T22:13:10Z</time>
      </trkpt>
      <trkpt lat="46.04171" lon="4.56856">
        <ele>451</ele>
        <time>2022-09-29T22:13:12Z</time>
      </trkpt>
      <trkpt lat="46.04182" lon="4.56866">
        <ele>451</ele>
        <time>2022-09-29T22:13:14Z</time>
      </trkpt>
      <trkpt lat="46.04193" lon="4.56871">
        <ele>451</ele>
        <time>2022-09-29T22:13:16Z</time>
      </trkpt>
      <trkpt lat="46.04203" lon="4.56871">
        <ele>450</ele>
        <time>2022-09-29T22:13:18Z</time>
      </trkpt>
      <trkpt lat="46.04212" lon="4.56867">
        <ele>448</ele>
        <time>2022-09-29T22:13:20Z</time>
      </trkpt>
      <trkpt lat="46.04237" lon="4.56844">
        <ele>441</ele>
        <time>2022-09-29T22:13:25Z</time>
      </trkpt>
      <trkpt lat="46.04251" lon="4.56835">
        <ele>437</ele>
        <time>2022-09-29T22:13:28Z</time>
      </trkpt>
      <trkpt lat="46.04261" lon="4.56834">
        <ele>435</ele>
        <time>2022-09-29T22:13:30Z</time>
      </trkpt>
      <trkpt lat="46.04266" lon="4.56836">
        <ele>434</ele>
        <time>2022-09-29T22:13:30Z</time>
      </trkpt>
      <trkpt lat="46.04284" lon="4.56847">
        <ele>432</ele>
        <time>2022-09-29T22:13:34Z</time>
      </trkpt>
      <trkpt lat="46.0435" lon="4.56903">
        <ele>430</ele>
        <time>2022-09-29T22:13:48Z</time>
      </trkpt>
      <trkpt lat="46.04388" lon="4.56928">
        <ele>426</ele>
        <time>2022-09-29T22:13:55Z</time>
      </trkpt>
      <trkpt lat="46.04453" lon="4.56965">
        <ele>416</ele>
        <time>2022-09-29T22:14:07Z</time>
      </trkpt>
      <trkpt lat="46.04469" lon="4.56979">
        <ele>414</ele>
        <time>2022-09-29T22:14:11Z</time>
      </trkpt>
      <trkpt lat="46.04481" lon="4.56992">
        <ele>413</ele>
        <time>2022-09-29T22:14:13Z</time>
      </trkpt>
      <trkpt lat="46.04489" lon="4.57008">
        <ele>413</ele>
        <time>2022-09-29T22:14:16Z</time>
      </trkpt>
      <trkpt lat="46.04537" lon="4.57131">
        <ele>400</ele>
        <time>2022-09-29T22:14:33Z</time>
      </trkpt>
      <trkpt lat="46.04543" lon="4.57163">
        <ele>397</ele>
        <time>2022-09-29T22:14:37Z</time>
      </trkpt>
      <trkpt lat="46.04545" lon="4.57215">
        <ele>393</ele>
        <time>2022-09-29T22:14:44Z</time>
      </trkpt>
      <trkpt lat="46.04543" lon="4.57227">
        <ele>392</ele>
        <time>2022-09-29T22:14:45Z</time>
      </trkpt>
      <trkpt lat="46.04539" lon="4.57238">
        <ele>392</ele>
        <time>2022-09-29T22:14:47Z</time>
      </trkpt>
      <trkpt lat="46.04532" lon="4.57245">
        <ele>393</ele>
        <time>2022-09-29T22:14:48Z</time>
      </trkpt>
      <trkpt lat="46.04525" lon="4.57247">
        <ele>394</ele>
        <time>2022-09-29T22:14:50Z</time>
      </trkpt>
      <trkpt lat="46.0448" lon="4.57254">
        <ele>401</ele>
        <time>2022-09-29T22:14:58Z</time>
      </trkpt>
      <trkpt lat="46.04472" lon="4.57259">
        <ele>403</ele>
        <time>2022-09-29T22:14:59Z</time>
      </trkpt>
      <trkpt lat="46.04468" lon="4.57267">
        <ele>403</ele>
        <time>2022-09-29T22:15:00Z</time>
      </trkpt>
      <trkpt lat="46.04468" lon="4.57275">
        <ele>403</ele>
        <time>2022-09-29T22:15:01Z</time>
      </trkpt>
      <trkpt lat="46.04471" lon="4.57283">
        <ele>402</ele>
        <time>2022-09-29T22:15:03Z</time>
      </trkpt>
      <trkpt lat="46.04519" lon="4.57324">
        <ele>392</ele>
        <time>2022-09-29T22:15:13Z</time>
      </trkpt>
      <trkpt lat="46.04535" lon="4.57338">
        <ele>389</ele>
        <time>2022-09-29T22:15:16Z</time>
      </trkpt>
      <trkpt lat="46.04552" lon="4.5736">
        <ele>386</ele>
        <time>2022-09-29T22:15:20Z</time>
      </trkpt>
      <trkpt lat="46.04578" lon="4.57384">
        <ele>383</ele>
        <time>2022-09-29T22:15:25Z</time>
      </trkpt>
      <trkpt lat="46.04592" lon="4.57391">
        <ele>380</ele>
        <time>2022-09-29T22:15:28Z</time>
      </trkpt>
      <trkpt lat="46.04605" lon="4.57395">
        <ele>377</ele>
        <time>2022-09-29T22:15:30Z</time>
      </trkpt>
      <trkpt lat="46.04633" lon="4.57398">
        <ele>371</ele>
        <time>2022-09-29T22:15:35Z</time>
      </trkpt>
      <trkpt lat="46.04645" lon="4.57403">
        <ele>369</ele>
        <time>2022-09-29T22:15:38Z</time>
      </trkpt>
      <trkpt lat="46.04664" lon="4.57419">
        <ele>366</ele>
        <time>2022-09-29T22:15:42Z</time>
      </trkpt>
      <trkpt lat="46.04681" lon="4.57454">
        <ele>364</ele>
        <time>2022-09-29T22:15:47Z</time>
      </trkpt>
      <trkpt lat="46.04688" lon="4.57476">
        <ele>364</ele>
        <time>2022-09-29T22:15:50Z</time>
      </trkpt>
      <trkpt lat="46.04695" lon="4.57509">
        <ele>364</ele>
        <time>2022-09-29T22:15:54Z</time>
      </trkpt>
      <trkpt lat="46.04707" lon="4.57554">
        <ele>362</ele>
        <time>2022-09-29T22:16:00Z</time>
      </trkpt>
      <trkpt lat="46.04713" lon="4.5757">
        <ele>361</ele>
        <time>2022-09-29T22:16:02Z</time>
      </trkpt>
      <trkpt lat="46.0473" lon="4.57604">
        <ele>358</ele>
        <time>2022-09-29T22:16:07Z</time>
      </trkpt>
      <trkpt lat="46.04742" lon="4.57623">
        <ele>356</ele>
        <time>2022-09-29T22:16:11Z</time>
      </trkpt>
      <trkpt lat="46.04776" lon="4.57649">
        <ele>353</ele>
        <time>2022-09-29T22:16:17Z</time>
      </trkpt>
      <trkpt lat="46.04786" lon="4.57662">
        <ele>352</ele>
        <time>2022-09-29T22:16:20Z</time>
      </trkpt>
      <trkpt lat="46.04801" lon="4.57698">
        <ele>348</ele>
        <time>2022-09-29T22:16:25Z</time>
      </trkpt>
      <trkpt lat="46.04806" lon="4.57721">
        <ele>346</ele>
        <time>2022-09-29T22:16:28Z</time>
      </trkpt>
      <trkpt lat="46.04806" lon="4.57762">
        <ele>343</ele>
        <time>2022-09-29T22:16:33Z</time>
      </trkpt>
      <trkpt lat="46.04803" lon="4.57773">
        <ele>343</ele>
        <time>2022-09-29T22:16:35Z</time>
      </trkpt>
      <trkpt lat="46.0479" lon="4.57803">
        <ele>342</ele>
        <time>2022-09-29T22:16:39Z</time>
      </trkpt>
      <trkpt lat="46.04788" lon="4.57814">
        <ele>341</ele>
        <time>2022-09-29T22:16:40Z</time>
      </trkpt>
      <trkpt lat="46.04792" lon="4.57821">
        <ele>340</ele>
        <time>2022-09-29T22:16:41Z</time>
      </trkpt>
      <trkpt lat="46.04796" lon="4.57822">
        <ele>340</ele>
        <time>2022-09-29T22:16:42Z</time>
      </trkpt>
      <trkpt lat="46.04854" lon="4.57789">
        <ele>340</ele>
        <time>2022-09-29T22:16:53Z</time>
      </trkpt>
      <trkpt lat="46.04861" lon="4.57786">
        <ele>341</ele>
        <time>2022-09-29T22:16:55Z</time>
      </trkpt>
      <trkpt lat="46.04864" lon="4.57785">
        <ele>341</ele>
        <time>2022-09-29T22:16:55Z</time>
      </trkpt>
      <trkpt lat="46.0488" lon="4.57813">
        <ele>340</ele>
        <time>2022-09-29T22:17:00Z</time>
      </trkpt>
      <trkpt lat="46.04897" lon="4.57827">
        <ele>339</ele>
        <time>2022-09-29T22:17:03Z</time>
      </trkpt>
      <trkpt lat="46.0495" lon="4.5785">
        <ele>342</ele>
        <time>2022-09-29T22:17:13Z</time>
      </trkpt>
      <trkpt lat="46.04966" lon="4.57863">
        <ele>344</ele>
        <time>2022-09-29T22:17:16Z</time>
      </trkpt>
      <trkpt lat="46.04997" lon="4.57896">
        <ele>345</ele>
        <time>2022-09-29T22:17:23Z</time>
      </trkpt>
      <trkpt lat="46.05009" lon="4.5793">
        <ele>344</ele>
        <time>2022-09-29T22:17:28Z</time>
      </trkpt>
      <trkpt lat="46.05038" lon="4.58023">
        <ele>339</ele>
        <time>2022-09-29T22:17:40Z</time>
      </trkpt>
      <trkpt lat="46.05059" lon="4.58086">
        <ele>338</ele>
        <time>2022-09-29T22:17:49Z</time>
      </trkpt>
      <trkpt lat="46.05064" lon="4.58117">
        <ele>335</ele>
        <time>2022-09-29T22:17:53Z</time>
      </trkpt>
      <trkpt lat="46.05065" lon="4.58148">
        <ele>332</ele>
        <time>2022-09-29T22:17:57Z</time>
      </trkpt>
      <trkpt lat="46.05096" lon="4.58243">
        <ele>329</ele>
        <time>2022-09-29T22:18:10Z</time>
      </trkpt>
      <trkpt lat="46.05129" lon="4.58327">
        <ele>327</ele>
        <time>2022-09-29T22:18:22Z</time>
      </trkpt>
      <trkpt lat="46.05137" lon="4.58351">
        <ele>327</ele>
        <time>2022-09-29T22:18:25Z</time>
      </trkpt>
      <trkpt lat="46.05146" lon="4.58408">
        <ele>325</ele>
        <time>2022-09-29T22:18:32Z</time>
      </trkpt>
      <trkpt lat="46.05154" lon="4.58431">
        <ele>325</ele>
        <time>2022-09-29T22:18:35Z</time>
      </trkpt>
      <trkpt lat="46.05186" lon="4.58478">
        <ele>325</ele>
        <time>2022-09-29T22:18:43Z</time>
      </trkpt>
      <trkpt lat="46.05237" lon="4.58514">
        <ele>331</ele>
        <time>2022-09-29T22:18:54Z</time>
      </trkpt>
      <trkpt lat="46.05274" lon="4.58551">
        <ele>333</ele>
        <time>2022-09-29T22:19:02Z</time>
      </trkpt>
      <trkpt lat="46.05315" lon="4.58581">
        <ele>336</ele>
        <time>2022-09-29T22:19:10Z</time>
      </trkpt>
      <trkpt lat="46.05349" lon="4.58602">
        <ele>340</ele>
        <time>2022-09-29T22:19:16Z</time>
      </trkpt>
      <trkpt lat="46.05359" lon="4.5862">
        <ele>339</ele>
        <time>2022-09-29T22:19:19Z</time>
      </trkpt>
      <trkpt lat="46.05387" lon="4.58688">
        <ele>337</ele>
        <time>2022-09-29T22:19:29Z</time>
      </trkpt>
      <trkpt lat="46.05412" lon="4.58715">
        <ele>339</ele>
        <time>2022-09-29T22:19:34Z</time>
      </trkpt>
      <trkpt lat="46.0543" lon="4.58727">
        <ele>342</ele>
        <time>2022-09-29T22:19:38Z</time>
      </trkpt>
      <trkpt lat="46.05469" lon="4.58729">
        <ele>350</ele>
        <time>2022-09-29T22:19:45Z</time>
      </trkpt>
      <trkpt lat="46.05488" lon="4.5875">
        <ele>351</ele>
        <time>2022-09-29T22:19:49Z</time>
      </trkpt>
      <trkpt lat="46.05512" lon="4.589">
        <ele>351</ele>
        <time>2022-09-29T22:20:08Z</time>
      </trkpt>
      <trkpt lat="46.05524" lon="4.58937">
        <ele>353</ele>
        <time>2022-09-29T22:20:13Z</time>
      </trkpt>
      <trkpt lat="46.05546" lon="4.58991">
        <ele>356</ele>
        <time>2022-09-29T22:20:21Z</time>
      </trkpt>
      <trkpt lat="46.05564" lon="4.59053">
        <ele>359</ele>
        <time>2022-09-29T22:20:29Z</time>
      </trkpt>
      <trkpt lat="46.056" lon="4.59145">
        <ele>365</ele>
        <time>2022-09-29T22:20:42Z</time>
      </trkpt>
      <trkpt lat="46.05609" lon="4.59179">
        <ele>365</ele>
        <time>2022-09-29T22:20:47Z</time>
      </trkpt>
      <trkpt lat="46.0561" lon="4.59192">
        <ele>364</ele>
        <time>2022-09-29T22:20:48Z</time>
      </trkpt>
      <trkpt lat="46.0563" lon="4.59269">
        <ele>363</ele>
        <time>2022-09-29T22:20:59Z</time>
      </trkpt>
      <trkpt lat="46.05633" lon="4.59293">
        <ele>361</ele>
        <time>2022-09-29T22:21:02Z</time>
      </trkpt>
      <trkpt lat="46.05635" lon="4.5935">
        <ele>357</ele>
        <time>2022-09-29T22:21:09Z</time>
      </trkpt>
      <trkpt lat="46.05642" lon="4.59418">
        <ele>352</ele>
        <time>2022-09-29T22:21:17Z</time>
      </trkpt>
      <trkpt lat="46.0565" lon="4.59516">
        <ele>349</ele>
        <time>2022-09-29T22:21:29Z</time>
      </trkpt>
      <trkpt lat="46.05657" lon="4.59551">
        <ele>346</ele>
        <time>2022-09-29T22:21:34Z</time>
      </trkpt>
      <trkpt lat="46.05676" lon="4.59591">
        <ele>344</ele>
        <time>2022-09-29T22:21:40Z</time>
      </trkpt>
      <trkpt lat="46.0574" lon="4.59695">
        <ele>338</ele>
        <time>2022-09-29T22:21:57Z</time>
      </trkpt>
      <trkpt lat="46.05754" lon="4.59734">
        <ele>336</ele>
        <time>2022-09-29T22:22:02Z</time>
      </trkpt>
      <trkpt lat="46.05758" lon="4.59754">
        <ele>335</ele>
        <time>2022-09-29T22:22:05Z</time>
      </trkpt>
      <trkpt lat="46.05761" lon="4.59793">
        <ele>332</ele>
        <time>2022-09-29T22:22:10Z</time>
      </trkpt>
      <trkpt lat="46.05792" lon="4.59941">
        <ele>327</ele>
        <time>2022-09-29T22:22:29Z</time>
      </trkpt>
      <trkpt lat="46.05794" lon="4.59961">
        <ele>325</ele>
        <time>2022-09-29T22:22:31Z</time>
      </trkpt>
      <trkpt lat="46.05793" lon="4.59983">
        <ele>323</ele>
        <time>2022-09-29T22:22:34Z</time>
      </trkpt>
      <trkpt lat="46.05797" lon="4.60008">
        <ele>321</ele>
        <time>2022-09-29T22:22:37Z</time>
      </trkpt>
      <trkpt lat="46.05813" lon="4.60047">
        <ele>319</ele>
        <time>2022-09-29T22:22:43Z</time>
      </trkpt>
      <trkpt lat="46.05854" lon="4.60108">
        <ele>317</ele>
        <time>2022-09-29T22:22:53Z</time>
      </trkpt>
      <trkpt lat="46.05882" lon="4.60197">
        <ele>309</ele>
        <time>2022-09-29T22:23:05Z</time>
      </trkpt>
      <trkpt lat="46.05908" lon="4.60255">
        <ele>306</ele>
        <time>2022-09-29T22:23:14Z</time>
      </trkpt>
      <trkpt lat="46.05915" lon="4.60262">
        <ele>307</ele>
        <time>2022-09-29T22:23:15Z</time>
      </trkpt>
      <trkpt lat="46.05923" lon="4.60267">
        <ele>305</ele>
        <time>2022-09-29T22:23:17Z</time>
      </trkpt>
      <trkpt lat="46.05939" lon="4.60269">
        <ele>302</ele>
        <time>2022-09-29T22:23:20Z</time>
      </trkpt>
      <trkpt lat="46.05951" lon="4.60267">
        <ele>301</ele>
        <time>2022-09-29T22:23:22Z</time>
      </trkpt>
      <trkpt lat="46.05983" lon="4.60252">
        <ele>297</ele>
        <time>2022-09-29T22:23:28Z</time>
      </trkpt>
      <trkpt lat="46.05994" lon="4.60241">
        <ele>297</ele>
        <time>2022-09-29T22:23:30Z</time>
      </trkpt>
      <trkpt lat="46.06007" lon="4.6022">
        <ele>296</ele>
        <time>2022-09-29T22:23:34Z</time>
      </trkpt>
      <trkpt lat="46.06016" lon="4.602">
        <ele>296</ele>
        <time>2022-09-29T22:23:37Z</time>
      </trkpt>
      <trkpt lat="46.0603" lon="4.60159">
        <ele>295</ele>
        <time>2022-09-29T22:23:42Z</time>
      </trkpt>
      <trkpt lat="46.06055" lon="4.60069">
        <ele>297</ele>
        <time>2022-09-29T22:23:54Z</time>
      </trkpt>
      <trkpt lat="46.06064" lon="4.60043">
        <ele>295</ele>
        <time>2022-09-29T22:23:58Z</time>
      </trkpt>
      <trkpt lat="46.06088" lon="4.60017">
        <ele>291</ele>
        <time>2022-09-29T22:24:03Z</time>
      </trkpt>
      <trkpt lat="46.06099" lon="4.60011">
        <ele>290</ele>
        <time>2022-09-29T22:24:05Z</time>
      </trkpt>
      <trkpt lat="46.06108" lon="4.60009">
        <ele>289</ele>
        <time>2022-09-29T22:24:07Z</time>
      </trkpt>
      <trkpt lat="46.06112" lon="4.60008">
        <ele>289</ele>
        <time>2022-09-29T22:24:08Z</time>
      </trkpt>
      <trkpt lat="46.06129" lon="4.60014">
        <ele>288</ele>
        <time>2022-09-29T22:24:11Z</time>
      </trkpt>
      <trkpt lat="46.06151" lon="4.60034">
        <ele>287</ele>
        <time>2022-09-29T22:24:16Z</time>
      </trkpt>
      <trkpt lat="46.06221" lon="4.60087">
        <ele>291</ele>
        <time>2022-09-29T22:24:30Z</time>
      </trkpt>
      <trkpt lat="46.06282" lon="4.60118">
        <ele>296</ele>
        <time>2022-09-29T22:24:41Z</time>
      </trkpt>
      <trkpt lat="46.0629" lon="4.60126">
        <ele>297</ele>
        <time>2022-09-29T22:24:43Z</time>
      </trkpt>
      <trkpt lat="46.06298" lon="4.59995">
        <ele>296</ele>
        <time>2022-09-29T22:24:59Z</time>
      </trkpt>
      <trkpt lat="46.06321" lon="4.6003">
        <ele>299</ele>
        <time>2022-09-29T22:25:05Z</time>
      </trkpt>
      <trkpt lat="46.06358" lon="4.60137">
        <ele>302</ele>
        <time>2022-09-29T22:25:20Z</time>
      </trkpt>
      <trkpt lat="46.06367" lon="4.60156">
        <ele>302</ele>
        <time>2022-09-29T22:25:23Z</time>
      </trkpt>
      <trkpt lat="46.06405" lon="4.60216">
        <ele>303</ele>
        <time>2022-09-29T22:25:33Z</time>
      </trkpt>
      <trkpt lat="46.06466" lon="4.60289">
        <ele>305</ele>
        <time>2022-09-29T22:25:47Z</time>
      </trkpt>
      <trkpt lat="46.06475" lon="4.60305">
        <ele>305</ele>
        <time>2022-09-29T22:25:49Z</time>
      </trkpt>
      <trkpt lat="46.06481" lon="4.60319">
        <ele>305</ele>
        <time>2022-09-29T22:25:51Z</time>
      </trkpt>
      <trkpt lat="46.06483" lon="4.60344">
        <ele>306</ele>
        <time>2022-09-29T22:25:54Z</time>
      </trkpt>
      <trkpt lat="46.06492" lon="4.60383">
        <ele>308</ele>
        <time>2022-09-29T22:26:00Z</time>
      </trkpt>
      <trkpt lat="46.06517" lon="4.60428">
        <ele>312</ele>
        <time>2022-09-29T22:26:07Z</time>
      </trkpt>
      <trkpt lat="46.0655" lon="4.60453">
        <ele>315</ele>
        <time>2022-09-29T22:26:13Z</time>
      </trkpt>
      <trkpt lat="46.06562" lon="4.60466">
        <ele>316</ele>
        <time>2022-09-29T22:26:16Z</time>
      </trkpt>
      <trkpt lat="46.06569" lon="4.60481">
        <ele>316</ele>
        <time>2022-09-29T22:26:18Z</time>
      </trkpt>
      <trkpt lat="46.06574" lon="4.60586">
        <ele>318</ele>
        <time>2022-09-29T22:26:31Z</time>
      </trkpt>
      <trkpt lat="46.06616" lon="4.60773">
        <ele>323</ele>
        <time>2022-09-29T22:26:55Z</time>
      </trkpt>
      <trkpt lat="46.06623" lon="4.60808">
        <ele>323</ele>
        <time>2022-09-29T22:27:00Z</time>
      </trkpt>
      <trkpt lat="46.06646" lon="4.6087">
        <ele>324</ele>
        <time>2022-09-29T22:27:09Z</time>
      </trkpt>
      <trkpt lat="46.06696" lon="4.60972">
        <ele>325</ele>
        <time>2022-09-29T22:27:24Z</time>
      </trkpt>
      <trkpt lat="46.06741" lon="4.61091">
        <ele>324</ele>
        <time>2022-09-29T22:27:41Z</time>
      </trkpt>
      <trkpt lat="46.06762" lon="4.61123">
        <ele>325</ele>
        <time>2022-09-29T22:27:46Z</time>
      </trkpt>
      <trkpt lat="46.0678" lon="4.61141">
        <ele>326</ele>
        <time>2022-09-29T22:27:50Z</time>
      </trkpt>
      <trkpt lat="46.06802" lon="4.61156">
        <ele>327</ele>
        <time>2022-09-29T22:27:54Z</time>
      </trkpt>
      <trkpt lat="46.06827" lon="4.61168">
        <ele>328</ele>
        <time>2022-09-29T22:27:59Z</time>
      </trkpt>
      <trkpt lat="46.06838" lon="4.61178">
        <ele>328</ele>
        <time>2022-09-29T22:28:01Z</time>
      </trkpt>
      <trkpt lat="46.06843" lon="4.61192">
        <ele>328</ele>
        <time>2022-09-29T22:28:03Z</time>
      </trkpt>
      <trkpt lat="46.06852" lon="4.61243">
        <ele>327</ele>
        <time>2022-09-29T22:28:10Z</time>
      </trkpt>
      <trkpt lat="46.06878" lon="4.61332">
        <ele>329</ele>
        <time>2022-09-29T22:28:22Z</time>
      </trkpt>
      <trkpt lat="46.06876" lon="4.61367">
        <ele>329</ele>
        <time>2022-09-29T22:28:26Z</time>
      </trkpt>
      <trkpt lat="46.06877" lon="4.61386">
        <ele>329</ele>
        <time>2022-09-29T22:28:28Z</time>
      </trkpt>
      <trkpt lat="46.06881" lon="4.61409">
        <ele>329</ele>
        <time>2022-09-29T22:28:31Z</time>
      </trkpt>
      <trkpt lat="46.06906" lon="4.61487">
        <ele>330</ele>
        <time>2022-09-29T22:28:42Z</time>
      </trkpt>
      <trkpt lat="46.06912" lon="4.61518">
        <ele>330</ele>
        <time>2022-09-29T22:28:46Z</time>
      </trkpt>
      <trkpt lat="46.06917" lon="4.61557">
        <ele>330</ele>
        <time>2022-09-29T22:28:51Z</time>
      </trkpt>
      <trkpt lat="46.06919" lon="4.61616">
        <ele>329</ele>
        <time>2022-09-29T22:28:58Z</time>
      </trkpt>
      <trkpt lat="46.06918" lon="4.617">
        <ele>326</ele>
        <time>2022-09-29T22:29:09Z</time>
      </trkpt>
      <trkpt lat="46.0692" lon="4.61741">
        <ele>326</ele>
        <time>2022-09-29T22:29:14Z</time>
      </trkpt>
      <trkpt lat="46.06926" lon="4.61779">
        <ele>326</ele>
        <time>2022-09-29T22:29:18Z</time>
      </trkpt>
      <trkpt lat="46.06968" lon="4.62003">
        <ele>324</ele>
        <time>2022-09-29T22:29:47Z</time>
      </trkpt>
      <trkpt lat="46.06978" lon="4.62034">
        <ele>324</ele>
        <time>2022-09-29T22:29:51Z</time>
      </trkpt>
      <trkpt lat="46.07032" lon="4.62093">
        <ele>325</ele>
        <time>2022-09-29T22:30:03Z</time>
      </trkpt>
      <trkpt lat="46.07043" lon="4.62111">
        <ele>326</ele>
        <time>2022-09-29T22:30:06Z</time>
      </trkpt>
      <trkpt lat="46.07044" lon="4.62125">
        <ele>325</ele>
        <time>2022-09-29T22:30:08Z</time>
      </trkpt>
      <trkpt lat="46.07041" lon="4.6215">
        <ele>325</ele>
        <time>2022-09-29T22:30:11Z</time>
      </trkpt>
      <trkpt lat="46.07037" lon="4.62161">
        <ele>324</ele>
        <time>2022-09-29T22:30:13Z</time>
      </trkpt>
      <trkpt lat="46.07005" lon="4.62204">
        <ele>323</ele>
        <time>2022-09-29T22:30:20Z</time>
      </trkpt>
      <trkpt lat="46.06997" lon="4.62225">
        <ele>324</ele>
        <time>2022-09-29T22:30:23Z</time>
      </trkpt>
      <trkpt lat="46.06994" lon="4.62244">
        <ele>324</ele>
        <time>2022-09-29T22:30:26Z</time>
      </trkpt>
      <trkpt lat="46.06996" lon="4.62303">
        <ele>325</ele>
        <time>2022-09-29T22:30:33Z</time>
      </trkpt>
      <trkpt lat="46.07006" lon="4.62483">
        <ele>324</ele>
        <time>2022-09-29T22:30:55Z</time>
      </trkpt>
      <trkpt lat="46.07025" lon="4.62665">
        <ele>320</ele>
        <time>2022-09-29T22:31:18Z</time>
      </trkpt>
      <trkpt lat="46.0703" lon="4.627">
        <ele>318</ele>
        <time>2022-09-29T22:31:23Z</time>
      </trkpt>
      <trkpt lat="46.07049" lon="4.62781">
        <ele>314</ele>
        <time>2022-09-29T22:31:33Z</time>
      </trkpt>
      <trkpt lat="46.0707" lon="4.62909">
        <ele>310</ele>
        <time>2022-09-29T22:31:49Z</time>
      </trkpt>
      <trkpt lat="46.07072" lon="4.62961">
        <ele>309</ele>
        <time>2022-09-29T22:31:56Z</time>
      </trkpt>
      <trkpt lat="46.07069" lon="4.63025">
        <ele>308</ele>
        <time>2022-09-29T22:32:04Z</time>
      </trkpt>
      <trkpt lat="46.07071" lon="4.63118">
        <ele>310</ele>
        <time>2022-09-29T22:32:15Z</time>
      </trkpt>
      <trkpt lat="46.07076" lon="4.63216">
        <ele>314</ele>
        <time>2022-09-29T22:32:27Z</time>
      </trkpt>
      <trkpt lat="46.07082" lon="4.6325">
        <ele>315</ele>
        <time>2022-09-29T22:32:32Z</time>
      </trkpt>
      <trkpt lat="46.07101" lon="4.63321">
        <ele>318</ele>
        <time>2022-09-29T22:32:41Z</time>
      </trkpt>
      <trkpt lat="46.07155" lon="4.6349">
        <ele>325</ele>
        <time>2022-09-29T22:33:04Z</time>
      </trkpt>
      <trkpt lat="46.07367" lon="4.63213">
        <ele>338</ele>
        <time>2022-09-29T22:33:55Z</time>
      </trkpt>
      <trkpt lat="46.07507" lon="4.63027">
        <ele>349</ele>
        <time>2022-09-29T22:34:29Z</time>
      </trkpt>
      <trkpt lat="46.07554" lon="4.62967">
        <ele>354</ele>
        <time>2022-09-29T22:34:40Z</time>
      </trkpt>
      <trkpt lat="46.07593" lon="4.62934">
        <ele>356</ele>
        <time>2022-09-29T22:34:48Z</time>
      </trkpt>
      <trkpt lat="46.07607" lon="4.62926">
        <ele>356</ele>
        <time>2022-09-29T22:34:51Z</time>
      </trkpt>
      <trkpt lat="46.07624" lon="4.62921">
        <ele>357</ele>
        <time>2022-09-29T22:34:54Z</time>
      </trkpt>
      <trkpt lat="46.07807" lon="4.62895">
        <ele>367</ele>
        <time>2022-09-29T22:35:27Z</time>
      </trkpt>
      <trkpt lat="46.07831" lon="4.62894">
        <ele>368</ele>
        <time>2022-09-29T22:35:31Z</time>
      </trkpt>
      <trkpt lat="46.07862" lon="4.62899">
        <ele>370</ele>
        <time>2022-09-29T22:35:36Z</time>
      </trkpt>
      <trkpt lat="46.07887" lon="4.62909">
        <ele>373</ele>
        <time>2022-09-29T22:35:41Z</time>
      </trkpt>
      <trkpt lat="46.07907" lon="4.6292">
        <ele>375</ele>
        <time>2022-09-29T22:35:45Z</time>
      </trkpt>
      <trkpt lat="46.07921" lon="4.62931">
        <ele>375</ele>
        <time>2022-09-29T22:35:48Z</time>
      </trkpt>
      <trkpt lat="46.07942" lon="4.62953">
        <ele>375</ele>
        <time>2022-09-29T22:35:52Z</time>
      </trkpt>
      <trkpt lat="46.07951" lon="4.62967">
        <ele>376</ele>
        <time>2022-09-29T22:35:55Z</time>
      </trkpt>
      <trkpt lat="46.08036" lon="4.6311">
        <ele>374</ele>
        <time>2022-09-29T22:36:18Z</time>
      </trkpt>
      <trkpt lat="46.08047" lon="4.63132">
        <ele>374</ele>
        <time>2022-09-29T22:36:21Z</time>
      </trkpt>
      <trkpt lat="46.08065" lon="4.63185">
        <ele>371</ele>
        <time>2022-09-29T22:36:28Z</time>
      </trkpt>
      <trkpt lat="46.08074" lon="4.63221">
        <ele>369</ele>
        <time>2022-09-29T22:36:33Z</time>
      </trkpt>
      <trkpt lat="46.081" lon="4.6334">
        <ele>365</ele>
        <time>2022-09-29T22:36:49Z</time>
      </trkpt>
      <trkpt lat="46.08104" lon="4.63355">
        <ele>364</ele>
        <time>2022-09-29T22:36:51Z</time>
      </trkpt>
      <trkpt lat="46.08114" lon="4.63379">
        <ele>363</ele>
        <time>2022-09-29T22:36:54Z</time>
      </trkpt>
      <trkpt lat="46.08156" lon="4.63461">
        <ele>360</ele>
        <time>2022-09-29T22:37:07Z</time>
      </trkpt>
      <trkpt lat="46.08254" lon="4.63615">
        <ele>351</ele>
        <time>2022-09-29T22:37:32Z</time>
      </trkpt>
      <trkpt lat="46.08263" lon="4.63634">
        <ele>351</ele>
        <time>2022-09-29T22:37:35Z</time>
      </trkpt>
      <trkpt lat="46.08271" lon="4.63655">
        <ele>350</ele>
        <time>2022-09-29T22:37:38Z</time>
      </trkpt>
      <trkpt lat="46.08299" lon="4.63758">
        <ele>344</ele>
        <time>2022-09-29T22:37:52Z</time>
      </trkpt>
      <trkpt lat="46.08314" lon="4.638">
        <ele>342</ele>
        <time>2022-09-29T22:37:58Z</time>
      </trkpt>
      <trkpt lat="46.08327" lon="4.63822">
        <ele>341</ele>
        <time>2022-09-29T22:38:01Z</time>
      </trkpt>
      <trkpt lat="46.08379" lon="4.63889">
        <ele>338</ele>
        <time>2022-09-29T22:38:14Z</time>
      </trkpt>
      <trkpt lat="46.08411" lon="4.63923">
        <ele>336</ele>
        <time>2022-09-29T22:38:21Z</time>
      </trkpt>
      <trkpt lat="46.0844" lon="4.63942">
        <ele>335</ele>
        <time>2022-09-29T22:38:26Z</time>
      </trkpt>
      <trkpt lat="46.08514" lon="4.6398">
        <ele>335</ele>
        <time>2022-09-29T22:38:40Z</time>
      </trkpt>
      <trkpt lat="46.08538" lon="4.63989">
        <ele>335</ele>
        <time>2022-09-29T22:38:45Z</time>
      </trkpt>
      <trkpt lat="46.08596" lon="4.63998">
        <ele>336</ele>
        <time>2022-09-29T22:38:55Z</time>
      </trkpt>
      <trkpt lat="46.08711" lon="4.64024">
        <ele>328</ele>
        <time>2022-09-29T22:39:16Z</time>
      </trkpt>
      <trkpt lat="46.08726" lon="4.6403">
        <ele>327</ele>
        <time>2022-09-29T22:39:19Z</time>
      </trkpt>
      <trkpt lat="46.08731" lon="4.64035">
        <ele>326</ele>
        <time>2022-09-29T22:39:20Z</time>
      </trkpt>
      <trkpt lat="46.08739" lon="4.64056">
        <ele>323</ele>
        <time>2022-09-29T22:39:23Z</time>
      </trkpt>
      <trkpt lat="46.0874" lon="4.64074">
        <ele>320</ele>
        <time>2022-09-29T22:39:25Z</time>
      </trkpt>
      <trkpt lat="46.08739" lon="4.64084">
        <ele>319</ele>
        <time>2022-09-29T22:39:26Z</time>
      </trkpt>
      <trkpt lat="46.08685" lon="4.64233">
        <ele>310</ele>
        <time>2022-09-29T22:39:47Z</time>
      </trkpt>
      <trkpt lat="46.08625" lon="4.6439">
        <ele>304</ele>
        <time>2022-09-29T22:40:09Z</time>
      </trkpt>
      <trkpt lat="46.08594" lon="4.64472">
        <ele>298</ele>
        <time>2022-09-29T22:40:21Z</time>
      </trkpt>
      <trkpt lat="46.0856" lon="4.64553">
        <ele>295</ele>
        <time>2022-09-29T22:40:32Z</time>
      </trkpt>
      <trkpt lat="46.08556" lon="4.64554">
        <ele>295</ele>
        <time>2022-09-29T22:40:33Z</time>
      </trkpt>
      <trkpt lat="46.08554" lon="4.64559">
        <ele>295</ele>
        <time>2022-09-29T22:40:34Z</time>
      </trkpt>
      <trkpt lat="46.08554" lon="4.64564">
        <ele>295</ele>
        <time>2022-09-29T22:40:34Z</time>
      </trkpt>
      <trkpt lat="46.08556" lon="4.6457">
        <ele>295</ele>
        <time>2022-09-29T22:40:35Z</time>
      </trkpt>
      <trkpt lat="46.08562" lon="4.64571">
        <ele>296</ele>
        <time>2022-09-29T22:40:36Z</time>
      </trkpt>
      <trkpt lat="46.08566" lon="4.64565">
        <ele>296</ele>
        <time>2022-09-29T22:40:37Z</time>
      </trkpt>
      <trkpt lat="46.08677" lon="4.64623">
        <ele>302</ele>
        <time>2022-09-29T22:40:58Z</time>
      </trkpt>
      <trkpt lat="46.08731" lon="4.64654">
        <ele>301</ele>
        <time>2022-09-29T22:41:09Z</time>
      </trkpt>
      <trkpt lat="46.08798" lon="4.64672">
        <ele>299</ele>
        <time>2022-09-29T22:41:21Z</time>
      </trkpt>
      <trkpt lat="46.08842" lon="4.64667">
        <ele>297</ele>
        <time>2022-09-29T22:41:29Z</time>
      </trkpt>
      <trkpt lat="46.08863" lon="4.6467">
        <ele>297</ele>
        <time>2022-09-29T22:41:32Z</time>
      </trkpt>
      <trkpt lat="46.08958" lon="4.64694">
        <ele>298</ele>
        <time>2022-09-29T22:41:49Z</time>
      </trkpt>
      <trkpt lat="46.08965" lon="4.64701">
        <ele>299</ele>
        <time>2022-09-29T22:41:51Z</time>
      </trkpt>
      <trkpt lat="46.08962" lon="4.64705">
        <ele>298</ele>
        <time>2022-09-29T22:41:52Z</time>
      </trkpt>
      <trkpt lat="46.08962" lon="4.64714">
        <ele>298</ele>
        <time>2022-09-29T22:41:53Z</time>
      </trkpt>
      <trkpt lat="46.08967" lon="4.64718">
        <ele>298</ele>
        <time>2022-09-29T22:41:54Z</time>
      </trkpt>
      <trkpt lat="46.08969" lon="4.64718">
        <ele>298</ele>
        <time>2022-09-29T22:41:54Z</time>
      </trkpt>
      <trkpt lat="46.08974" lon="4.64735">
        <ele>298</ele>
        <time>2022-09-29T22:41:56Z</time>
      </trkpt>
      <trkpt lat="46.09034" lon="4.64847">
        <ele>297</ele>
        <time>2022-09-29T22:42:14Z</time>
      </trkpt>
      <trkpt lat="46.0904" lon="4.64856">
        <ele>297</ele>
        <time>2022-09-29T22:42:15Z</time>
      </trkpt>
      <trkpt lat="46.09073" lon="4.64884">
        <ele>298</ele>
        <time>2022-09-29T22:42:22Z</time>
      </trkpt>
      <trkpt lat="46.09091" lon="4.64893">
        <ele>298</ele>
        <time>2022-09-29T22:42:26Z</time>
      </trkpt>
      <trkpt lat="46.09109" lon="4.64906">
        <ele>297</ele>
        <time>2022-09-29T22:42:29Z</time>
      </trkpt>
      <trkpt lat="46.09166" lon="4.64954">
        <ele>295</ele>
        <time>2022-09-29T22:42:41Z</time>
      </trkpt>
      <trkpt lat="46.09243" lon="4.65037">
        <ele>293</ele>
        <time>2022-09-29T22:42:58Z</time>
      </trkpt>
      <trkpt lat="46.09303" lon="4.65088">
        <ele>293</ele>
        <time>2022-09-29T22:43:10Z</time>
      </trkpt>
      <trkpt lat="46.09349" lon="4.65146">
        <ele>294</ele>
        <time>2022-09-29T22:43:21Z</time>
      </trkpt>
      <trkpt lat="46.09373" lon="4.65169">
        <ele>294</ele>
        <time>2022-09-29T22:43:26Z</time>
      </trkpt>
      <trkpt lat="46.09418" lon="4.65207">
        <ele>295</ele>
        <time>2022-09-29T22:43:36Z</time>
      </trkpt>
      <trkpt lat="46.09443" lon="4.65222">
        <ele>295</ele>
        <time>2022-09-29T22:43:41Z</time>
      </trkpt>
      <trkpt lat="46.09502" lon="4.65249">
        <ele>296</ele>
        <time>2022-09-29T22:43:52Z</time>
      </trkpt>
      <trkpt lat="46.09523" lon="4.65261">
        <ele>294</ele>
        <time>2022-09-29T22:43:56Z</time>
      </trkpt>
      <trkpt lat="46.09546" lon="4.65282">
        <ele>292</ele>
        <time>2022-09-29T22:44:00Z</time>
      </trkpt>
      <trkpt lat="46.09605" lon="4.65355">
        <ele>288</ele>
        <time>2022-09-29T22:44:14Z</time>
      </trkpt>
      <trkpt lat="46.0964" lon="4.65405">
        <ele>286</ele>
        <time>2022-09-29T22:44:23Z</time>
      </trkpt>
      <trkpt lat="46.09671" lon="4.65463">
        <ele>284</ele>
        <time>2022-09-29T22:44:32Z</time>
      </trkpt>
      <trkpt lat="46.09684" lon="4.65498">
        <ele>282</ele>
        <time>2022-09-29T22:44:37Z</time>
      </trkpt>
      <trkpt lat="46.09692" lon="4.65532">
        <ele>281</ele>
        <time>2022-09-29T22:44:41Z</time>
      </trkpt>
      <trkpt lat="46.09703" lon="4.65596">
        <ele>277</ele>
        <time>2022-09-29T22:44:50Z</time>
      </trkpt>
      <trkpt lat="46.09706" lon="4.65626">
        <ele>276</ele>
        <time>2022-09-29T22:44:53Z</time>
      </trkpt>
      <trkpt lat="46.09707" lon="4.65878">
        <ele>268</ele>
        <time>2022-09-29T22:45:24Z</time>
      </trkpt>
      <trkpt lat="46.09719" lon="4.66024">
        <ele>262</ele>
        <time>2022-09-29T22:45:43Z</time>
      </trkpt>
      <trkpt lat="46.09719" lon="4.66059">
        <ele>260</ele>
        <time>2022-09-29T22:45:47Z</time>
      </trkpt>
      <trkpt lat="46.09714" lon="4.66098">
        <ele>258</ele>
        <time>2022-09-29T22:45:52Z</time>
      </trkpt>
      <trkpt lat="46.0971" lon="4.66137">
        <ele>255</ele>
        <time>2022-09-29T22:45:57Z</time>
      </trkpt>
      <trkpt lat="46.09714" lon="4.66155">
        <ele>254</ele>
        <time>2022-09-29T22:45:59Z</time>
      </trkpt>
      <trkpt lat="46.0972" lon="4.66167">
        <ele>253</ele>
        <time>2022-09-29T22:46:01Z</time>
      </trkpt>
      <trkpt lat="46.09729" lon="4.66173">
        <ele>252</ele>
        <time>2022-09-29T22:46:02Z</time>
      </trkpt>
      <trkpt lat="46.09797" lon="4.66191">
        <ele>249</ele>
        <time>2022-09-29T22:46:15Z</time>
      </trkpt>
      <trkpt lat="46.09823" lon="4.66206">
        <ele>247</ele>
        <time>2022-09-29T22:46:20Z</time>
      </trkpt>
      <trkpt lat="46.09849" lon="4.66235">
        <ele>246</ele>
        <time>2022-09-29T22:46:26Z</time>
      </trkpt>
      <trkpt lat="46.0986" lon="4.66248">
        <ele>245</ele>
        <time>2022-09-29T22:46:28Z</time>
      </trkpt>
      <trkpt lat="46.09887" lon="4.66281">
        <ele>244</ele>
        <time>2022-09-29T22:46:34Z</time>
      </trkpt>
      <trkpt lat="46.09908" lon="4.66318">
        <ele>244</ele>
        <time>2022-09-29T22:46:40Z</time>
      </trkpt>
      <trkpt lat="46.09925" lon="4.66359">
        <ele>244</ele>
        <time>2022-09-29T22:46:46Z</time>
      </trkpt>
      <trkpt lat="46.09954" lon="4.66455">
        <ele>245</ele>
        <time>2022-09-29T22:46:59Z</time>
      </trkpt>
      <trkpt lat="46.09982" lon="4.66535">
        <ele>247</ele>
        <time>2022-09-29T22:47:10Z</time>
      </trkpt>
      <trkpt lat="46.10029" lon="4.66651">
        <ele>250</ele>
        <time>2022-09-29T22:47:27Z</time>
      </trkpt>
      <trkpt lat="46.10057" lon="4.66689">
        <ele>251</ele>
        <time>2022-09-29T22:47:34Z</time>
      </trkpt>
      <trkpt lat="46.10093" lon="4.66729">
        <ele>253</ele>
        <time>2022-09-29T22:47:42Z</time>
      </trkpt>
      <trkpt lat="46.10136" lon="4.66772">
        <ele>255</ele>
        <time>2022-09-29T22:47:51Z</time>
      </trkpt>
      <trkpt lat="46.10149" lon="4.66782">
        <ele>256</ele>
        <time>2022-09-29T22:47:54Z</time>
      </trkpt>
      <trkpt lat="46.10231" lon="4.6683">
        <ele>258</ele>
        <time>2022-09-29T22:48:09Z</time>
      </trkpt>
      <trkpt lat="46.10301" lon="4.66855">
        <ele>258</ele>
        <time>2022-09-29T22:48:22Z</time>
      </trkpt>
      <trkpt lat="46.10326" lon="4.66869">
        <ele>258</ele>
        <time>2022-09-29T22:48:27Z</time>
      </trkpt>
      <trkpt lat="46.10349" lon="4.66886">
        <ele>258</ele>
        <time>2022-09-29T22:48:32Z</time>
      </trkpt>
      <trkpt lat="46.10382" lon="4.66916">
        <ele>258</ele>
        <time>2022-09-29T22:48:39Z</time>
      </trkpt>
      <trkpt lat="46.10411" lon="4.66935">
        <ele>257</ele>
        <time>2022-09-29T22:48:44Z</time>
      </trkpt>
      <trkpt lat="46.10456" lon="4.66953">
        <ele>257</ele>
        <time>2022-09-29T22:48:53Z</time>
      </trkpt>
      <trkpt lat="46.1048" lon="4.66966">
        <ele>257</ele>
        <time>2022-09-29T22:48:57Z</time>
      </trkpt>
      <trkpt lat="46.10492" lon="4.66979">
        <ele>257</ele>
        <time>2022-09-29T22:49:00Z</time>
      </trkpt>
      <trkpt lat="46.10511" lon="4.67008">
        <ele>256</ele>
        <time>2022-09-29T22:49:05Z</time>
      </trkpt>
      <trkpt lat="46.10522" lon="4.67018">
        <ele>256</ele>
        <time>2022-09-29T22:49:07Z</time>
      </trkpt>
      <trkpt lat="46.10539" lon="4.67026">
        <ele>257</ele>
        <time>2022-09-29T22:49:10Z</time>
      </trkpt>
      <trkpt lat="46.10562" lon="4.67024">
        <ele>258</ele>
        <time>2022-09-29T22:49:14Z</time>
      </trkpt>
      <trkpt lat="46.10658" lon="4.66988">
        <ele>257</ele>
        <time>2022-09-29T22:49:32Z</time>
      </trkpt>
      <trkpt lat="46.10669" lon="4.66949">
        <ele>259</ele>
        <time>2022-09-29T22:49:37Z</time>
      </trkpt>
      <trkpt lat="46.10679" lon="4.66925">
        <ele>260</ele>
        <time>2022-09-29T22:49:41Z</time>
      </trkpt>
      <trkpt lat="46.10709" lon="4.6689">
        <ele>259</ele>
        <time>2022-09-29T22:49:47Z</time>
      </trkpt>
      <trkpt lat="46.10737" lon="4.6685">
        <ele>259</ele>
        <time>2022-09-29T22:49:54Z</time>
      </trkpt>
      <trkpt lat="46.10759" lon="4.66763">
        <ele>264</ele>
        <time>2022-09-29T22:50:06Z</time>
      </trkpt>
      <trkpt lat="46.10794" lon="4.66672">
        <ele>271</ele>
        <time>2022-09-29T22:50:19Z</time>
      </trkpt>
      <trkpt lat="46.10817" lon="4.66645">
        <ele>273</ele>
        <time>2022-09-29T22:50:24Z</time>
      </trkpt>
      <trkpt lat="46.10833" lon="4.66631">
        <ele>274</ele>
        <time>2022-09-29T22:50:27Z</time>
      </trkpt>
      <trkpt lat="46.1087" lon="4.66591">
        <ele>278</ele>
        <time>2022-09-29T22:50:36Z</time>
      </trkpt>
      <trkpt lat="46.10892" lon="4.6659">
        <ele>278</ele>
        <time>2022-09-29T22:50:39Z</time>
      </trkpt>
      <trkpt lat="46.10924" lon="4.66602">
        <ele>279</ele>
        <time>2022-09-29T22:50:45Z</time>
      </trkpt>
      <trkpt lat="46.10983" lon="4.66631">
        <ele>281</ele>
        <time>2022-09-29T22:50:56Z</time>
      </trkpt>
      <trkpt lat="46.11056" lon="4.66653">
        <ele>286</ele>
        <time>2022-09-29T22:51:10Z</time>
      </trkpt>
      <trkpt lat="46.11122" lon="4.66657">
        <ele>290</ele>
        <time>2022-09-29T22:51:21Z</time>
      </trkpt>
      <trkpt lat="46.11183" lon="4.6663">
        <ele>297</ele>
        <time>2022-09-29T22:51:33Z</time>
      </trkpt>
      <trkpt lat="46.11252" lon="4.66605">
        <ele>296</ele>
        <time>2022-09-29T22:51:45Z</time>
      </trkpt>
      <trkpt lat="46.1138" lon="4.66543">
        <ele>292</ele>
        <time>2022-09-29T22:52:09Z</time>
      </trkpt>
      <trkpt lat="46.11391" lon="4.6652">
        <ele>292</ele>
        <time>2022-09-29T22:52:13Z</time>
      </trkpt>
      <trkpt lat="46.11406" lon="4.66498">
        <ele>292</ele>
        <time>2022-09-29T22:52:17Z</time>
      </trkpt>
      <trkpt lat="46.11429" lon="4.66472">
        <ele>292</ele>
        <time>2022-09-29T22:52:22Z</time>
      </trkpt>
      <trkpt lat="46.11451" lon="4.66454">
        <ele>292</ele>
        <time>2022-09-29T22:52:26Z</time>
      </trkpt>
      <trkpt lat="46.11488" lon="4.66423">
        <ele>293</ele>
        <time>2022-09-29T22:52:34Z</time>
      </trkpt>
      <trkpt lat="46.11533" lon="4.66376">
        <ele>294</ele>
        <time>2022-09-29T22:52:44Z</time>
      </trkpt>
      <trkpt lat="46.11521" lon="4.66372">
        <ele>296</ele>
        <time>2022-09-29T22:52:46Z</time>
      </trkpt>
      <trkpt lat="46.11506" lon="4.66371">
        <ele>298</ele>
        <time>2022-09-29T22:52:49Z</time>
      </trkpt>
      <trkpt lat="46.1145" lon="4.66375">
        <ele>303</ele>
        <time>2022-09-29T22:52:59Z</time>
      </trkpt>
      <trkpt lat="46.11406" lon="4.66362">
        <ele>309</ele>
        <time>2022-09-29T22:53:07Z</time>
      </trkpt>
      <trkpt lat="46.1139" lon="4.6636">
        <ele>312</ele>
        <time>2022-09-29T22:53:10Z</time>
      </trkpt>
      <trkpt lat="46.11292" lon="4.66424">
        <ele>319</ele>
        <time>2022-09-29T22:53:29Z</time>
      </trkpt>
      <trkpt lat="46.11215" lon="4.66464">
        <ele>326</ele>
        <time>2022-09-29T22:53:43Z</time>
      </trkpt>
      <trkpt lat="46.11143" lon="4.66484">
        <ele>326</ele>
        <time>2022-09-29T22:53:56Z</time>
      </trkpt>
      <trkpt lat="46.11129" lon="4.66479">
        <ele>326</ele>
        <time>2022-09-29T22:53:59Z</time>
      </trkpt>
      <trkpt lat="46.11122" lon="4.66475">
        <ele>326</ele>
        <time>2022-09-29T22:54:00Z</time>
      </trkpt>
      <trkpt lat="46.11111" lon="4.66461">
        <ele>327</ele>
        <time>2022-09-29T22:54:03Z</time>
      </trkpt>
      <trkpt lat="46.11079" lon="4.66406">
        <ele>334</ele>
        <time>2022-09-29T22:54:12Z</time>
      </trkpt>
      <trkpt lat="46.1106" lon="4.66357">
        <ele>338</ele>
        <time>2022-09-29T22:54:19Z</time>
      </trkpt>
      <trkpt lat="46.11026" lon="4.66261">
        <ele>344</ele>
        <time>2022-09-29T22:54:32Z</time>
      </trkpt>
      <trkpt lat="46.11018" lon="4.66235">
        <ele>346</ele>
        <time>2022-09-29T22:54:35Z</time>
      </trkpt>
      <trkpt lat="46.11004" lon="4.66148">
        <ele>353</ele>
        <time>2022-09-29T22:54:47Z</time>
      </trkpt>
      <trkpt lat="46.11" lon="4.66079">
        <ele>363</ele>
        <time>2022-09-29T22:54:55Z</time>
      </trkpt>
      <trkpt lat="46.11002" lon="4.6607">
        <ele>364</ele>
        <time>2022-09-29T22:54:56Z</time>
      </trkpt>
      <trkpt lat="46.11006" lon="4.66069">
        <ele>365</ele>
        <time>2022-09-29T22:54:57Z</time>
      </trkpt>
      <trkpt lat="46.11015" lon="4.66078">
        <ele>366</ele>
        <time>2022-09-29T22:54:59Z</time>
      </trkpt>
      <trkpt lat="46.11086" lon="4.66194">
        <ele>369</ele>
        <time>2022-09-29T22:55:18Z</time>
      </trkpt>
      <trkpt lat="46.11096" lon="4.66205">
        <ele>369</ele>
        <time>2022-09-29T22:55:20Z</time>
      </trkpt>
      <trkpt lat="46.1111" lon="4.66212">
        <ele>369</ele>
        <time>2022-09-29T22:55:23Z</time>
      </trkpt>
      <trkpt lat="46.11126" lon="4.66217">
        <ele>371</ele>
        <time>2022-09-29T22:55:26Z</time>
      </trkpt>
      <trkpt lat="46.11135" lon="4.66215">
        <ele>372</ele>
        <time>2022-09-29T22:55:27Z</time>
      </trkpt>
      <trkpt lat="46.11141" lon="4.66208">
        <ele>374</ele>
        <time>2022-09-29T22:55:29Z</time>
      </trkpt>
      <trkpt lat="46.11141" lon="4.66196">
        <ele>375</ele>
        <time>2022-09-29T22:55:30Z</time>
      </trkpt>
      <trkpt lat="46.11138" lon="4.66151">
        <ele>382</ele>
        <time>2022-09-29T22:55:36Z</time>
      </trkpt>
      <trkpt lat="46.11143" lon="4.66111">
        <ele>389</ele>
        <time>2022-09-29T22:55:41Z</time>
      </trkpt>
      <trkpt lat="46.11148" lon="4.66092">
        <ele>392</ele>
        <time>2022-09-29T22:55:43Z</time>
      </trkpt>
      <trkpt lat="46.11151" lon="4.66054">
        <ele>397</ele>
        <time>2022-09-29T22:55:48Z</time>
      </trkpt>
      <trkpt lat="46.11146" lon="4.66035">
        <ele>399</ele>
        <time>2022-09-29T22:55:51Z</time>
      </trkpt>
      <trkpt lat="46.11129" lon="4.65999">
        <ele>400</ele>
        <time>2022-09-29T22:55:56Z</time>
      </trkpt>
      <trkpt lat="46.1112" lon="4.65968">
        <ele>400</ele>
        <time>2022-09-29T22:56:00Z</time>
      </trkpt>
      <trkpt lat="46.1111" lon="4.65901">
        <ele>404</ele>
        <time>2022-09-29T22:56:09Z</time>
      </trkpt>
      <trkpt lat="46.11106" lon="4.65892">
        <ele>404</ele>
        <time>2022-09-29T22:56:10Z</time>
      </trkpt>
      <trkpt lat="46.11092" lon="4.65884">
        <ele>404</ele>
        <time>2022-09-29T22:56:13Z</time>
      </trkpt>
      <trkpt lat="46.11067" lon="4.65863">
        <ele>404</ele>
        <time>2022-09-29T22:56:18Z</time>
      </trkpt>
      <trkpt lat="46.11048" lon="4.6584">
        <ele>405</ele>
        <time>2022-09-29T22:56:22Z</time>
      </trkpt>
      <trkpt lat="46.11021" lon="4.65803">
        <ele>412</ele>
        <time>2022-09-29T22:56:29Z</time>
      </trkpt>
      <trkpt lat="46.11018" lon="4.65795">
        <ele>414</ele>
        <time>2022-09-29T22:56:30Z</time>
      </trkpt>
      <trkpt lat="46.11013" lon="4.65779">
        <ele>418</ele>
        <time>2022-09-29T22:56:32Z</time>
      </trkpt>
      <trkpt lat="46.11011" lon="4.65755">
        <ele>424</ele>
        <time>2022-09-29T22:56:35Z</time>
      </trkpt>
      <trkpt lat="46.11021" lon="4.65691">
        <ele>432</ele>
        <time>2022-09-29T22:56:43Z</time>
      </trkpt>
      <trkpt lat="46.11014" lon="4.65681">
        <ele>435</ele>
        <time>2022-09-29T22:56:45Z</time>
      </trkpt>
      <trkpt lat="46.10969" lon="4.65683">
        <ele>440</ele>
        <time>2022-09-29T22:56:53Z</time>
      </trkpt>
      <trkpt lat="46.10927" lon="4.65673">
        <ele>445</ele>
        <time>2022-09-29T22:57:00Z</time>
      </trkpt>
      <trkpt lat="46.10923" lon="4.65666">
        <ele>447</ele>
        <time>2022-09-29T22:57:02Z</time>
      </trkpt>
      <trkpt lat="46.10924" lon="4.65662">
        <ele>447</ele>
        <time>2022-09-29T22:57:02Z</time>
      </trkpt>
      <trkpt lat="46.1095" lon="4.65646">
        <ele>447</ele>
        <time>2022-09-29T22:57:07Z</time>
      </trkpt>
      <trkpt lat="46.10967" lon="4.65627">
        <ele>447</ele>
        <time>2022-09-29T22:57:11Z</time>
      </trkpt>
      <trkpt lat="46.10977" lon="4.65611">
        <ele>448</ele>
        <time>2022-09-29T22:57:14Z</time>
      </trkpt>
      <trkpt lat="46.10978" lon="4.65601">
        <ele>449</ele>
        <time>2022-09-29T22:57:15Z</time>
      </trkpt>
      <trkpt lat="46.10972" lon="4.65599">
        <ele>450</ele>
        <time>2022-09-29T22:57:16Z</time>
      </trkpt>
      <trkpt lat="46.10953" lon="4.65605">
        <ele>451</ele>
        <time>2022-09-29T22:57:19Z</time>
      </trkpt>
      <trkpt lat="46.10934" lon="4.65604">
        <ele>453</ele>
        <time>2022-09-29T22:57:23Z</time>
      </trkpt>
      <trkpt lat="46.1088" lon="4.65583">
        <ele>460</ele>
        <time>2022-09-29T22:57:33Z</time>
      </trkpt>
      <trkpt lat="46.10876" lon="4.65575">
        <ele>461</ele>
        <time>2022-09-29T22:57:34Z</time>
      </trkpt>
      <trkpt lat="46.10882" lon="4.65563">
        <ele>462</ele>
        <time>2022-09-29T22:57:36Z</time>
      </trkpt>
      <trkpt lat="46.10906" lon="4.65528">
        <ele>464</ele>
        <time>2022-09-29T22:57:42Z</time>
      </trkpt>
      <trkpt lat="46.10912" lon="4.65507">
        <ele>465</ele>
        <time>2022-09-29T22:57:45Z</time>
      </trkpt>
      <trkpt lat="46.10904" lon="4.65501">
        <ele>466</ele>
        <time>2022-09-29T22:57:46Z</time>
      </trkpt>
      <trkpt lat="46.10855" lon="4.65499">
        <ele>472</ele>
        <time>2022-09-29T22:57:55Z</time>
      </trkpt>
      <trkpt lat="46.10842" lon="4.65493">
        <ele>474</ele>
        <time>2022-09-29T22:57:57Z</time>
      </trkpt>
      <trkpt lat="46.10825" lon="4.65474">
        <ele>476</ele>
        <time>2022-09-29T22:58:01Z</time>
      </trkpt>
      <trkpt lat="46.10809" lon="4.65464">
        <ele>476</ele>
        <time>2022-09-29T22:58:04Z</time>
      </trkpt>
      <trkpt lat="46.10795" lon="4.65463">
        <ele>477</ele>
        <time>2022-09-29T22:58:07Z</time>
      </trkpt>
      <trkpt lat="46.1077" lon="4.65476">
        <ele>477</ele>
        <time>2022-09-29T22:58:12Z</time>
      </trkpt>
      <trkpt lat="46.10753" lon="4.65506">
        <ele>477</ele>
        <time>2022-09-29T22:58:16Z</time>
      </trkpt>
      <trkpt lat="46.10743" lon="4.65509">
        <ele>476</ele>
        <time>2022-09-29T22:58:18Z</time>
      </trkpt>
      <trkpt lat="46.10725" lon="4.65503">
        <ele>476</ele>
        <time>2022-09-29T22:58:21Z</time>
      </trkpt>
      <trkpt lat="46.10713" lon="4.655">
        <ele>476</ele>
        <time>2022-09-29T22:58:24Z</time>
      </trkpt>
      <trkpt lat="46.10659" lon="4.65499">
        <ele>471</ele>
        <time>2022-09-29T22:58:33Z</time>
      </trkpt>
      <trkpt lat="46.10652" lon="4.65494">
        <ele>470</ele>
        <time>2022-09-29T22:58:35Z</time>
      </trkpt>
      <trkpt lat="46.10647" lon="4.65485">
        <ele>469</ele>
        <time>2022-09-29T22:58:36Z</time>
      </trkpt>
      <trkpt lat="46.10644" lon="4.65472">
        <ele>468</ele>
        <time>2022-09-29T22:58:38Z</time>
      </trkpt>
      <trkpt lat="46.10644" lon="4.65457">
        <ele>469</ele>
        <time>2022-09-29T22:58:40Z</time>
      </trkpt>
      <trkpt lat="46.10647" lon="4.65445">
        <ele>469</ele>
        <time>2022-09-29T22:58:41Z</time>
      </trkpt>
      <trkpt lat="46.1066" lon="4.65421">
        <ele>472</ele>
        <time>2022-09-29T22:58:45Z</time>
      </trkpt>
      <trkpt lat="46.10718" lon="4.65337">
        <ele>464</ele>
        <time>2022-09-29T22:58:59Z</time>
      </trkpt>
      <trkpt lat="46.10735" lon="4.65319">
        <ele>463</ele>
        <time>2022-09-29T22:59:03Z</time>
      </trkpt>
      <trkpt lat="46.10752" lon="4.65306">
        <ele>462</ele>
        <time>2022-09-29T22:59:07Z</time>
      </trkpt>
      <trkpt lat="46.1076" lon="4.65296">
        <ele>461</ele>
        <time>2022-09-29T22:59:09Z</time>
      </trkpt>
      <trkpt lat="46.1076" lon="4.65282">
        <ele>459</ele>
        <time>2022-09-29T22:59:10Z</time>
      </trkpt>
      <trkpt lat="46.10756" lon="4.6527">
        <ele>457</ele>
        <time>2022-09-29T22:59:12Z</time>
      </trkpt>
      <trkpt lat="46.1075" lon="4.6526">
        <ele>455</ele>
        <time>2022-09-29T22:59:14Z</time>
      </trkpt>
      <trkpt lat="46.10738" lon="4.65258">
        <ele>454</ele>
        <time>2022-09-29T22:59:16Z</time>
      </trkpt>
      <trkpt lat="46.10722" lon="4.65262">
        <ele>453</ele>
        <time>2022-09-29T22:59:19Z</time>
      </trkpt>
      <trkpt lat="46.10698" lon="4.65272">
        <ele>451</ele>
        <time>2022-09-29T22:59:23Z</time>
      </trkpt>
      <trkpt lat="46.10687" lon="4.65275">
        <ele>451</ele>
        <time>2022-09-29T22:59:25Z</time>
      </trkpt>
      <trkpt lat="46.10662" lon="4.65275">
        <ele>448</ele>
        <time>2022-09-29T22:59:29Z</time>
      </trkpt>
      <trkpt lat="46.10629" lon="4.65268">
        <ele>443</ele>
        <time>2022-09-29T22:59:35Z</time>
      </trkpt>
      <trkpt lat="46.10617" lon="4.65271">
        <ele>442</ele>
        <time>2022-09-29T22:59:38Z</time>
      </trkpt>
      <trkpt lat="46.10594" lon="4.65283">
        <ele>440</ele>
        <time>2022-09-29T22:59:42Z</time>
      </trkpt>
      <trkpt lat="46.10536" lon="4.65316">
        <ele>433</ele>
        <time>2022-09-29T22:59:53Z</time>
      </trkpt>
      <trkpt lat="46.10505" lon="4.65354">
        <ele>429</ele>
        <time>2022-09-29T23:00:00Z</time>
      </trkpt>
      <trkpt lat="46.10496" lon="4.65379">
        <ele>427</ele>
        <time>2022-09-29T23:00:04Z</time>
      </trkpt>
      <trkpt lat="46.10493" lon="4.65398">
        <ele>426</ele>
        <time>2022-09-29T23:00:06Z</time>
      </trkpt>
      <trkpt lat="46.10494" lon="4.65416">
        <ele>427</ele>
        <time>2022-09-29T23:00:08Z</time>
      </trkpt>
      <trkpt lat="46.10501" lon="4.65449">
        <ele>428</ele>
        <time>2022-09-29T23:00:13Z</time>
      </trkpt>
      <trkpt lat="46.10504" lon="4.65477">
        <ele>428</ele>
        <time>2022-09-29T23:00:16Z</time>
      </trkpt>
      <trkpt lat="46.10501" lon="4.65491">
        <ele>427</ele>
        <time>2022-09-29T23:00:18Z</time>
      </trkpt>
      <trkpt lat="46.1049" lon="4.65504">
        <ele>422</ele>
        <time>2022-09-29T23:00:20Z</time>
      </trkpt>
      <trkpt lat="46.10483" lon="4.65498">
        <ele>419</ele>
        <time>2022-09-29T23:00:22Z</time>
      </trkpt>
      <trkpt lat="46.10475" lon="4.65483">
        <ele>416</ele>
        <time>2022-09-29T23:00:24Z</time>
      </trkpt>
      <trkpt lat="46.10467" lon="4.6544">
        <ele>415</ele>
        <time>2022-09-29T23:00:30Z</time>
      </trkpt>
      <trkpt lat="46.10442" lon="4.65347">
        <ele>408</ele>
        <time>2022-09-29T23:00:42Z</time>
      </trkpt>
      <trkpt lat="46.10414" lon="4.65214">
        <ele>394</ele>
        <time>2022-09-29T23:00:59Z</time>
      </trkpt>
      <trkpt lat="46.10418" lon="4.65189">
        <ele>391</ele>
        <time>2022-09-29T23:01:02Z</time>
      </trkpt>
      <trkpt lat="46.10426" lon="4.6517">
        <ele>390</ele>
        <time>2022-09-29T23:01:05Z</time>
      </trkpt>
      <trkpt lat="46.10439" lon="4.6515">
        <ele>388</ele>
        <time>2022-09-29T23:01:08Z</time>
      </trkpt>
      <trkpt lat="46.10557" lon="4.65015">
        <ele>374</ele>
        <time>2022-09-29T23:01:35Z</time>
      </trkpt>
      <trkpt lat="46.10642" lon="4.64941">
        <ele>369</ele>
        <time>2022-09-29T23:01:53Z</time>
      </trkpt>
      <trkpt lat="46.10653" lon="4.64926">
        <ele>367</ele>
        <time>2022-09-29T23:01:56Z</time>
      </trkpt>
      <trkpt lat="46.10672" lon="4.64856">
        <ele>359</ele>
        <time>2022-09-29T23:02:05Z</time>
      </trkpt>
      <trkpt lat="46.10672" lon="4.64838">
        <ele>357</ele>
        <time>2022-09-29T23:02:07Z</time>
      </trkpt>
      <trkpt lat="46.10666" lon="4.64827">
        <ele>355</ele>
        <time>2022-09-29T23:02:09Z</time>
      </trkpt>
      <trkpt lat="46.10657" lon="4.6482">
        <ele>354</ele>
        <time>2022-09-29T23:02:11Z</time>
      </trkpt>
      <trkpt lat="46.10639" lon="4.64817">
        <ele>351</ele>
        <time>2022-09-29T23:02:14Z</time>
      </trkpt>
      <trkpt lat="46.10631" lon="4.64812">
        <ele>350</ele>
        <time>2022-09-29T23:02:15Z</time>
      </trkpt>
      <trkpt lat="46.10627" lon="4.64799">
        <ele>349</ele>
        <time>2022-09-29T23:02:17Z</time>
      </trkpt>
      <trkpt lat="46.10618" lon="4.64734">
        <ele>344</ele>
        <time>2022-09-29T23:02:25Z</time>
      </trkpt>
      <trkpt lat="46.10622" lon="4.64712">
        <ele>343</ele>
        <time>2022-09-29T23:02:28Z</time>
      </trkpt>
      <trkpt lat="46.10629" lon="4.64699">
        <ele>342</ele>
        <time>2022-09-29T23:02:30Z</time>
      </trkpt>
      <trkpt lat="46.1069" lon="4.64623">
        <ele>339</ele>
        <time>2022-09-29T23:02:45Z</time>
      </trkpt>
      <trkpt lat="46.10693" lon="4.64616">
        <ele>338</ele>
        <time>2022-09-29T23:02:46Z</time>
      </trkpt>
      <trkpt lat="46.10692" lon="4.646">
        <ele>337</ele>
        <time>2022-09-29T23:02:48Z</time>
      </trkpt>
      <trkpt lat="46.10683" lon="4.64564">
        <ele>336</ele>
        <time>2022-09-29T23:02:52Z</time>
      </trkpt>
      <trkpt lat="46.10653" lon="4.64416">
        <ele>332</ele>
        <time>2022-09-29T23:03:11Z</time>
      </trkpt>
      <trkpt lat="46.1066" lon="4.64392">
        <ele>332</ele>
        <time>2022-09-29T23:03:15Z</time>
      </trkpt>
      <trkpt lat="46.1067" lon="4.64344">
        <ele>331</ele>
        <time>2022-09-29T23:03:21Z</time>
      </trkpt>
      <trkpt lat="46.10673" lon="4.64318">
        <ele>330</ele>
        <time>2022-09-29T23:03:24Z</time>
      </trkpt>
      <trkpt lat="46.1065" lon="4.64318">
        <ele>332</ele>
        <time>2022-09-29T23:03:28Z</time>
      </trkpt>
      <trkpt lat="46.10624" lon="4.64323">
        <ele>333</ele>
        <time>2022-09-29T23:03:33Z</time>
      </trkpt>
      <trkpt lat="46.10531" lon="4.64328">
        <ele>334</ele>
        <time>2022-09-29T23:03:49Z</time>
      </trkpt>
      <trkpt lat="46.10489" lon="4.64315">
        <ele>333</ele>
        <time>2022-09-29T23:03:57Z</time>
      </trkpt>
      <trkpt lat="46.10386" lon="4.64267">
        <ele>329</ele>
        <time>2022-09-29T23:04:16Z</time>
      </trkpt>
      <trkpt lat="46.10351" lon="4.64256">
        <ele>328</ele>
        <time>2022-09-29T23:04:23Z</time>
      </trkpt>
      <trkpt lat="46.10333" lon="4.64254">
        <ele>327</ele>
        <time>2022-09-29T23:04:26Z</time>
      </trkpt>
      <trkpt lat="46.10311" lon="4.64258">
        <ele>326</ele>
        <time>2022-09-29T23:04:30Z</time>
      </trkpt>
      <trkpt lat="46.10236" lon="4.64292">
        <ele>323</ele>
        <time>2022-09-29T23:04:44Z</time>
      </trkpt>
      <trkpt lat="46.10189" lon="4.64308">
        <ele>321</ele>
        <time>2022-09-29T23:04:52Z</time>
      </trkpt>
      <trkpt lat="46.10036" lon="4.64324">
        <ele>320</ele>
        <time>2022-09-29T23:05:20Z</time>
      </trkpt>
      <trkpt lat="46.10021" lon="4.64323">
        <ele>320</ele>
        <time>2022-09-29T23:05:22Z</time>
      </trkpt>
      <trkpt lat="46.10004" lon="4.64317">
        <ele>320</ele>
        <time>2022-09-29T23:05:25Z</time>
      </trkpt>
      <trkpt lat="46.09994" lon="4.64308">
        <ele>319</ele>
        <time>2022-09-29T23:05:27Z</time>
      </trkpt>
      <trkpt lat="46.09983" lon="4.64293">
        <ele>319</ele>
        <time>2022-09-29T23:05:30Z</time>
      </trkpt>
      <trkpt lat="46.09973" lon="4.64268">
        <ele>318</ele>
        <time>2022-09-29T23:05:34Z</time>
      </trkpt>
      <trkpt lat="46.09952" lon="4.64187">
        <ele>317</ele>
        <time>2022-09-29T23:05:44Z</time>
      </trkpt>
      <trkpt lat="46.09936" lon="4.64137">
        <ele>317</ele>
        <time>2022-09-29T23:05:51Z</time>
      </trkpt>
      <trkpt lat="46.09918" lon="4.64092">
        <ele>316</ele>
        <time>2022-09-29T23:05:58Z</time>
      </trkpt>
      <trkpt lat="46.09899" lon="4.64054">
        <ele>318</ele>
        <time>2022-09-29T23:06:03Z</time>
      </trkpt>
      <trkpt lat="46.09891" lon="4.64041">
        <ele>319</ele>
        <time>2022-09-29T23:06:06Z</time>
      </trkpt>
      <trkpt lat="46.09871" lon="4.64027">
        <ele>320</ele>
        <time>2022-09-29T23:06:09Z</time>
      </trkpt>
      <trkpt lat="46.0986" lon="4.64025">
        <ele>320</ele>
        <time>2022-09-29T23:06:11Z</time>
      </trkpt>
      <trkpt lat="46.09847" lon="4.64027">
        <ele>320</ele>
        <time>2022-09-29T23:06:14Z</time>
      </trkpt>
      <trkpt lat="46.09835" lon="4.64038">
        <ele>318</ele>
        <time>2022-09-29T23:06:16Z</time>
      </trkpt>
      <trkpt lat="46.09829" lon="4.64047">
        <ele>319</ele>
        <time>2022-09-29T23:06:18Z</time>
      </trkpt>
      <trkpt lat="46.0982" lon="4.64078">
        <ele>318</ele>
        <time>2022-09-29T23:06:22Z</time>
      </trkpt>
      <trkpt lat="46.09792" lon="4.64211">
        <ele>316</ele>
        <time>2022-09-29T23:06:39Z</time>
      </trkpt>
      <trkpt lat="46.09788" lon="4.64238">
        <ele>314</ele>
        <time>2022-09-29T23:06:43Z</time>
      </trkpt>
      <trkpt lat="46.09778" lon="4.64343">
        <ele>312</ele>
        <time>2022-09-29T23:06:56Z</time>
      </trkpt>
      <trkpt lat="46.09772" lon="4.6439">
        <ele>311</ele>
        <time>2022-09-29T23:07:02Z</time>
      </trkpt>
      <trkpt lat="46.09764" lon="4.64422">
        <ele>310</ele>
        <time>2022-09-29T23:07:06Z</time>
      </trkpt>
      <trkpt lat="46.09754" lon="4.64454">
        <ele>310</ele>
        <time>2022-09-29T23:07:10Z</time>
      </trkpt>
      <trkpt lat="46.09741" lon="4.64479">
        <ele>310</ele>
        <time>2022-09-29T23:07:14Z</time>
      </trkpt>
      <trkpt lat="46.09722" lon="4.64507">
        <ele>312</ele>
        <time>2022-09-29T23:07:19Z</time>
      </trkpt>
      <trkpt lat="46.097" lon="4.64529">
        <ele>314</ele>
        <time>2022-09-29T23:07:23Z</time>
      </trkpt>
      <trkpt lat="46.09637" lon="4.64573">
        <ele>317</ele>
        <time>2022-09-29T23:07:36Z</time>
      </trkpt>
      <trkpt lat="46.09618" lon="4.64583">
        <ele>317</ele>
        <time>2022-09-29T23:07:40Z</time>
      </trkpt>
      <trkpt lat="46.09603" lon="4.64589">
        <ele>318</ele>
        <time>2022-09-29T23:07:42Z</time>
      </trkpt>
      <trkpt lat="46.09416" lon="4.64634">
        <ele>322</ele>
        <time>2022-09-29T23:08:16Z</time>
      </trkpt>
      <trkpt lat="46.09373" lon="4.64653">
        <ele>319</ele>
        <time>2022-09-29T23:08:24Z</time>
      </trkpt>
      <trkpt lat="46.09311" lon="4.64685">
        <ele>314</ele>
        <time>2022-09-29T23:08:36Z</time>
      </trkpt>
      <trkpt lat="46.09278" lon="4.64696">
        <ele>312</ele>
        <time>2022-09-29T23:08:42Z</time>
      </trkpt>
      <trkpt lat="46.09247" lon="4.64702">
        <ele>311</ele>
        <time>2022-09-29T23:08:47Z</time>
      </trkpt>
      <trkpt lat="46.09202" lon="4.64704">
        <ele>309</ele>
        <time>2022-09-29T23:08:55Z</time>
      </trkpt>
      <trkpt lat="46.08984" lon="4.64701">
        <ele>300</ele>
        <time>2022-09-29T23:09:34Z</time>
      </trkpt>
      <trkpt lat="46.08973" lon="4.64704">
        <ele>299</ele>
        <time>2022-09-29T23:09:36Z</time>
      </trkpt>
      <trkpt lat="46.0897" lon="4.647">
        <ele>299</ele>
        <time>2022-09-29T23:09:37Z</time>
      </trkpt>
      <trkpt lat="46.08965" lon="4.64701">
        <ele>299</ele>
        <time>2022-09-29T23:09:38Z</time>
      </trkpt>
      <trkpt lat="46.08958" lon="4.64694">
        <ele>298</ele>
        <time>2022-09-29T23:09:39Z</time>
      </trkpt>
      <trkpt lat="46.08863" lon="4.6467">
        <ele>297</ele>
        <time>2022-09-29T23:09:56Z</time>
      </trkpt>
      <trkpt lat="46.08842" lon="4.64667">
        <ele>297</ele>
        <time>2022-09-29T23:10:00Z</time>
      </trkpt>
      <trkpt lat="46.08798" lon="4.64672">
        <ele>299</ele>
        <time>2022-09-29T23:10:08Z</time>
      </trkpt>
      <trkpt lat="46.08731" lon="4.64654">
        <ele>301</ele>
        <time>2022-09-29T23:10:20Z</time>
      </trkpt>
      <trkpt lat="46.08677" lon="4.64623">
        <ele>302</ele>
        <time>2022-09-29T23:10:31Z</time>
      </trkpt>
      <trkpt lat="46.08566" lon="4.64565">
        <ele>296</ele>
        <time>2022-09-29T23:10:52Z</time>
      </trkpt>
      <trkpt lat="46.08566" lon="4.64557">
        <ele>296</ele>
        <time>2022-09-29T23:10:53Z</time>
      </trkpt>
      <trkpt lat="46.0856" lon="4.64553">
        <ele>295</ele>
        <time>2022-09-29T23:10:54Z</time>
      </trkpt>
      <trkpt lat="46.08556" lon="4.64554">
        <ele>295</ele>
        <time>2022-09-29T23:10:54Z</time>
      </trkpt>
      <trkpt lat="46.08554" lon="4.64559">
        <ele>295</ele>
        <time>2022-09-29T23:10:55Z</time>
      </trkpt>
      <trkpt lat="46.08347" lon="4.64472">
        <ele>291</ele>
        <time>2022-09-29T23:11:33Z</time>
      </trkpt>
      <trkpt lat="46.08304" lon="4.64461">
        <ele>290</ele>
        <time>2022-09-29T23:11:41Z</time>
      </trkpt>
      <trkpt lat="46.08248" lon="4.64454">
        <ele>289</ele>
        <time>2022-09-29T23:11:51Z</time>
      </trkpt>
      <trkpt lat="46.08214" lon="4.64454">
        <ele>290</ele>
        <time>2022-09-29T23:11:57Z</time>
      </trkpt>
      <trkpt lat="46.0818" lon="4.64461">
        <ele>290</ele>
        <time>2022-09-29T23:12:03Z</time>
      </trkpt>
      <trkpt lat="46.07891" lon="4.64541">
        <ele>287</ele>
        <time>2022-09-29T23:12:56Z</time>
      </trkpt>
      <trkpt lat="46.07739" lon="4.64596">
        <ele>286</ele>
        <time>2022-09-29T23:13:24Z</time>
      </trkpt>
      <trkpt lat="46.07534" lon="4.64675">
        <ele>281</ele>
        <time>2022-09-29T23:14:01Z</time>
      </trkpt>
      <trkpt lat="46.0736" lon="4.64719">
        <ele>272</ele>
        <time>2022-09-29T23:14:33Z</time>
      </trkpt>
      <trkpt lat="46.07217" lon="4.6476">
        <ele>271</ele>
        <time>2022-09-29T23:14:59Z</time>
      </trkpt>
      <trkpt lat="46.07154" lon="4.64773">
        <ele>271</ele>
        <time>2022-09-29T23:15:10Z</time>
      </trkpt>
      <trkpt lat="46.07071" lon="4.64796">
        <ele>273</ele>
        <time>2022-09-29T23:15:25Z</time>
      </trkpt>
      <trkpt lat="46.07017" lon="4.64808">
        <ele>274</ele>
        <time>2022-09-29T23:15:35Z</time>
      </trkpt>
      <trkpt lat="46.07009" lon="4.64812">
        <ele>274</ele>
        <time>2022-09-29T23:15:36Z</time>
      </trkpt>
      <trkpt lat="46.06978" lon="4.64827">
        <ele>274</ele>
        <time>2022-09-29T23:15:42Z</time>
      </trkpt>
      <trkpt lat="46.06901" lon="4.64878">
        <ele>274</ele>
        <time>2022-09-29T23:15:57Z</time>
      </trkpt>
      <trkpt lat="46.06826" lon="4.6492">
        <ele>273</ele>
        <time>2022-09-29T23:16:12Z</time>
      </trkpt>
      <trkpt lat="46.06821" lon="4.6492">
        <ele>273</ele>
        <time>2022-09-29T23:16:12Z</time>
      </trkpt>
      <trkpt lat="46.06816" lon="4.64925">
        <ele>273</ele>
        <time>2022-09-29T23:16:14Z</time>
      </trkpt>
      <trkpt lat="46.06804" lon="4.64931">
        <ele>273</ele>
        <time>2022-09-29T23:16:16Z</time>
      </trkpt>
      <trkpt lat="46.06745" lon="4.64963">
        <ele>274</ele>
        <time>2022-09-29T23:16:27Z</time>
      </trkpt>
      <trkpt lat="46.0674" lon="4.64887">
        <ele>276</ele>
        <time>2022-09-29T23:16:36Z</time>
      </trkpt>
      <trkpt lat="46.06733" lon="4.64824">
        <ele>277</ele>
        <time>2022-09-29T23:16:44Z</time>
      </trkpt>
      <trkpt lat="46.0673" lon="4.64815">
        <ele>277</ele>
        <time>2022-09-29T23:16:46Z</time>
      </trkpt>
      <trkpt lat="46.06682" lon="4.64795">
        <ele>278</ele>
        <time>2022-09-29T23:16:54Z</time>
      </trkpt>
      <trkpt lat="46.06644" lon="4.64782">
        <ele>278</ele>
        <time>2022-09-29T23:17:01Z</time>
      </trkpt>
      <trkpt lat="46.06465" lon="4.64704">
        <ele>282</ele>
        <time>2022-09-29T23:17:35Z</time>
      </trkpt>
      <trkpt lat="46.06334" lon="4.64639">
        <ele>281</ele>
        <time>2022-09-29T23:17:59Z</time>
      </trkpt>
      <trkpt lat="46.06208" lon="4.64566">
        <ele>276</ele>
        <time>2022-09-29T23:18:24Z</time>
      </trkpt>
      <trkpt lat="46.06192" lon="4.64552">
        <ele>275</ele>
        <time>2022-09-29T23:18:27Z</time>
      </trkpt>
      <trkpt lat="46.06174" lon="4.64526">
        <ele>274</ele>
        <time>2022-09-29T23:18:31Z</time>
      </trkpt>
      <trkpt lat="46.06073" lon="4.64337">
        <ele>276</ele>
        <time>2022-09-29T23:19:01Z</time>
      </trkpt>
      <trkpt lat="46.06065" lon="4.64317">
        <ele>276</ele>
        <time>2022-09-29T23:19:04Z</time>
      </trkpt>
      <trkpt lat="46.0606" lon="4.64296">
        <ele>276</ele>
        <time>2022-09-29T23:19:06Z</time>
      </trkpt>
      <trkpt lat="46.06055" lon="4.64254">
        <ele>276</ele>
        <time>2022-09-29T23:19:12Z</time>
      </trkpt>
      <trkpt lat="46.06055" lon="4.64206">
        <ele>276</ele>
        <time>2022-09-29T23:19:18Z</time>
      </trkpt>
      <trkpt lat="46.06075" lon="4.63897">
        <ele>272</ele>
        <time>2022-09-29T23:19:56Z</time>
      </trkpt>
      <trkpt lat="46.06064" lon="4.63879">
        <ele>271</ele>
        <time>2022-09-29T23:19:59Z</time>
      </trkpt>
      <trkpt lat="46.06053" lon="4.63867">
        <ele>270</ele>
        <time>2022-09-29T23:20:01Z</time>
      </trkpt>
      <trkpt lat="46.0602" lon="4.63849">
        <ele>268</ele>
        <time>2022-09-29T23:20:08Z</time>
      </trkpt>
      <trkpt lat="46.05906" lon="4.63799">
        <ele>259</ele>
        <time>2022-09-29T23:20:29Z</time>
      </trkpt>
      <trkpt lat="46.05893" lon="4.63799">
        <ele>258</ele>
        <time>2022-09-29T23:20:31Z</time>
      </trkpt>
      <trkpt lat="46.05834" lon="4.63834">
        <ele>255</ele>
        <time>2022-09-29T23:20:42Z</time>
      </trkpt>
      <trkpt lat="46.05818" lon="4.63833">
        <ele>254</ele>
        <time>2022-09-29T23:20:45Z</time>
      </trkpt>
      <trkpt lat="46.05803" lon="4.63822">
        <ele>252</ele>
        <time>2022-09-29T23:20:48Z</time>
      </trkpt>
      <trkpt lat="46.0576" lon="4.6378">
        <ele>248</ele>
        <time>2022-09-29T23:20:58Z</time>
      </trkpt>
      <trkpt lat="46.05712" lon="4.63736">
        <ele>245</ele>
        <time>2022-09-29T23:21:08Z</time>
      </trkpt>
      <trkpt lat="46.05687" lon="4.63715">
        <ele>244</ele>
        <time>2022-09-29T23:21:13Z</time>
      </trkpt>
      <trkpt lat="46.05682" lon="4.63714">
        <ele>244</ele>
        <time>2022-09-29T23:21:14Z</time>
      </trkpt>
      <trkpt lat="46.05666" lon="4.63712">
        <ele>243</ele>
        <time>2022-09-29T23:21:17Z</time>
      </trkpt>
      <trkpt lat="46.0557" lon="4.63682">
        <ele>244</ele>
        <time>2022-09-29T23:21:34Z</time>
      </trkpt>
      <trkpt lat="46.05463" lon="4.63639">
        <ele>248</ele>
        <time>2022-09-29T23:21:54Z</time>
      </trkpt>
      <trkpt lat="46.05356" lon="4.63611">
        <ele>255</ele>
        <time>2022-09-29T23:22:13Z</time>
      </trkpt>
      <trkpt lat="46.05288" lon="4.63603">
        <ele>260</ele>
        <time>2022-09-29T23:22:25Z</time>
      </trkpt>
      <trkpt lat="46.05182" lon="4.63605">
        <ele>267</ele>
        <time>2022-09-29T23:22:44Z</time>
      </trkpt>
      <trkpt lat="46.05163" lon="4.63608">
        <ele>268</ele>
        <time>2022-09-29T23:22:48Z</time>
      </trkpt>
      <trkpt lat="46.05152" lon="4.63615">
        <ele>268</ele>
        <time>2022-09-29T23:22:50Z</time>
      </trkpt>
      <trkpt lat="46.05141" lon="4.63632">
        <ele>269</ele>
        <time>2022-09-29T23:22:53Z</time>
      </trkpt>
      <trkpt lat="46.05131" lon="4.63653">
        <ele>269</ele>
        <time>2022-09-29T23:22:56Z</time>
      </trkpt>
      <trkpt lat="46.05097" lon="4.63746">
        <ele>272</ele>
        <time>2022-09-29T23:23:09Z</time>
      </trkpt>
      <trkpt lat="46.05084" lon="4.63777">
        <ele>273</ele>
        <time>2022-09-29T23:23:13Z</time>
      </trkpt>
      <trkpt lat="46.05074" lon="4.63795">
        <ele>273</ele>
        <time>2022-09-29T23:23:16Z</time>
      </trkpt>
      <trkpt lat="46.05063" lon="4.63809">
        <ele>274</ele>
        <time>2022-09-29T23:23:19Z</time>
      </trkpt>
      <trkpt lat="46.05049" lon="4.6382">
        <ele>274</ele>
        <time>2022-09-29T23:23:22Z</time>
      </trkpt>
      <trkpt lat="46.05033" lon="4.63829">
        <ele>275</ele>
        <time>2022-09-29T23:23:25Z</time>
      </trkpt>
      <trkpt lat="46.0499" lon="4.63844">
        <ele>276</ele>
        <time>2022-09-29T23:23:32Z</time>
      </trkpt>
      <trkpt lat="46.04784" lon="4.63907">
        <ele>274</ele>
        <time>2022-09-29T23:24:10Z</time>
      </trkpt>
      <trkpt lat="46.04758" lon="4.63921">
        <ele>273</ele>
        <time>2022-09-29T23:24:15Z</time>
      </trkpt>
      <trkpt lat="46.04715" lon="4.63953">
        <ele>274</ele>
        <time>2022-09-29T23:24:23Z</time>
      </trkpt>
      <trkpt lat="46.04682" lon="4.63984">
        <ele>275</ele>
        <time>2022-09-29T23:24:30Z</time>
      </trkpt>
      <trkpt lat="46.04665" lon="4.63993">
        <ele>275</ele>
        <time>2022-09-29T23:24:34Z</time>
      </trkpt>
      <trkpt lat="46.04647" lon="4.63995">
        <ele>273</ele>
        <time>2022-09-29T23:24:37Z</time>
      </trkpt>
      <trkpt lat="46.04633" lon="4.63991">
        <ele>272</ele>
        <time>2022-09-29T23:24:39Z</time>
      </trkpt>
      <trkpt lat="46.0462" lon="4.63985">
        <ele>272</ele>
        <time>2022-09-29T23:24:42Z</time>
      </trkpt>
      <trkpt lat="46.04605" lon="4.63972">
        <ele>272</ele>
        <time>2022-09-29T23:24:45Z</time>
      </trkpt>
      <trkpt lat="46.0452" lon="4.63884">
        <ele>271</ele>
        <time>2022-09-29T23:25:04Z</time>
      </trkpt>
      <trkpt lat="46.04508" lon="4.63866">
        <ele>271</ele>
        <time>2022-09-29T23:25:07Z</time>
      </trkpt>
      <trkpt lat="46.04495" lon="4.63825">
        <ele>272</ele>
        <time>2022-09-29T23:25:12Z</time>
      </trkpt>
      <trkpt lat="46.04488" lon="4.6379">
        <ele>275</ele>
        <time>2022-09-29T23:25:17Z</time>
      </trkpt>
      <trkpt lat="46.04476" lon="4.63745">
        <ele>277</ele>
        <time>2022-09-29T23:25:23Z</time>
      </trkpt>
      <trkpt lat="46.0447" lon="4.63736">
        <ele>277</ele>
        <time>2022-09-29T23:25:24Z</time>
      </trkpt>
      <trkpt lat="46.04462" lon="4.63728">
        <ele>277</ele>
        <time>2022-09-29T23:25:26Z</time>
      </trkpt>
      <trkpt lat="46.04449" lon="4.63723">
        <ele>276</ele>
        <time>2022-09-29T23:25:28Z</time>
      </trkpt>
      <trkpt lat="46.04419" lon="4.63728">
        <ele>273</ele>
        <time>2022-09-29T23:25:34Z</time>
      </trkpt>
      <trkpt lat="46.04405" lon="4.63734">
        <ele>273</ele>
        <time>2022-09-29T23:25:36Z</time>
      </trkpt>
      <trkpt lat="46.04274" lon="4.63852">
        <ele>281</ele>
        <time>2022-09-29T23:26:04Z</time>
      </trkpt>
      <trkpt lat="46.04091" lon="4.64005">
        <ele>290</ele>
        <time>2022-09-29T23:26:41Z</time>
      </trkpt>
      <trkpt lat="46.03841" lon="4.6422">
        <ele>307</ele>
        <time>2022-09-29T23:27:33Z</time>
      </trkpt>
      <trkpt lat="46.03819" lon="4.64245">
        <ele>309</ele>
        <time>2022-09-29T23:27:38Z</time>
      </trkpt>
      <trkpt lat="46.03802" lon="4.6427">
        <ele>311</ele>
        <time>2022-09-29T23:27:43Z</time>
      </trkpt>
      <trkpt lat="46.03755" lon="4.64344">
        <ele>314</ele>
        <time>2022-09-29T23:27:55Z</time>
      </trkpt>
      <trkpt lat="46.03752" lon="4.6433">
        <ele>314</ele>
        <time>2022-09-29T23:27:57Z</time>
      </trkpt>
      <trkpt lat="46.0375" lon="4.64303">
        <ele>315</ele>
        <time>2022-09-29T23:28:00Z</time>
      </trkpt>
      <trkpt lat="46.03739" lon="4.64213">
        <ele>318</ele>
        <time>2022-09-29T23:28:11Z</time>
      </trkpt>
      <trkpt lat="46.03727" lon="4.64116">
        <ele>322</ele>
        <time>2022-09-29T23:28:24Z</time>
      </trkpt>
      <trkpt lat="46.03674" lon="4.63796">
        <ele>342</ele>
        <time>2022-09-29T23:29:04Z</time>
      </trkpt>
      <trkpt lat="46.03672" lon="4.6377">
        <ele>345</ele>
        <time>2022-09-29T23:29:07Z</time>
      </trkpt>
      <trkpt lat="46.03675" lon="4.63755">
        <ele>347</ele>
        <time>2022-09-29T23:29:09Z</time>
      </trkpt>
      <trkpt lat="46.03684" lon="4.63742">
        <ele>347</ele>
        <time>2022-09-29T23:29:12Z</time>
      </trkpt>
      <trkpt lat="46.03697" lon="4.63735">
        <ele>346</ele>
        <time>2022-09-29T23:29:14Z</time>
      </trkpt>
      <trkpt lat="46.03719" lon="4.63718">
        <ele>346</ele>
        <time>2022-09-29T23:29:19Z</time>
      </trkpt>
      <trkpt lat="46.03732" lon="4.63696">
        <ele>346</ele>
        <time>2022-09-29T23:29:22Z</time>
      </trkpt>
      <trkpt lat="46.03737" lon="4.63679">
        <ele>347</ele>
        <time>2022-09-29T23:29:24Z</time>
      </trkpt>
      <trkpt lat="46.03746" lon="4.63559">
        <ele>351</ele>
        <time>2022-09-29T23:29:39Z</time>
      </trkpt>
      <trkpt lat="46.03737" lon="4.6332">
        <ele>363</ele>
        <time>2022-09-29T23:30:09Z</time>
      </trkpt>
      <trkpt lat="46.03747" lon="4.63175">
        <ele>368</ele>
        <time>2022-09-29T23:30:27Z</time>
      </trkpt>
      <trkpt lat="46.03746" lon="4.63118">
        <ele>373</ele>
        <time>2022-09-29T23:30:34Z</time>
      </trkpt>
      <trkpt lat="46.03743" lon="4.63073">
        <ele>375</ele>
        <time>2022-09-29T23:30:40Z</time>
      </trkpt>
      <trkpt lat="46.03736" lon="4.63042">
        <ele>377</ele>
        <time>2022-09-29T23:30:44Z</time>
      </trkpt>
      <trkpt lat="46.03725" lon="4.63011">
        <ele>379</ele>
        <time>2022-09-29T23:30:48Z</time>
      </trkpt>
      <trkpt lat="46.03692" lon="4.6294">
        <ele>386</ele>
        <time>2022-09-29T23:30:58Z</time>
      </trkpt>
      <trkpt lat="46.03668" lon="4.62867">
        <ele>389</ele>
        <time>2022-09-29T23:31:08Z</time>
      </trkpt>
      <trkpt lat="46.03659" lon="4.62828">
        <ele>389</ele>
        <time>2022-09-29T23:31:13Z</time>
      </trkpt>
      <trkpt lat="46.03657" lon="4.62789">
        <ele>390</ele>
        <time>2022-09-29T23:31:18Z</time>
      </trkpt>
      <trkpt lat="46.03658" lon="4.62736">
        <ele>391</ele>
        <time>2022-09-29T23:31:25Z</time>
      </trkpt>
      <trkpt lat="46.03653" lon="4.62683">
        <ele>393</ele>
        <time>2022-09-29T23:31:31Z</time>
      </trkpt>
      <trkpt lat="46.03643" lon="4.62648">
        <ele>393</ele>
        <time>2022-09-29T23:31:36Z</time>
      </trkpt>
      <trkpt lat="46.03632" lon="4.62628">
        <ele>394</ele>
        <time>2022-09-29T23:31:39Z</time>
      </trkpt>
      <trkpt lat="46.03616" lon="4.62612">
        <ele>395</ele>
        <time>2022-09-29T23:31:43Z</time>
      </trkpt>
      <trkpt lat="46.03482" lon="4.62505">
        <ele>407</ele>
        <time>2022-09-29T23:32:10Z</time>
      </trkpt>
      <trkpt lat="46.03452" lon="4.62478">
        <ele>408</ele>
        <time>2022-09-29T23:32:16Z</time>
      </trkpt>
      <trkpt lat="46.03435" lon="4.62459">
        <ele>408</ele>
        <time>2022-09-29T23:32:20Z</time>
      </trkpt>
      <trkpt lat="46.03401" lon="4.62399">
        <ele>409</ele>
        <time>2022-09-29T23:32:30Z</time>
      </trkpt>
      <trkpt lat="46.03381" lon="4.62359">
        <ele>413</ele>
        <time>2022-09-29T23:32:36Z</time>
      </trkpt>
      <trkpt lat="46.03372" lon="4.62327">
        <ele>414</ele>
        <time>2022-09-29T23:32:40Z</time>
      </trkpt>
      <trkpt lat="46.03369" lon="4.6227">
        <ele>412</ele>
        <time>2022-09-29T23:32:47Z</time>
      </trkpt>
      <trkpt lat="46.03362" lon="4.62258">
        <ele>413</ele>
        <time>2022-09-29T23:32:49Z</time>
      </trkpt>
      <trkpt lat="46.03347" lon="4.62246">
        <ele>415</ele>
        <time>2022-09-29T23:32:52Z</time>
      </trkpt>
      <trkpt lat="46.03332" lon="4.6224">
        <ele>416</ele>
        <time>2022-09-29T23:32:55Z</time>
      </trkpt>
      <trkpt lat="46.03302" lon="4.62236">
        <ele>416</ele>
        <time>2022-09-29T23:33:00Z</time>
      </trkpt>
      <trkpt lat="46.03229" lon="4.62253">
        <ele>423</ele>
        <time>2022-09-29T23:33:13Z</time>
      </trkpt>
      <trkpt lat="46.03215" lon="4.62254">
        <ele>425</ele>
        <time>2022-09-29T23:33:16Z</time>
      </trkpt>
      <trkpt lat="46.032" lon="4.62251">
        <ele>426</ele>
        <time>2022-09-29T23:33:19Z</time>
      </trkpt>
      <trkpt lat="46.03193" lon="4.62248">
        <ele>426</ele>
        <time>2022-09-29T23:33:20Z</time>
      </trkpt>
      <trkpt lat="46.03189" lon="4.62241">
        <ele>426</ele>
        <time>2022-09-29T23:33:21Z</time>
      </trkpt>
      <trkpt lat="46.03181" lon="4.62222">
        <ele>425</ele>
        <time>2022-09-29T23:33:24Z</time>
      </trkpt>
      <trkpt lat="46.03171" lon="4.62178">
        <ele>424</ele>
        <time>2022-09-29T23:33:29Z</time>
      </trkpt>
      <trkpt lat="46.0316" lon="4.62146">
        <ele>423</ele>
        <time>2022-09-29T23:33:34Z</time>
      </trkpt>
      <trkpt lat="46.03142" lon="4.6211">
        <ele>424</ele>
        <time>2022-09-29T23:33:39Z</time>
      </trkpt>
      <trkpt lat="46.03119" lon="4.62078">
        <ele>428</ele>
        <time>2022-09-29T23:33:45Z</time>
      </trkpt>
      <trkpt lat="46.03102" lon="4.62047">
        <ele>433</ele>
        <time>2022-09-29T23:33:50Z</time>
      </trkpt>
      <trkpt lat="46.03095" lon="4.62007">
        <ele>433</ele>
        <time>2022-09-29T23:33:55Z</time>
      </trkpt>
      <trkpt lat="46.03101" lon="4.61961">
        <ele>433</ele>
        <time>2022-09-29T23:34:01Z</time>
      </trkpt>
      <trkpt lat="46.03115" lon="4.61902">
        <ele>433</ele>
        <time>2022-09-29T23:34:08Z</time>
      </trkpt>
      <trkpt lat="46.03122" lon="4.61836">
        <ele>432</ele>
        <time>2022-09-29T23:34:17Z</time>
      </trkpt>
      <trkpt lat="46.03149" lon="4.61634">
        <ele>445</ele>
        <time>2022-09-29T23:34:42Z</time>
      </trkpt>
      <trkpt lat="46.03161" lon="4.61527">
        <ele>451</ele>
        <time>2022-09-29T23:34:56Z</time>
      </trkpt>
      <trkpt lat="46.0316" lon="4.61478">
        <ele>453</ele>
        <time>2022-09-29T23:35:02Z</time>
      </trkpt>
      <trkpt lat="46.03145" lon="4.61438">
        <ele>455</ele>
        <time>2022-09-29T23:35:07Z</time>
      </trkpt>
      <trkpt lat="46.03129" lon="4.6131">
        <ele>460</ele>
        <time>2022-09-29T23:35:23Z</time>
      </trkpt>
      <trkpt lat="46.03117" lon="4.61267">
        <ele>465</ele>
        <time>2022-09-29T23:35:29Z</time>
      </trkpt>
      <trkpt lat="46.03077" lon="4.61202">
        <ele>473</ele>
        <time>2022-09-29T23:35:40Z</time>
      </trkpt>
      <trkpt lat="46.03016" lon="4.61127">
        <ele>467</ele>
        <time>2022-09-29T23:35:54Z</time>
      </trkpt>
      <trkpt lat="46.02991" lon="4.61059">
        <ele>475</ele>
        <time>2022-09-29T23:36:04Z</time>
      </trkpt>
      <trkpt lat="46.02957" lon="4.61015">
        <ele>474</ele>
        <time>2022-09-29T23:36:12Z</time>
      </trkpt>
      <trkpt lat="46.02927" lon="4.60952">
        <ele>474</ele>
        <time>2022-09-29T23:36:21Z</time>
      </trkpt>
      <trkpt lat="46.02903" lon="4.6085">
        <ele>485</ele>
        <time>2022-09-29T23:36:34Z</time>
      </trkpt>
      <trkpt lat="46.02843" lon="4.60743">
        <ele>486</ele>
        <time>2022-09-29T23:36:51Z</time>
      </trkpt>
      <trkpt lat="46.02818" lon="4.60671">
        <ele>491</ele>
        <time>2022-09-29T23:37:01Z</time>
      </trkpt>
      <trkpt lat="46.02805" lon="4.60616">
        <ele>495</ele>
        <time>2022-09-29T23:37:08Z</time>
      </trkpt>
      <trkpt lat="46.02794" lon="4.60544">
        <ele>499</ele>
        <time>2022-09-29T23:37:18Z</time>
      </trkpt>
      <trkpt lat="46.02794" lon="4.60456">
        <ele>503</ele>
        <time>2022-09-29T23:37:28Z</time>
      </trkpt>
      <trkpt lat="46.02824" lon="4.60381">
        <ele>514</ele>
        <time>2022-09-29T23:37:39Z</time>
      </trkpt>
      <trkpt lat="46.02838" lon="4.60349">
        <ele>518</ele>
        <time>2022-09-29T23:37:44Z</time>
      </trkpt>
      <trkpt lat="46.02847" lon="4.60301">
        <ele>521</ele>
        <time>2022-09-29T23:37:50Z</time>
      </trkpt>
      <trkpt lat="46.02847" lon="4.6025">
        <ele>521</ele>
        <time>2022-09-29T23:37:56Z</time>
      </trkpt>
      <trkpt lat="46.02839" lon="4.60186">
        <ele>522</ele>
        <time>2022-09-29T23:38:04Z</time>
      </trkpt>
      <trkpt lat="46.02849" lon="4.60101">
        <ele>526</ele>
        <time>2022-09-29T23:38:15Z</time>
      </trkpt>
      <trkpt lat="46.02858" lon="4.60054">
        <ele>527</ele>
        <time>2022-09-29T23:38:21Z</time>
      </trkpt>
      <trkpt lat="46.02898" lon="4.59948">
        <ele>530</ele>
        <time>2022-09-29T23:38:36Z</time>
      </trkpt>
      <trkpt lat="46.0298" lon="4.59814">
        <ele>538</ele>
        <time>2022-09-29T23:38:58Z</time>
      </trkpt>
      <trkpt lat="46.03004" lon="4.59784">
        <ele>540</ele>
        <time>2022-09-29T23:39:04Z</time>
      </trkpt>
      <trkpt lat="46.03056" lon="4.59742">
        <ele>550</ele>
        <time>2022-09-29T23:39:14Z</time>
      </trkpt>
      <trkpt lat="46.0307" lon="4.59722">
        <ele>555</ele>
        <time>2022-09-29T23:39:18Z</time>
      </trkpt>
      <trkpt lat="46.03072" lon="4.59702">
        <ele>555</ele>
        <time>2022-09-29T23:39:20Z</time>
      </trkpt>
      <trkpt lat="46.03064" lon="4.5967">
        <ele>552</ele>
        <time>2022-09-29T23:39:24Z</time>
      </trkpt>
      <trkpt lat="46.03032" lon="4.59642">
        <ele>544</ele>
        <time>2022-09-29T23:39:31Z</time>
      </trkpt>
      <trkpt lat="46.03025" lon="4.5962">
        <ele>543</ele>
        <time>2022-09-29T23:39:34Z</time>
      </trkpt>
      <trkpt lat="46.03025" lon="4.59584">
        <ele>545</ele>
        <time>2022-09-29T23:39:39Z</time>
      </trkpt>
      <trkpt lat="46.03061" lon="4.59399">
        <ele>561</ele>
        <time>2022-09-29T23:40:02Z</time>
      </trkpt>
      <trkpt lat="46.03084" lon="4.59299">
        <ele>569</ele>
        <time>2022-09-29T23:40:15Z</time>
      </trkpt>
      <trkpt lat="46.0311" lon="4.59225">
        <ele>576</ele>
        <time>2022-09-29T23:40:26Z</time>
      </trkpt>
      <trkpt lat="46.03131" lon="4.59079">
        <ele>591</ele>
        <time>2022-09-29T23:40:44Z</time>
      </trkpt>
      <trkpt lat="46.03125" lon="4.5905">
        <ele>593</ele>
        <time>2022-09-29T23:40:48Z</time>
      </trkpt>
      <trkpt lat="46.03121" lon="4.59036">
        <ele>593</ele>
        <time>2022-09-29T23:40:50Z</time>
      </trkpt>
      <trkpt lat="46.03115" lon="4.59032">
        <ele>593</ele>
        <time>2022-09-29T23:40:51Z</time>
      </trkpt>
      <trkpt lat="46.03107" lon="4.59031">
        <ele>592</ele>
        <time>2022-09-29T23:40:52Z</time>
      </trkpt>
      <trkpt lat="46.03097" lon="4.59033">
        <ele>590</ele>
        <time>2022-09-29T23:40:54Z</time>
      </trkpt>
      <trkpt lat="46.03072" lon="4.59055">
        <ele>586</ele>
        <time>2022-09-29T23:40:59Z</time>
      </trkpt>
      <trkpt lat="46.03058" lon="4.59071">
        <ele>585</ele>
        <time>2022-09-29T23:41:02Z</time>
      </trkpt>
      <trkpt lat="46.0304" lon="4.59083">
        <ele>583</ele>
        <time>2022-09-29T23:41:06Z</time>
      </trkpt>
      <trkpt lat="46.03024" lon="4.59083">
        <ele>583</ele>
        <time>2022-09-29T23:41:09Z</time>
      </trkpt>
      <trkpt lat="46.02993" lon="4.59063">
        <ele>589</ele>
        <time>2022-09-29T23:41:15Z</time>
      </trkpt>
      <trkpt lat="46.02959" lon="4.59044">
        <ele>596</ele>
        <time>2022-09-29T23:41:21Z</time>
      </trkpt>
      <trkpt lat="46.02894" lon="4.59044">
        <ele>606</ele>
        <time>2022-09-29T23:41:33Z</time>
      </trkpt>
      <trkpt lat="46.02887" lon="4.59048">
        <ele>607</ele>
        <time>2022-09-29T23:41:34Z</time>
      </trkpt>
      <trkpt lat="46.02881" lon="4.59057">
        <ele>607</ele>
        <time>2022-09-29T23:41:36Z</time>
      </trkpt>
      <trkpt lat="46.02884" lon="4.59143">
        <ele>599</ele>
        <time>2022-09-29T23:41:46Z</time>
      </trkpt>
      <trkpt lat="46.02881" lon="4.59159">
        <ele>598</ele>
        <time>2022-09-29T23:41:48Z</time>
      </trkpt>
      <trkpt lat="46.02871" lon="4.59178">
        <ele>597</ele>
        <time>2022-09-29T23:41:51Z</time>
      </trkpt>
      <trkpt lat="46.02844" lon="4.59187">
        <ele>601</ele>
        <time>2022-09-29T23:41:56Z</time>
      </trkpt>
      <trkpt lat="46.02744" lon="4.59172">
        <ele>611</ele>
        <time>2022-09-29T23:42:14Z</time>
      </trkpt>
      <trkpt lat="46.02722" lon="4.59176">
        <ele>614</ele>
        <time>2022-09-29T23:42:18Z</time>
      </trkpt>
      <trkpt lat="46.02696" lon="4.59205">
        <ele>616</ele>
        <time>2022-09-29T23:42:24Z</time>
      </trkpt>
      <trkpt lat="46.02689" lon="4.59219">
        <ele>616</ele>
        <time>2022-09-29T23:42:26Z</time>
      </trkpt>
      <trkpt lat="46.02681" lon="4.59258">
        <ele>614</ele>
        <time>2022-09-29T23:42:31Z</time>
      </trkpt>
      <trkpt lat="46.02668" lon="4.59335">
        <ele>612</ele>
        <time>2022-09-29T23:42:41Z</time>
      </trkpt>
      <trkpt lat="46.02656" lon="4.59361">
        <ele>610</ele>
        <time>2022-09-29T23:42:45Z</time>
      </trkpt>
      <trkpt lat="46.02633" lon="4.59371">
        <ele>611</ele>
        <time>2022-09-29T23:42:49Z</time>
      </trkpt>
      <trkpt lat="46.02623" lon="4.59371">
        <ele>611</ele>
        <time>2022-09-29T23:42:51Z</time>
      </trkpt>
      <trkpt lat="46.02574" lon="4.59344">
        <ele>617</ele>
        <time>2022-09-29T23:43:00Z</time>
      </trkpt>
      <trkpt lat="46.02503" lon="4.59233">
        <ele>625</ele>
        <time>2022-09-29T23:43:19Z</time>
      </trkpt>
      <trkpt lat="46.02438" lon="4.59115">
        <ele>643</ele>
        <time>2022-09-29T23:43:37Z</time>
      </trkpt>
      <trkpt lat="46.02389" lon="4.5908">
        <ele>646</ele>
        <time>2022-09-29T23:43:47Z</time>
      </trkpt>
      <trkpt lat="46.02346" lon="4.59068">
        <ele>646</ele>
        <time>2022-09-29T23:43:55Z</time>
      </trkpt>
      <trkpt lat="46.02299" lon="4.59069">
        <ele>647</ele>
        <time>2022-09-29T23:44:03Z</time>
      </trkpt>
      <trkpt lat="46.02286" lon="4.5908">
        <ele>646</ele>
        <time>2022-09-29T23:44:06Z</time>
      </trkpt>
      <trkpt lat="46.02261" lon="4.59122">
        <ele>640</ele>
        <time>2022-09-29T23:44:13Z</time>
      </trkpt>
      <trkpt lat="46.02252" lon="4.59133">
        <ele>639</ele>
        <time>2022-09-29T23:44:15Z</time>
      </trkpt>
      <trkpt lat="46.02245" lon="4.59137">
        <ele>639</ele>
        <time>2022-09-29T23:44:16Z</time>
      </trkpt>
      <trkpt lat="46.02233" lon="4.59138">
        <ele>640</ele>
        <time>2022-09-29T23:44:18Z</time>
      </trkpt>
      <trkpt lat="46.02195" lon="4.59117">
        <ele>645</ele>
        <time>2022-09-29T23:44:26Z</time>
      </trkpt>
      <trkpt lat="46.02178" lon="4.59099">
        <ele>646</ele>
        <time>2022-09-29T23:44:29Z</time>
      </trkpt>
      <trkpt lat="46.02174" lon="4.59086">
        <ele>646</ele>
        <time>2022-09-29T23:44:31Z</time>
      </trkpt>
      <trkpt lat="46.02173" lon="4.59075">
        <ele>645</ele>
        <time>2022-09-29T23:44:32Z</time>
      </trkpt>
      <trkpt lat="46.02176" lon="4.59059">
        <ele>644</ele>
        <time>2022-09-29T23:44:35Z</time>
      </trkpt>
      <trkpt lat="46.02246" lon="4.58852">
        <ele>640</ele>
        <time>2022-09-29T23:45:03Z</time>
      </trkpt>
      <trkpt lat="46.02302" lon="4.58739">
        <ele>643</ele>
        <time>2022-09-29T23:45:20Z</time>
      </trkpt>
      <trkpt lat="46.02343" lon="4.58614">
        <ele>634</ele>
        <time>2022-09-29T23:45:37Z</time>
      </trkpt>
      <trkpt lat="46.02363" lon="4.58583">
        <ele>634</ele>
        <time>2022-09-29T23:45:42Z</time>
      </trkpt>
      <trkpt lat="46.02477" lon="4.58442">
        <ele>632</ele>
        <time>2022-09-29T23:46:09Z</time>
      </trkpt>
      <trkpt lat="46.02526" lon="4.58345">
        <ele>621</ele>
        <time>2022-09-29T23:46:24Z</time>
      </trkpt>
      <trkpt lat="46.02582" lon="4.58236">
        <ele>617</ele>
        <time>2022-09-29T23:46:41Z</time>
      </trkpt>
      <trkpt lat="46.0261" lon="4.58202">
        <ele>612</ele>
        <time>2022-09-29T23:46:47Z</time>
      </trkpt>
      <trkpt lat="46.02648" lon="4.58191">
        <ele>612</ele>
        <time>2022-09-29T23:46:54Z</time>
      </trkpt>
      <trkpt lat="46.02682" lon="4.58199">
        <ele>615</ele>
        <time>2022-09-29T23:47:00Z</time>
      </trkpt>
      <trkpt lat="46.02726" lon="4.58239">
        <ele>623</ele>
        <time>2022-09-29T23:47:10Z</time>
      </trkpt>
      <trkpt lat="46.02739" lon="4.58236">
        <ele>623</ele>
        <time>2022-09-29T23:47:12Z</time>
      </trkpt>
      <trkpt lat="46.0276" lon="4.58205">
        <ele>621</ele>
        <time>2022-09-29T23:47:17Z</time>
      </trkpt>
      <trkpt lat="46.02768" lon="4.58134">
        <ele>618</ele>
        <time>2022-09-29T23:47:26Z</time>
      </trkpt>
      <trkpt lat="46.02763" lon="4.58086">
        <ele>614</ele>
        <time>2022-09-29T23:47:32Z</time>
      </trkpt>
      <trkpt lat="46.02746" lon="4.58011">
        <ele>615</ele>
        <time>2022-09-29T23:47:42Z</time>
      </trkpt>
      <trkpt lat="46.02731" lon="4.57978">
        <ele>612</ele>
        <time>2022-09-29T23:47:47Z</time>
      </trkpt>
      <trkpt lat="46.02705" lon="4.57939">
        <ele>604</ele>
        <time>2022-09-29T23:47:53Z</time>
      </trkpt>
      <trkpt lat="46.02698" lon="4.57908">
        <ele>603</ele>
        <time>2022-09-29T23:47:57Z</time>
      </trkpt>
      <trkpt lat="46.02691" lon="4.57834">
        <ele>599</ele>
        <time>2022-09-29T23:48:07Z</time>
      </trkpt>
      <trkpt lat="46.0268" lon="4.57751">
        <ele>598</ele>
        <time>2022-09-29T23:48:17Z</time>
      </trkpt>
      <trkpt lat="46.02682" lon="4.57699">
        <ele>597</ele>
        <time>2022-09-29T23:48:24Z</time>
      </trkpt>
      <trkpt lat="46.02696" lon="4.57605">
        <ele>595</ele>
        <time>2022-09-29T23:48:35Z</time>
      </trkpt>
      <trkpt lat="46.02698" lon="4.57489">
        <ele>593</ele>
        <time>2022-09-29T23:48:50Z</time>
      </trkpt>
      <trkpt lat="46.02686" lon="4.57394">
        <ele>597</ele>
        <time>2022-09-29T23:49:02Z</time>
      </trkpt>
      <trkpt lat="46.02667" lon="4.57364">
        <ele>602</ele>
        <time>2022-09-29T23:49:07Z</time>
      </trkpt>
      <trkpt lat="46.02634" lon="4.57305">
        <ele>611</ele>
        <time>2022-09-29T23:49:16Z</time>
      </trkpt>
      <trkpt lat="46.02612" lon="4.57294">
        <ele>613</ele>
        <time>2022-09-29T23:49:20Z</time>
      </trkpt>
      <trkpt lat="46.02532" lon="4.57333">
        <ele>608</ele>
        <time>2022-09-29T23:49:35Z</time>
      </trkpt>
      <trkpt lat="46.02503" lon="4.57329">
        <ele>610</ele>
        <time>2022-09-29T23:49:40Z</time>
      </trkpt>
      <trkpt lat="46.02467" lon="4.57318">
        <ele>612</ele>
        <time>2022-09-29T23:49:47Z</time>
      </trkpt>
      <trkpt lat="46.02436" lon="4.573">
        <ele>614</ele>
        <time>2022-09-29T23:49:53Z</time>
      </trkpt>
      <trkpt lat="46.024" lon="4.57289">
        <ele>615</ele>
        <time>2022-09-29T23:49:59Z</time>
      </trkpt>
      <trkpt lat="46.02394" lon="4.57279">
        <ele>616</ele>
        <time>2022-09-29T23:50:01Z</time>
      </trkpt>
      <trkpt lat="46.02408" lon="4.57244">
        <ele>620</ele>
        <time>2022-09-29T23:50:06Z</time>
      </trkpt>
      <trkpt lat="46.02456" lon="4.57185">
        <ele>620</ele>
        <time>2022-09-29T23:50:17Z</time>
      </trkpt>
      <trkpt lat="46.02514" lon="4.57135">
        <ele>623</ele>
        <time>2022-09-29T23:50:29Z</time>
      </trkpt>
      <trkpt lat="46.02609" lon="4.57">
        <ele>630</ele>
        <time>2022-09-29T23:50:53Z</time>
      </trkpt>
      <trkpt lat="46.0262" lon="4.56972">
        <ele>632</ele>
        <time>2022-09-29T23:50:57Z</time>
      </trkpt>
      <trkpt lat="46.0263" lon="4.5692">
        <ele>633</ele>
        <time>2022-09-29T23:51:04Z</time>
      </trkpt>
      <trkpt lat="46.0262" lon="4.56894">
        <ele>632</ele>
        <time>2022-09-29T23:51:07Z</time>
      </trkpt>
      <trkpt lat="46.0262" lon="4.56881">
        <ele>633</ele>
        <time>2022-09-29T23:51:09Z</time>
      </trkpt>
      <trkpt lat="46.02609" lon="4.56849">
        <ele>633</ele>
        <time>2022-09-29T23:51:13Z</time>
      </trkpt>
      <trkpt lat="46.02597" lon="4.56816">
        <ele>634</ele>
        <time>2022-09-29T23:51:18Z</time>
      </trkpt>
      <trkpt lat="46.02605" lon="4.56739">
        <ele>635</ele>
        <time>2022-09-29T23:51:28Z</time>
      </trkpt>
      <trkpt lat="46.02601" lon="4.5668">
        <ele>633</ele>
        <time>2022-09-29T23:51:35Z</time>
      </trkpt>
      <trkpt lat="46.02593" lon="4.56631">
        <ele>630</ele>
        <time>2022-09-29T23:51:41Z</time>
      </trkpt>
      <trkpt lat="46.0258" lon="4.56598">
        <ele>629</ele>
        <time>2022-09-29T23:51:46Z</time>
      </trkpt>
      <trkpt lat="46.02546" lon="4.56523">
        <ele>626</ele>
        <time>2022-09-29T23:51:57Z</time>
      </trkpt>
      <trkpt lat="46.02532" lon="4.56451">
        <ele>623</ele>
        <time>2022-09-29T23:52:06Z</time>
      </trkpt>
      <trkpt lat="46.02528" lon="4.56406">
        <ele>621</ele>
        <time>2022-09-29T23:52:12Z</time>
      </trkpt>
      <trkpt lat="46.02518" lon="4.56354">
        <ele>620</ele>
        <time>2022-09-29T23:52:18Z</time>
      </trkpt>
      <trkpt lat="46.02506" lon="4.56301">
        <ele>621</ele>
        <time>2022-09-29T23:52:25Z</time>
      </trkpt>
      <trkpt lat="46.02496" lon="4.56269">
        <ele>622</ele>
        <time>2022-09-29T23:52:30Z</time>
      </trkpt>
      <trkpt lat="46.02489" lon="4.56257">
        <ele>621</ele>
        <time>2022-09-29T23:52:32Z</time>
      </trkpt>
      <trkpt lat="46.02474" lon="4.5624">
        <ele>619</ele>
        <time>2022-09-29T23:52:35Z</time>
      </trkpt>
      <trkpt lat="46.02501" lon="4.56186">
        <ele>627</ele>
        <time>2022-09-29T23:52:43Z</time>
      </trkpt>
      <trkpt lat="46.02531" lon="4.56152">
        <ele>623</ele>
        <time>2022-09-29T23:52:50Z</time>
      </trkpt>
      <trkpt lat="46.02539" lon="4.56136">
        <ele>623</ele>
        <time>2022-09-29T23:52:52Z</time>
      </trkpt>
      <trkpt lat="46.02542" lon="4.56124">
        <ele>623</ele>
        <time>2022-09-29T23:52:54Z</time>
      </trkpt>
      <trkpt lat="46.02544" lon="4.56099">
        <ele>625</ele>
        <time>2022-09-29T23:52:57Z</time>
      </trkpt>
      <trkpt lat="46.02544" lon="4.56056">
        <ele>628</ele>
        <time>2022-09-29T23:53:02Z</time>
      </trkpt>
      <trkpt lat="46.02546" lon="4.56005">
        <ele>632</ele>
        <time>2022-09-29T23:53:09Z</time>
      </trkpt>
      <trkpt lat="46.02553" lon="4.5596">
        <ele>635</ele>
        <time>2022-09-29T23:53:14Z</time>
      </trkpt>
      <trkpt lat="46.02558" lon="4.55936">
        <ele>637</ele>
        <time>2022-09-29T23:53:18Z</time>
      </trkpt>
      <trkpt lat="46.02574" lon="4.55897">
        <ele>640</ele>
        <time>2022-09-29T23:53:23Z</time>
      </trkpt>
      <trkpt lat="46.02597" lon="4.55862">
        <ele>644</ele>
        <time>2022-09-29T23:53:29Z</time>
      </trkpt>
      <trkpt lat="46.0262" lon="4.55846">
        <ele>646</ele>
        <time>2022-09-29T23:53:34Z</time>
      </trkpt>
      <trkpt lat="46.02632" lon="4.55842">
        <ele>646</ele>
        <time>2022-09-29T23:53:36Z</time>
      </trkpt>
      <trkpt lat="46.02649" lon="4.55842">
        <ele>644</ele>
        <time>2022-09-29T23:53:39Z</time>
      </trkpt>
      <trkpt lat="46.0267" lon="4.55847">
        <ele>641</ele>
        <time>2022-09-29T23:53:43Z</time>
      </trkpt>
      <trkpt lat="46.02795" lon="4.55894">
        <ele>642</ele>
        <time>2022-09-29T23:54:06Z</time>
      </trkpt>
      <trkpt lat="46.02824" lon="4.55897">
        <ele>644</ele>
        <time>2022-09-29T23:54:11Z</time>
      </trkpt>
      <trkpt lat="46.02838" lon="4.55894">
        <ele>645</ele>
        <time>2022-09-29T23:54:13Z</time>
      </trkpt>
      <trkpt lat="46.02851" lon="4.55888">
        <ele>645</ele>
        <time>2022-09-29T23:54:16Z</time>
      </trkpt>
      <trkpt lat="46.02867" lon="4.55878">
        <ele>645</ele>
        <time>2022-09-29T23:54:19Z</time>
      </trkpt>
      <trkpt lat="46.02927" lon="4.55816">
        <ele>650</ele>
        <time>2022-09-29T23:54:32Z</time>
      </trkpt>
      <trkpt lat="46.02945" lon="4.55795">
        <ele>651</ele>
        <time>2022-09-29T23:54:36Z</time>
      </trkpt>
      <trkpt lat="46.02956" lon="4.55774">
        <ele>653</ele>
        <time>2022-09-29T23:54:39Z</time>
      </trkpt>
      <trkpt lat="46.02966" lon="4.55751">
        <ele>657</ele>
        <time>2022-09-29T23:54:43Z</time>
      </trkpt>
      <trkpt lat="46.02973" lon="4.55727">
        <ele>658</ele>
        <time>2022-09-29T23:54:46Z</time>
      </trkpt>
      <trkpt lat="46.02986" lon="4.55674">
        <ele>661</ele>
        <time>2022-09-29T23:54:53Z</time>
      </trkpt>
      <trkpt lat="46.02999" lon="4.55641">
        <ele>661</ele>
        <time>2022-09-29T23:54:58Z</time>
      </trkpt>
      <trkpt lat="46.03008" lon="4.55626">
        <ele>661</ele>
        <time>2022-09-29T23:55:00Z</time>
      </trkpt>
      <trkpt lat="46.03018" lon="4.55616">
        <ele>661</ele>
        <time>2022-09-29T23:55:02Z</time>
      </trkpt>
      <trkpt lat="46.03042" lon="4.55602">
        <ele>659</ele>
        <time>2022-09-29T23:55:07Z</time>
      </trkpt>
      <trkpt lat="46.03103" lon="4.55597">
        <ele>651</ele>
        <time>2022-09-29T23:55:18Z</time>
      </trkpt>
      <trkpt lat="46.03116" lon="4.55593">
        <ele>650</ele>
        <time>2022-09-29T23:55:20Z</time>
      </trkpt>
      <trkpt lat="46.03134" lon="4.55582">
        <ele>650</ele>
        <time>2022-09-29T23:55:24Z</time>
      </trkpt>
      <trkpt lat="46.03152" lon="4.55567">
        <ele>649</ele>
        <time>2022-09-29T23:55:27Z</time>
      </trkpt>
      <trkpt lat="46.03161" lon="4.55557">
        <ele>650</ele>
        <time>2022-09-29T23:55:29Z</time>
      </trkpt>
      <trkpt lat="46.03172" lon="4.55529">
        <ele>651</ele>
        <time>2022-09-29T23:55:33Z</time>
      </trkpt>
      <trkpt lat="46.03176" lon="4.55498">
        <ele>654</ele>
        <time>2022-09-29T23:55:37Z</time>
      </trkpt>
      <trkpt lat="46.03178" lon="4.55408">
        <ele>660</ele>
        <time>2022-09-29T23:55:48Z</time>
      </trkpt>
      <trkpt lat="46.03163" lon="4.55336">
        <ele>657</ele>
        <time>2022-09-29T23:55:58Z</time>
      </trkpt>
      <trkpt lat="46.0316" lon="4.55314">
        <ele>656</ele>
        <time>2022-09-29T23:56:00Z</time>
      </trkpt>
      <trkpt lat="46.03161" lon="4.55302">
        <ele>656</ele>
        <time>2022-09-29T23:56:02Z</time>
      </trkpt>
      <trkpt lat="46.03184" lon="4.55189">
        <ele>653</ele>
        <time>2022-09-29T23:56:16Z</time>
      </trkpt>
      <trkpt lat="46.03185" lon="4.55163">
        <ele>652</ele>
        <time>2022-09-29T23:56:20Z</time>
      </trkpt>
      <trkpt lat="46.0318" lon="4.55127">
        <ele>650</ele>
        <time>2022-09-29T23:56:24Z</time>
      </trkpt>
      <trkpt lat="46.03162" lon="4.55022">
        <ele>643</ele>
        <time>2022-09-29T23:56:37Z</time>
      </trkpt>
      <trkpt lat="46.03161" lon="4.55">
        <ele>643</ele>
        <time>2022-09-29T23:56:40Z</time>
      </trkpt>
      <trkpt lat="46.03163" lon="4.54977">
        <ele>640</ele>
        <time>2022-09-29T23:56:43Z</time>
      </trkpt>
      <trkpt lat="46.03168" lon="4.5496">
        <ele>639</ele>
        <time>2022-09-29T23:56:45Z</time>
      </trkpt>
      <trkpt lat="46.03179" lon="4.5494">
        <ele>638</ele>
        <time>2022-09-29T23:56:48Z</time>
      </trkpt>
      <trkpt lat="46.03259" lon="4.54873">
        <ele>641</ele>
        <time>2022-09-29T23:57:05Z</time>
      </trkpt>
      <trkpt lat="46.03292" lon="4.54832">
        <ele>642</ele>
        <time>2022-09-29T23:57:13Z</time>
      </trkpt>
      <trkpt lat="46.03325" lon="4.54768">
        <ele>636</ele>
        <time>2022-09-29T23:57:23Z</time>
      </trkpt>
      <trkpt lat="46.0335" lon="4.54728">
        <ele>633</ele>
        <time>2022-09-29T23:57:29Z</time>
      </trkpt>
      <trkpt lat="46.03391" lon="4.54682">
        <ele>630</ele>
        <time>2022-09-29T23:57:38Z</time>
      </trkpt>
      <trkpt lat="46.03422" lon="4.54657">
        <ele>629</ele>
        <time>2022-09-29T23:57:45Z</time>
      </trkpt>
      <trkpt lat="46.03493" lon="4.54606">
        <ele>627</ele>
        <time>2022-09-29T23:57:59Z</time>
      </trkpt>
      <trkpt lat="46.03568" lon="4.54549">
        <ele>622</ele>
        <time>2022-09-29T23:58:14Z</time>
      </trkpt>
      <trkpt lat="46.03591" lon="4.54528">
        <ele>622</ele>
        <time>2022-09-29T23:58:19Z</time>
      </trkpt>
      <trkpt lat="46.03609" lon="4.54504">
        <ele>620</ele>
        <time>2022-09-29T23:58:23Z</time>
      </trkpt>
      <trkpt lat="46.03619" lon="4.54485">
        <ele>622</ele>
        <time>2022-09-29T23:58:26Z</time>
      </trkpt>
      <trkpt lat="46.03623" lon="4.54464">
        <ele>623</ele>
        <time>2022-09-29T23:58:29Z</time>
      </trkpt>
      <trkpt lat="46.03618" lon="4.54449">
        <ele>623</ele>
        <time>2022-09-29T23:58:31Z</time>
      </trkpt>
      <trkpt lat="46.03601" lon="4.54433">
        <ele>621</ele>
        <time>2022-09-29T23:58:34Z</time>
      </trkpt>
      <trkpt lat="46.03569" lon="4.54424">
        <ele>618</ele>
        <time>2022-09-29T23:58:40Z</time>
      </trkpt>
      <trkpt lat="46.03528" lon="4.54402">
        <ele>616</ele>
        <time>2022-09-29T23:58:48Z</time>
      </trkpt>
      <trkpt lat="46.03512" lon="4.544">
        <ele>615</ele>
        <time>2022-09-29T23:58:51Z</time>
      </trkpt>
      <trkpt lat="46.03458" lon="4.54434">
        <ele>608</ele>
        <time>2022-09-29T23:59:01Z</time>
      </trkpt>
      <trkpt lat="46.03343" lon="4.54452">
        <ele>604</ele>
        <time>2022-09-29T23:59:22Z</time>
      </trkpt>
      <trkpt lat="46.0331" lon="4.5445">
        <ele>600</ele>
        <time>2022-09-29T23:59:28Z</time>
      </trkpt>
      <trkpt lat="46.03281" lon="4.54436">
        <ele>599</ele>
        <time>2022-09-29T23:59:33Z</time>
      </trkpt>
      <trkpt lat="46.03228" lon="4.544">
        <ele>592</ele>
        <time>2022-09-29T23:59:44Z</time>
      </trkpt>
      <trkpt lat="46.03211" lon="4.54378">
        <ele>589</ele>
        <time>2022-09-29T23:59:48Z</time>
      </trkpt>
      <trkpt lat="46.03201" lon="4.54348">
        <ele>589</ele>
        <time>2022-09-29T23:59:52Z</time>
      </trkpt>
      <trkpt lat="46.03193" lon="4.54308">
        <ele>588</ele>
        <time>2022-09-29T23:59:57Z</time>
      </trkpt>
      <trkpt lat="46.03188" lon="4.54262">
        <ele>586</ele>
        <time>2022-09-30T00:00:03Z</time>
      </trkpt>
      <trkpt lat="46.03188" lon="4.54227">
        <ele>584</ele>
        <time>2022-09-30T00:00:07Z</time>
      </trkpt>
      <trkpt lat="46.03192" lon="4.54189">
        <ele>584</ele>
        <time>2022-09-30T00:00:12Z</time>
      </trkpt>
      <trkpt lat="46.03202" lon="4.54146">
        <ele>584</ele>
        <time>2022-09-30T00:00:17Z</time>
      </trkpt>
      <trkpt lat="46.03213" lon="4.54103">
        <ele>583</ele>
        <time>2022-09-30T00:00:23Z</time>
      </trkpt>
      <trkpt lat="46.03236" lon="4.54041">
        <ele>584</ele>
        <time>2022-09-30T00:00:32Z</time>
      </trkpt>
      <trkpt lat="46.0324" lon="4.54022">
        <ele>583</ele>
        <time>2022-09-30T00:00:34Z</time>
      </trkpt>
      <trkpt lat="46.03241" lon="4.54003">
        <ele>581</ele>
        <time>2022-09-30T00:00:37Z</time>
      </trkpt>
      <trkpt lat="46.03234" lon="4.53981">
        <ele>584</ele>
        <time>2022-09-30T00:00:40Z</time>
      </trkpt>
      <trkpt lat="46.03223" lon="4.53965">
        <ele>586</ele>
        <time>2022-09-30T00:00:42Z</time>
      </trkpt>
      <trkpt lat="46.03208" lon="4.53955">
        <ele>586</ele>
        <time>2022-09-30T00:00:45Z</time>
      </trkpt>
      <trkpt lat="46.03194" lon="4.53953">
        <ele>585</ele>
        <time>2022-09-30T00:00:48Z</time>
      </trkpt>
      <trkpt lat="46.0318" lon="4.53958">
        <ele>582</ele>
        <time>2022-09-30T00:00:50Z</time>
      </trkpt>
      <trkpt lat="46.03138" lon="4.53998">
        <ele>572</ele>
        <time>2022-09-30T00:00:59Z</time>
      </trkpt>
      <trkpt lat="46.03116" lon="4.54016">
        <ele>567</ele>
        <time>2022-09-30T00:01:04Z</time>
      </trkpt>
      <trkpt lat="46.03098" lon="4.54021">
        <ele>564</ele>
        <time>2022-09-30T00:01:07Z</time>
      </trkpt>
      <trkpt lat="46.03089" lon="4.54018">
        <ele>563</ele>
        <time>2022-09-30T00:01:09Z</time>
      </trkpt>
      <trkpt lat="46.03081" lon="4.54011">
        <ele>563</ele>
        <time>2022-09-30T00:01:10Z</time>
      </trkpt>
      <trkpt lat="46.03059" lon="4.53959">
        <ele>563</ele>
        <time>2022-09-30T00:01:18Z</time>
      </trkpt>
      <trkpt lat="46.0303" lon="4.53872">
        <ele>560</ele>
        <time>2022-09-30T00:01:30Z</time>
      </trkpt>
      <trkpt lat="46.03016" lon="4.53807">
        <ele>557</ele>
        <time>2022-09-30T00:01:38Z</time>
      </trkpt>
      <trkpt lat="46.03015" lon="4.53794">
        <ele>556</ele>
        <time>2022-09-30T00:01:40Z</time>
      </trkpt>
      <trkpt lat="46.03016" lon="4.53777">
        <ele>556</ele>
        <time>2022-09-30T00:01:42Z</time>
      </trkpt>
      <trkpt lat="46.03019" lon="4.53749">
        <ele>556</ele>
        <time>2022-09-30T00:01:45Z</time>
      </trkpt>
      <trkpt lat="46.03042" lon="4.53673">
        <ele>555</ele>
        <time>2022-09-30T00:01:56Z</time>
      </trkpt>
      <trkpt lat="46.03052" lon="4.53633">
        <ele>558</ele>
        <time>2022-09-30T00:02:01Z</time>
      </trkpt>
      <trkpt lat="46.03052" lon="4.53615">
        <ele>558</ele>
        <time>2022-09-30T00:02:03Z</time>
      </trkpt>
      <trkpt lat="46.0305" lon="4.53597">
        <ele>557</ele>
        <time>2022-09-30T00:02:05Z</time>
      </trkpt>
      <trkpt lat="46.03047" lon="4.53583">
        <ele>556</ele>
        <time>2022-09-30T00:02:07Z</time>
      </trkpt>
      <trkpt lat="46.03041" lon="4.53569">
        <ele>555</ele>
        <time>2022-09-30T00:02:09Z</time>
      </trkpt>
      <trkpt lat="46.03021" lon="4.53541">
        <ele>551</ele>
        <time>2022-09-30T00:02:14Z</time>
      </trkpt>
      <trkpt lat="46.03" lon="4.53516">
        <ele>546</ele>
        <time>2022-09-30T00:02:19Z</time>
      </trkpt>
      <trkpt lat="46.0299" lon="4.53496">
        <ele>544</ele>
        <time>2022-09-30T00:02:22Z</time>
      </trkpt>
      <trkpt lat="46.02983" lon="4.53472">
        <ele>542</ele>
        <time>2022-09-30T00:02:25Z</time>
      </trkpt>
      <trkpt lat="46.02979" lon="4.53438">
        <ele>542</ele>
        <time>2022-09-30T00:02:30Z</time>
      </trkpt>
      <trkpt lat="46.02978" lon="4.53402">
        <ele>542</ele>
        <time>2022-09-30T00:02:34Z</time>
      </trkpt>
      <trkpt lat="46.02987" lon="4.53265">
        <ele>537</ele>
        <time>2022-09-30T00:02:51Z</time>
      </trkpt>
      <trkpt lat="46.02994" lon="4.53223">
        <ele>534</ele>
        <time>2022-09-30T00:02:56Z</time>
      </trkpt>
      <trkpt lat="46.03" lon="4.53203">
        <ele>534</ele>
        <time>2022-09-30T00:02:59Z</time>
      </trkpt>
      <trkpt lat="46.03023" lon="4.53151">
        <ele>533</ele>
        <time>2022-09-30T00:03:07Z</time>
      </trkpt>
      <trkpt lat="46.03043" lon="4.53114">
        <ele>533</ele>
        <time>2022-09-30T00:03:13Z</time>
      </trkpt>
      <trkpt lat="46.03063" lon="4.53068">
        <ele>534</ele>
        <time>2022-09-30T00:03:19Z</time>
      </trkpt>
      <trkpt lat="46.03065" lon="4.53059">
        <ele>534</ele>
        <time>2022-09-30T00:03:20Z</time>
      </trkpt>
      <trkpt lat="46.03065" lon="4.53035">
        <ele>534</ele>
        <time>2022-09-30T00:03:23Z</time>
      </trkpt>
      <trkpt lat="46.03064" lon="4.53024">
        <ele>534</ele>
        <time>2022-09-30T00:03:25Z</time>
      </trkpt>
      <trkpt lat="46.03028" lon="4.52947">
        <ele>524</ele>
        <time>2022-09-30T00:03:36Z</time>
      </trkpt>
      <trkpt lat="46.03025" lon="4.52933">
        <ele>523</ele>
        <time>2022-09-30T00:03:38Z</time>
      </trkpt>
      <trkpt lat="46.03024" lon="4.52908">
        <ele>523</ele>
        <time>2022-09-30T00:03:41Z</time>
      </trkpt>
      <trkpt lat="46.03025" lon="4.52894">
        <ele>522</ele>
        <time>2022-09-30T00:03:43Z</time>
      </trkpt>
      <trkpt lat="46.03035" lon="4.52835">
        <ele>521</ele>
        <time>2022-09-30T00:03:50Z</time>
      </trkpt>
      <trkpt lat="46.03039" lon="4.52782">
        <ele>519</ele>
        <time>2022-09-30T00:03:57Z</time>
      </trkpt>
      <trkpt lat="46.03043" lon="4.52666">
        <ele>513</ele>
        <time>2022-09-30T00:04:11Z</time>
      </trkpt>
      <trkpt lat="46.03043" lon="4.52646">
        <ele>512</ele>
        <time>2022-09-30T00:04:14Z</time>
      </trkpt>
      <trkpt lat="46.03036" lon="4.5257">
        <ele>504</ele>
        <time>2022-09-30T00:04:23Z</time>
      </trkpt>
      <trkpt lat="46.03039" lon="4.52547">
        <ele>502</ele>
        <time>2022-09-30T00:04:26Z</time>
      </trkpt>
      <trkpt lat="46.03047" lon="4.52532">
        <ele>501</ele>
        <time>2022-09-30T00:04:28Z</time>
      </trkpt>
      <trkpt lat="46.03059" lon="4.52525">
        <ele>503</ele>
        <time>2022-09-30T00:04:31Z</time>
      </trkpt>
      <trkpt lat="46.03118" lon="4.52514">
        <ele>511</ele>
        <time>2022-09-30T00:04:41Z</time>
      </trkpt>
      <trkpt lat="46.03124" lon="4.52508">
        <ele>511</ele>
        <time>2022-09-30T00:04:43Z</time>
      </trkpt>
      <trkpt lat="46.03128" lon="4.52495">
        <ele>511</ele>
        <time>2022-09-30T00:04:44Z</time>
      </trkpt>
      <trkpt lat="46.03128" lon="4.5248">
        <ele>511</ele>
        <time>2022-09-30T00:04:46Z</time>
      </trkpt>
      <trkpt lat="46.03124" lon="4.52467">
        <ele>511</ele>
        <time>2022-09-30T00:04:48Z</time>
      </trkpt>
      <trkpt lat="46.03093" lon="4.5242">
        <ele>505</ele>
        <time>2022-09-30T00:04:56Z</time>
      </trkpt>
      <trkpt lat="46.03036" lon="4.5237">
        <ele>496</ele>
        <time>2022-09-30T00:05:08Z</time>
      </trkpt>
      <trkpt lat="46.03016" lon="4.5234">
        <ele>492</ele>
        <time>2022-09-30T00:05:13Z</time>
      </trkpt>
      <trkpt lat="46.0301" lon="4.52318">
        <ele>490</ele>
        <time>2022-09-30T00:05:16Z</time>
      </trkpt>
      <trkpt lat="46.03009" lon="4.52297">
        <ele>489</ele>
        <time>2022-09-30T00:05:19Z</time>
      </trkpt>
      <trkpt lat="46.0301" lon="4.52273">
        <ele>489</ele>
        <time>2022-09-30T00:05:22Z</time>
      </trkpt>
      <trkpt lat="46.03016" lon="4.5224">
        <ele>490</ele>
        <time>2022-09-30T00:05:26Z</time>
      </trkpt>
      <trkpt lat="46.03022" lon="4.52219">
        <ele>491</ele>
        <time>2022-09-30T00:05:29Z</time>
      </trkpt>
      <trkpt lat="46.03033" lon="4.52196">
        <ele>493</ele>
        <time>2022-09-30T00:05:32Z</time>
      </trkpt>
      <trkpt lat="46.03038" lon="4.52179">
        <ele>494</ele>
        <time>2022-09-30T00:05:34Z</time>
      </trkpt>
      <trkpt lat="46.03041" lon="4.52159">
        <ele>494</ele>
        <time>2022-09-30T00:05:37Z</time>
      </trkpt>
      <trkpt lat="46.03039" lon="4.52137">
        <ele>493</ele>
        <time>2022-09-30T00:05:40Z</time>
      </trkpt>
      <trkpt lat="46.03004" lon="4.52006">
        <ele>479</ele>
        <time>2022-09-30T00:05:57Z</time>
      </trkpt>
      <trkpt lat="46.03" lon="4.51972">
        <ele>476</ele>
        <time>2022-09-30T00:06:01Z</time>
      </trkpt>
      <trkpt lat="46.03" lon="4.51945">
        <ele>474</ele>
        <time>2022-09-30T00:06:04Z</time>
      </trkpt>
      <trkpt lat="46.03004" lon="4.51924">
        <ele>473</ele>
        <time>2022-09-30T00:06:07Z</time>
      </trkpt>
      <trkpt lat="46.03013" lon="4.51908">
        <ele>473</ele>
        <time>2022-09-30T00:06:10Z</time>
      </trkpt>
      <trkpt lat="46.03023" lon="4.51897">
        <ele>472</ele>
        <time>2022-09-30T00:06:12Z</time>
      </trkpt>
      <trkpt lat="46.03037" lon="4.51887">
        <ele>472</ele>
        <time>2022-09-30T00:06:15Z</time>
      </trkpt>
      <trkpt lat="46.03109" lon="4.51862">
        <ele>476</ele>
        <time>2022-09-30T00:06:28Z</time>
      </trkpt>
      <trkpt lat="46.03137" lon="4.51849">
        <ele>476</ele>
        <time>2022-09-30T00:06:33Z</time>
      </trkpt>
      <trkpt lat="46.03255" lon="4.51762">
        <ele>467</ele>
        <time>2022-09-30T00:06:57Z</time>
      </trkpt>
      <trkpt lat="46.03273" lon="4.51753">
        <ele>465</ele>
        <time>2022-09-30T00:07:00Z</time>
      </trkpt>
      <trkpt lat="46.03303" lon="4.51741">
        <ele>463</ele>
        <time>2022-09-30T00:07:06Z</time>
      </trkpt>
      <trkpt lat="46.0333" lon="4.51738">
        <ele>464</ele>
        <time>2022-09-30T00:07:10Z</time>
      </trkpt>
      <trkpt lat="46.03342" lon="4.51739">
        <ele>463</ele>
        <time>2022-09-30T00:07:13Z</time>
      </trkpt>
      <trkpt lat="46.03357" lon="4.51744">
        <ele>462</ele>
        <time>2022-09-30T00:07:15Z</time>
      </trkpt>
      <trkpt lat="46.03444" lon="4.51795">
        <ele>465</ele>
        <time>2022-09-30T00:07:32Z</time>
      </trkpt>
      <trkpt lat="46.0351" lon="4.5182">
        <ele>460</ele>
        <time>2022-09-30T00:07:44Z</time>
      </trkpt>
      <trkpt lat="46.03537" lon="4.51835">
        <ele>458</ele>
        <time>2022-09-30T00:07:49Z</time>
      </trkpt>
      <trkpt lat="46.03559" lon="4.51853">
        <ele>456</ele>
        <time>2022-09-30T00:07:54Z</time>
      </trkpt>
      <trkpt lat="46.03576" lon="4.51887">
        <ele>456</ele>
        <time>2022-09-30T00:07:59Z</time>
      </trkpt>
      <trkpt lat="46.03581" lon="4.51905">
        <ele>457</ele>
        <time>2022-09-30T00:08:01Z</time>
      </trkpt>
      <trkpt lat="46.03585" lon="4.51937">
        <ele>459</ele>
        <time>2022-09-30T00:08:05Z</time>
      </trkpt>
      <trkpt lat="46.03589" lon="4.51956">
        <ele>460</ele>
        <time>2022-09-30T00:08:08Z</time>
      </trkpt>
      <trkpt lat="46.03594" lon="4.51968">
        <ele>461</ele>
        <time>2022-09-30T00:08:10Z</time>
      </trkpt>
      <trkpt lat="46.03601" lon="4.51972">
        <ele>462</ele>
        <time>2022-09-30T00:08:11Z</time>
      </trkpt>
      <trkpt lat="46.03608" lon="4.51972">
        <ele>462</ele>
        <time>2022-09-30T00:08:12Z</time>
      </trkpt>
      <trkpt lat="46.03619" lon="4.51965">
        <ele>462</ele>
        <time>2022-09-30T00:08:14Z</time>
      </trkpt>
      <trkpt lat="46.03627" lon="4.51953">
        <ele>461</ele>
        <time>2022-09-30T00:08:16Z</time>
      </trkpt>
      <trkpt lat="46.03631" lon="4.51937">
        <ele>460</ele>
        <time>2022-09-30T00:08:18Z</time>
      </trkpt>
      <trkpt lat="46.03634" lon="4.51913">
        <ele>457</ele>
        <time>2022-09-30T00:08:22Z</time>
      </trkpt>
      <trkpt lat="46.03632" lon="4.51878">
        <ele>453</ele>
        <time>2022-09-30T00:08:26Z</time>
      </trkpt>
      <trkpt lat="46.03621" lon="4.51792">
        <ele>444</ele>
        <time>2022-09-30T00:08:37Z</time>
      </trkpt>
      <trkpt lat="46.03615" lon="4.5177">
        <ele>442</ele>
        <time>2022-09-30T00:08:40Z</time>
      </trkpt>
      <trkpt lat="46.03605" lon="4.51754">
        <ele>439</ele>
        <time>2022-09-30T00:08:42Z</time>
      </trkpt>
      <trkpt lat="46.03596" lon="4.51745">
        <ele>439</ele>
        <time>2022-09-30T00:08:44Z</time>
      </trkpt>
      <trkpt lat="46.03557" lon="4.51721">
        <ele>439</ele>
        <time>2022-09-30T00:08:52Z</time>
      </trkpt>
      <trkpt lat="46.03519" lon="4.5169">
        <ele>437</ele>
        <time>2022-09-30T00:08:59Z</time>
      </trkpt>
      <trkpt lat="46.03462" lon="4.51637">
        <ele>433</ele>
        <time>2022-09-30T00:09:12Z</time>
      </trkpt>
      <trkpt lat="46.03435" lon="4.51608">
        <ele>430</ele>
        <time>2022-09-30T00:09:18Z</time>
      </trkpt>
      <trkpt lat="46.03403" lon="4.5156">
        <ele>425</ele>
        <time>2022-09-30T00:09:26Z</time>
      </trkpt>
      <trkpt lat="46.0339" lon="4.51547">
        <ele>424</ele>
        <time>2022-09-30T00:09:29Z</time>
      </trkpt>
      <trkpt lat="46.03378" lon="4.51538">
        <ele>423</ele>
        <time>2022-09-30T00:09:31Z</time>
      </trkpt>
      <trkpt lat="46.03348" lon="4.51527">
        <ele>422</ele>
        <time>2022-09-30T00:09:36Z</time>
      </trkpt>
      <trkpt lat="46.03296" lon="4.51516">
        <ele>419</ele>
        <time>2022-09-30T00:09:46Z</time>
      </trkpt>
      <trkpt lat="46.03281" lon="4.51515">
        <ele>417</ele>
        <time>2022-09-30T00:09:49Z</time>
      </trkpt>
      <trkpt lat="46.03245" lon="4.51521">
        <ele>414</ele>
        <time>2022-09-30T00:09:55Z</time>
      </trkpt>
      <trkpt lat="46.03128" lon="4.51572">
        <ele>409</ele>
        <time>2022-09-30T00:10:17Z</time>
      </trkpt>
      <trkpt lat="46.03097" lon="4.51582">
        <ele>407</ele>
        <time>2022-09-30T00:10:22Z</time>
      </trkpt>
      <trkpt lat="46.03069" lon="4.51586">
        <ele>406</ele>
        <time>2022-09-30T00:10:27Z</time>
      </trkpt>
      <trkpt lat="46.03034" lon="4.51582">
        <ele>404</ele>
        <time>2022-09-30T00:10:34Z</time>
      </trkpt>
      <trkpt lat="46.03019" lon="4.51575">
        <ele>403</ele>
        <time>2022-09-30T00:10:36Z</time>
      </trkpt>
      <trkpt lat="46.02947" lon="4.51524">
        <ele>400</ele>
        <time>2022-09-30T00:10:51Z</time>
      </trkpt>
      <trkpt lat="46.02915" lon="4.51504">
        <ele>396</ele>
        <time>2022-09-30T00:10:57Z</time>
      </trkpt>
      <trkpt lat="46.02894" lon="4.51487">
        <ele>396</ele>
        <time>2022-09-30T00:11:01Z</time>
      </trkpt>
      <trkpt lat="46.02871" lon="4.51462">
        <ele>396</ele>
        <time>2022-09-30T00:11:06Z</time>
      </trkpt>
      <trkpt lat="46.02856" lon="4.51439">
        <ele>396</ele>
        <time>2022-09-30T00:11:10Z</time>
      </trkpt>
      <trkpt lat="46.02843" lon="4.51424">
        <ele>395</ele>
        <time>2022-09-30T00:11:13Z</time>
      </trkpt>
      <trkpt lat="46.0283" lon="4.51416">
        <ele>395</ele>
        <time>2022-09-30T00:11:16Z</time>
      </trkpt>
      <trkpt lat="46.02817" lon="4.51411">
        <ele>394</ele>
        <time>2022-09-30T00:11:18Z</time>
      </trkpt>
      <trkpt lat="46.02797" lon="4.51408">
        <ele>392</ele>
        <time>2022-09-30T00:11:22Z</time>
      </trkpt>
      <trkpt lat="46.02776" lon="4.51401">
        <ele>391</ele>
        <time>2022-09-30T00:11:26Z</time>
      </trkpt>
      <trkpt lat="46.02761" lon="4.51393">
        <ele>390</ele>
        <time>2022-09-30T00:11:28Z</time>
      </trkpt>
      <trkpt lat="46.0272" lon="4.51359">
        <ele>388</ele>
        <time>2022-09-30T00:11:37Z</time>
      </trkpt>
      <trkpt lat="46.02699" lon="4.51345">
        <ele>386</ele>
        <time>2022-09-30T00:11:41Z</time>
      </trkpt>
      <trkpt lat="46.02665" lon="4.51333">
        <ele>383</ele>
        <time>2022-09-30T00:11:47Z</time>
      </trkpt>
      <trkpt lat="46.02635" lon="4.51326">
        <ele>380</ele>
        <time>2022-09-30T00:11:53Z</time>
      </trkpt>
      <trkpt lat="46.02545" lon="4.51323">
        <ele>376</ele>
        <time>2022-09-30T00:12:09Z</time>
      </trkpt>
      <trkpt lat="46.02517" lon="4.51315">
        <ele>377</ele>
        <time>2022-09-30T00:12:14Z</time>
      </trkpt>
      <trkpt lat="46.02504" lon="4.51304">
        <ele>377</ele>
        <time>2022-09-30T00:12:16Z</time>
      </trkpt>
      <trkpt lat="46.02494" lon="4.51289">
        <ele>379</ele>
        <time>2022-09-30T00:12:19Z</time>
      </trkpt>
      <trkpt lat="46.02485" lon="4.51259">
        <ele>383</ele>
        <time>2022-09-30T00:12:23Z</time>
      </trkpt>
      <trkpt lat="46.02478" lon="4.51223">
        <ele>386</ele>
        <time>2022-09-30T00:12:28Z</time>
      </trkpt>
      <trkpt lat="46.0245" lon="4.50802">
        <ele>373</ele>
        <time>2022-09-30T00:13:20Z</time>
      </trkpt>
      <trkpt lat="46.02411" lon="4.50694">
        <ele>370</ele>
        <time>2022-09-30T00:13:35Z</time>
      </trkpt>
      <trkpt lat="46.02397" lon="4.50624">
        <ele>369</ele>
        <time>2022-09-30T00:13:44Z</time>
      </trkpt>
      <trkpt lat="46.02349" lon="4.50524">
        <ele>368</ele>
        <time>2022-09-30T00:13:59Z</time>
      </trkpt>
      <trkpt lat="46.02342" lon="4.50449">
        <ele>361</ele>
        <time>2022-09-30T00:14:08Z</time>
      </trkpt>
      <trkpt lat="46.0232" lon="4.50384">
        <ele>358</ele>
        <time>2022-09-30T00:14:17Z</time>
      </trkpt>
      <trkpt lat="46.02261" lon="4.50214">
        <ele>354</ele>
        <time>2022-09-30T00:14:41Z</time>
      </trkpt>
      <trkpt lat="46.02224" lon="4.50121">
        <ele>353</ele>
        <time>2022-09-30T00:14:54Z</time>
      </trkpt>
      <trkpt lat="46.02202" lon="4.50048">
        <ele>351</ele>
        <time>2022-09-30T00:15:04Z</time>
      </trkpt>
      <trkpt lat="46.02195" lon="4.50011">
        <ele>347</ele>
        <time>2022-09-30T00:15:08Z</time>
      </trkpt>
      <trkpt lat="46.02193" lon="4.49951">
        <ele>342</ele>
        <time>2022-09-30T00:15:16Z</time>
      </trkpt>
      <trkpt lat="46.02154" lon="4.49948">
        <ele>343</ele>
        <time>2022-09-30T00:15:23Z</time>
      </trkpt>
      <trkpt lat="46.02096" lon="4.49939">
        <ele>346</ele>
        <time>2022-09-30T00:15:33Z</time>
      </trkpt>
      <trkpt lat="46.02051" lon="4.49928">
        <ele>346</ele>
        <time>2022-09-30T00:15:41Z</time>
      </trkpt>
      <trkpt lat="46.01979" lon="4.49941">
        <ele>350</ele>
        <time>2022-09-30T00:15:54Z</time>
      </trkpt>
      <trkpt lat="46.0196" lon="4.49941">
        <ele>351</ele>
        <time>2022-09-30T00:15:58Z</time>
      </trkpt>
      <trkpt lat="46.01854" lon="4.49904">
        <ele>350</ele>
        <time>2022-09-30T00:16:17Z</time>
      </trkpt>
      <trkpt lat="46.01826" lon="4.49881">
        <ele>349</ele>
        <time>2022-09-30T00:16:23Z</time>
      </trkpt>
      <trkpt lat="46.01805" lon="4.49859">
        <ele>348</ele>
        <time>2022-09-30T00:16:27Z</time>
      </trkpt>
      <trkpt lat="46.01707" lon="4.49797">
        <ele>347</ele>
        <time>2022-09-30T00:16:46Z</time>
      </trkpt>
      <trkpt lat="46.01615" lon="4.49729">
        <ele>344</ele>
        <time>2022-09-30T00:17:05Z</time>
      </trkpt>
      <trkpt lat="46.01604" lon="4.49722">
        <ele>345</ele>
        <time>2022-09-30T00:17:07Z</time>
      </trkpt>
      <trkpt lat="46.01591" lon="4.49718">
        <ele>345</ele>
        <time>2022-09-30T00:17:09Z</time>
      </trkpt>
      <trkpt lat="46.01568" lon="4.49717">
        <ele>345</ele>
        <time>2022-09-30T00:17:13Z</time>
      </trkpt>
      <trkpt lat="46.01542" lon="4.49724">
        <ele>344</ele>
        <time>2022-09-30T00:17:18Z</time>
      </trkpt>
      <trkpt lat="46.01437" lon="4.49811">
        <ele>345</ele>
        <time>2022-09-30T00:17:40Z</time>
      </trkpt>
      <trkpt lat="46.01412" lon="4.49821">
        <ele>344</ele>
        <time>2022-09-30T00:17:44Z</time>
      </trkpt>
      <trkpt lat="46.01387" lon="4.49824">
        <ele>347</ele>
        <time>2022-09-30T00:17:49Z</time>
      </trkpt>
      <trkpt lat="46.01367" lon="4.49814">
        <ele>347</ele>
        <time>2022-09-30T00:17:53Z</time>
      </trkpt>
      <trkpt lat="46.01316" lon="4.49776">
        <ele>341</ele>
        <time>2022-09-30T00:18:03Z</time>
      </trkpt>
      <trkpt lat="46.01303" lon="4.49767">
        <ele>340</ele>
        <time>2022-09-30T00:18:05Z</time>
      </trkpt>
      <trkpt lat="46.01287" lon="4.4976">
        <ele>339</ele>
        <time>2022-09-30T00:18:08Z</time>
      </trkpt>
      <trkpt lat="46.01269" lon="4.49756">
        <ele>338</ele>
        <time>2022-09-30T00:18:12Z</time>
      </trkpt>
      <trkpt lat="46.01231" lon="4.49763">
        <ele>340</ele>
        <time>2022-09-30T00:18:18Z</time>
      </trkpt>
      <trkpt lat="46.01193" lon="4.49774">
        <ele>341</ele>
        <time>2022-09-30T00:18:25Z</time>
      </trkpt>
      <trkpt lat="46.01144" lon="4.49778">
        <ele>343</ele>
        <time>2022-09-30T00:18:34Z</time>
      </trkpt>
      <trkpt lat="46.01117" lon="4.49773">
        <ele>344</ele>
        <time>2022-09-30T00:18:39Z</time>
      </trkpt>
      <trkpt lat="46.01023" lon="4.49734">
        <ele>339</ele>
        <time>2022-09-30T00:18:56Z</time>
      </trkpt>
      <trkpt lat="46.00987" lon="4.49712">
        <ele>336</ele>
        <time>2022-09-30T00:19:03Z</time>
      </trkpt>
      <trkpt lat="46.0095" lon="4.49696">
        <ele>335</ele>
        <time>2022-09-30T00:19:10Z</time>
      </trkpt>
      <trkpt lat="46.00831" lon="4.49705">
        <ele>335</ele>
        <time>2022-09-30T00:19:31Z</time>
      </trkpt>
      <trkpt lat="46.00719" lon="4.49772">
        <ele>331</ele>
        <time>2022-09-30T00:19:53Z</time>
      </trkpt>
      <trkpt lat="46.007" lon="4.49777">
        <ele>331</ele>
        <time>2022-09-30T00:19:56Z</time>
      </trkpt>
      <trkpt lat="46.00653" lon="4.49783">
        <ele>330</ele>
        <time>2022-09-30T00:20:05Z</time>
      </trkpt>
      <trkpt lat="46.00598" lon="4.4977">
        <ele>327</ele>
        <time>2022-09-30T00:20:15Z</time>
      </trkpt>
      <trkpt lat="46.00544" lon="4.49746">
        <ele>329</ele>
        <time>2022-09-30T00:20:25Z</time>
      </trkpt>
      <trkpt lat="46.00484" lon="4.49705">
        <ele>333</ele>
        <time>2022-09-30T00:20:36Z</time>
      </trkpt>
      <trkpt lat="46.00444" lon="4.49686">
        <ele>334</ele>
        <time>2022-09-30T00:20:44Z</time>
      </trkpt>
      <trkpt lat="46.0041" lon="4.49679">
        <ele>335</ele>
        <time>2022-09-30T00:20:50Z</time>
      </trkpt>
      <trkpt lat="46.00255" lon="4.49694">
        <ele>332</ele>
        <time>2022-09-30T00:21:18Z</time>
      </trkpt>
      <trkpt lat="46.00206" lon="4.49706">
        <ele>331</ele>
        <time>2022-09-30T00:21:27Z</time>
      </trkpt>
      <trkpt lat="46.0016" lon="4.49732">
        <ele>328</ele>
        <time>2022-09-30T00:21:35Z</time>
      </trkpt>
      <trkpt lat="45.99953" lon="4.49881">
        <ele>331</ele>
        <time>2022-09-30T00:22:16Z</time>
      </trkpt>
      <trkpt lat="45.99908" lon="4.49911">
        <ele>332</ele>
        <time>2022-09-30T00:22:25Z</time>
      </trkpt>
      <trkpt lat="45.99887" lon="4.49922">
        <ele>333</ele>
        <time>2022-09-30T00:22:29Z</time>
      </trkpt>
      <trkpt lat="45.99861" lon="4.49932">
        <ele>333</ele>
        <time>2022-09-30T00:22:34Z</time>
      </trkpt>
      <trkpt lat="45.99843" lon="4.49935">
        <ele>332</ele>
        <time>2022-09-30T00:22:37Z</time>
      </trkpt>
      <trkpt lat="45.99814" lon="4.49936">
        <ele>331</ele>
        <time>2022-09-30T00:22:42Z</time>
      </trkpt>
      <trkpt lat="45.99792" lon="4.49934">
        <ele>329</ele>
        <time>2022-09-30T00:22:46Z</time>
      </trkpt>
      <trkpt lat="45.99743" lon="4.49921">
        <ele>325</ele>
        <time>2022-09-30T00:22:55Z</time>
      </trkpt>
      <trkpt lat="45.99722" lon="4.49921">
        <ele>324</ele>
        <time>2022-09-30T00:22:59Z</time>
      </trkpt>
      <trkpt lat="45.99707" lon="4.49924">
        <ele>324</ele>
        <time>2022-09-30T00:23:02Z</time>
      </trkpt>
      <trkpt lat="45.99692" lon="4.49931">
        <ele>325</ele>
        <time>2022-09-30T00:23:04Z</time>
      </trkpt>
      <trkpt lat="45.99665" lon="4.49945">
        <ele>326</ele>
        <time>2022-09-30T00:23:10Z</time>
      </trkpt>
      <trkpt lat="45.9961" lon="4.49981">
        <ele>327</ele>
        <time>2022-09-30T00:23:20Z</time>
      </trkpt>
      <trkpt lat="45.99582" lon="4.50007">
        <ele>324</ele>
        <time>2022-09-30T00:23:26Z</time>
      </trkpt>
      <trkpt lat="45.99547" lon="4.50053">
        <ele>327</ele>
        <time>2022-09-30T00:23:35Z</time>
      </trkpt>
      <trkpt lat="45.99475" lon="4.50172">
        <ele>333</ele>
        <time>2022-09-30T00:23:54Z</time>
      </trkpt>
      <trkpt lat="45.99449" lon="4.5021">
        <ele>334</ele>
        <time>2022-09-30T00:24:01Z</time>
      </trkpt>
      <trkpt lat="45.99378" lon="4.50292">
        <ele>333</ele>
        <time>2022-09-30T00:24:17Z</time>
      </trkpt>
      <trkpt lat="45.99348" lon="4.50321">
        <ele>330</ele>
        <time>2022-09-30T00:24:23Z</time>
      </trkpt>
      <trkpt lat="45.99314" lon="4.5035">
        <ele>329</ele>
        <time>2022-09-30T00:24:30Z</time>
      </trkpt>
      <trkpt lat="45.99292" lon="4.50363">
        <ele>330</ele>
        <time>2022-09-30T00:24:35Z</time>
      </trkpt>
      <trkpt lat="45.99274" lon="4.5037">
        <ele>330</ele>
        <time>2022-09-30T00:24:38Z</time>
      </trkpt>
      <trkpt lat="45.99253" lon="4.50375">
        <ele>329</ele>
        <time>2022-09-30T00:24:42Z</time>
      </trkpt>
      <trkpt lat="45.99166" lon="4.50392">
        <ele>331</ele>
        <time>2022-09-30T00:24:57Z</time>
      </trkpt>
      <trkpt lat="45.99133" lon="4.50395">
        <ele>331</ele>
        <time>2022-09-30T00:25:03Z</time>
      </trkpt>
      <trkpt lat="45.99106" lon="4.50394">
        <ele>331</ele>
        <time>2022-09-30T00:25:08Z</time>
      </trkpt>
      <trkpt lat="45.9907" lon="4.50388">
        <ele>332</ele>
        <time>2022-09-30T00:25:15Z</time>
      </trkpt>
      <trkpt lat="45.99047" lon="4.5038">
        <ele>333</ele>
        <time>2022-09-30T00:25:19Z</time>
      </trkpt>
      <trkpt lat="45.99031" lon="4.5037">
        <ele>333</ele>
        <time>2022-09-30T00:25:22Z</time>
      </trkpt>
      <trkpt lat="45.99017" lon="4.50356">
        <ele>331</ele>
        <time>2022-09-30T00:25:25Z</time>
      </trkpt>
      <trkpt lat="45.9901" lon="4.50346">
        <ele>330</ele>
        <time>2022-09-30T00:25:27Z</time>
      </trkpt>
      <trkpt lat="45.98992" lon="4.50307">
        <ele>326</ele>
        <time>2022-09-30T00:25:32Z</time>
      </trkpt>
      <trkpt lat="45.98971" lon="4.50255">
        <ele>322</ele>
        <time>2022-09-30T00:25:40Z</time>
      </trkpt>
      <trkpt lat="45.9895" lon="4.50228">
        <ele>321</ele>
        <time>2022-09-30T00:25:45Z</time>
      </trkpt>
      <trkpt lat="45.98935" lon="4.50218">
        <ele>320</ele>
        <time>2022-09-30T00:25:48Z</time>
      </trkpt>
      <trkpt lat="45.98916" lon="4.50213">
        <ele>320</ele>
        <time>2022-09-30T00:25:51Z</time>
      </trkpt>
      <trkpt lat="45.98906" lon="4.50213">
        <ele>319</ele>
        <time>2022-09-30T00:25:53Z</time>
      </trkpt>
      <trkpt lat="45.98871" lon="4.50219">
        <ele>319</ele>
        <time>2022-09-30T00:25:59Z</time>
      </trkpt>
      <trkpt lat="45.98828" lon="4.50231">
        <ele>319</ele>
        <time>2022-09-30T00:26:07Z</time>
      </trkpt>
      <trkpt lat="45.98814" lon="4.50237">
        <ele>318</ele>
        <time>2022-09-30T00:26:10Z</time>
      </trkpt>
      <trkpt lat="45.98793" lon="4.50254">
        <ele>318</ele>
        <time>2022-09-30T00:26:14Z</time>
      </trkpt>
      <trkpt lat="45.98777" lon="4.50273">
        <ele>317</ele>
        <time>2022-09-30T00:26:18Z</time>
      </trkpt>
      <trkpt lat="45.98761" lon="4.50301">
        <ele>316</ele>
        <time>2022-09-30T00:26:22Z</time>
      </trkpt>
      <trkpt lat="45.98748" lon="4.50338">
        <ele>316</ele>
        <time>2022-09-30T00:26:27Z</time>
      </trkpt>
      <trkpt lat="45.98742" lon="4.50388">
        <ele>318</ele>
        <time>2022-09-30T00:26:34Z</time>
      </trkpt>
      <trkpt lat="45.98735" lon="4.50467">
        <ele>319</ele>
        <time>2022-09-30T00:26:43Z</time>
      </trkpt>
      <trkpt lat="45.98726" lon="4.50507">
        <ele>319</ele>
        <time>2022-09-30T00:26:49Z</time>
      </trkpt>
      <trkpt lat="45.98713" lon="4.50535">
        <ele>320</ele>
        <time>2022-09-30T00:26:53Z</time>
      </trkpt>
      <trkpt lat="45.98705" lon="4.50549">
        <ele>320</ele>
        <time>2022-09-30T00:26:55Z</time>
      </trkpt>
      <trkpt lat="45.98693" lon="4.50564">
        <ele>319</ele>
        <time>2022-09-30T00:26:58Z</time>
      </trkpt>
      <trkpt lat="45.98662" lon="4.50598">
        <ele>319</ele>
        <time>2022-09-30T00:27:05Z</time>
      </trkpt>
      <trkpt lat="45.98645" lon="4.5062">
        <ele>321</ele>
        <time>2022-09-30T00:27:09Z</time>
      </trkpt>
      <trkpt lat="45.98639" lon="4.50632">
        <ele>321</ele>
        <time>2022-09-30T00:27:11Z</time>
      </trkpt>
      <trkpt lat="45.9863" lon="4.50655">
        <ele>321</ele>
        <time>2022-09-30T00:27:14Z</time>
      </trkpt>
      <trkpt lat="45.98625" lon="4.50677">
        <ele>321</ele>
        <time>2022-09-30T00:27:17Z</time>
      </trkpt>
      <trkpt lat="45.98615" lon="4.50743">
        <ele>320</ele>
        <time>2022-09-30T00:27:25Z</time>
      </trkpt>
      <trkpt lat="45.98581" lon="4.50845">
        <ele>318</ele>
        <time>2022-09-30T00:27:39Z</time>
      </trkpt>
      <trkpt lat="45.98561" lon="4.50899">
        <ele>320</ele>
        <time>2022-09-30T00:27:47Z</time>
      </trkpt>
      <trkpt lat="45.98538" lon="4.50936">
        <ele>321</ele>
        <time>2022-09-30T00:27:53Z</time>
      </trkpt>
      <trkpt lat="45.98508" lon="4.50968">
        <ele>321</ele>
        <time>2022-09-30T00:27:59Z</time>
      </trkpt>
      <trkpt lat="45.98488" lon="4.50977">
        <ele>321</ele>
        <time>2022-09-30T00:28:03Z</time>
      </trkpt>
      <trkpt lat="45.98465" lon="4.50976">
        <ele>322</ele>
        <time>2022-09-30T00:28:07Z</time>
      </trkpt>
      <trkpt lat="45.98448" lon="4.50966">
        <ele>321</ele>
        <time>2022-09-30T00:28:11Z</time>
      </trkpt>
      <trkpt lat="45.98433" lon="4.50948">
        <ele>318</ele>
        <time>2022-09-30T00:28:14Z</time>
      </trkpt>
      <trkpt lat="45.98417" lon="4.50915">
        <ele>313</ele>
        <time>2022-09-30T00:28:19Z</time>
      </trkpt>
      <trkpt lat="45.98405" lon="4.50899">
        <ele>313</ele>
        <time>2022-09-30T00:28:22Z</time>
      </trkpt>
      <trkpt lat="45.98391" lon="4.50887">
        <ele>312</ele>
        <time>2022-09-30T00:28:25Z</time>
      </trkpt>
      <trkpt lat="45.98373" lon="4.50882">
        <ele>313</ele>
        <time>2022-09-30T00:28:28Z</time>
      </trkpt>
      <trkpt lat="45.98356" lon="4.50879">
        <ele>313</ele>
        <time>2022-09-30T00:28:31Z</time>
      </trkpt>
      <trkpt lat="45.98306" lon="4.50886">
        <ele>315</ele>
        <time>2022-09-30T00:28:40Z</time>
      </trkpt>
      <trkpt lat="45.98287" lon="4.50886">
        <ele>315</ele>
        <time>2022-09-30T00:28:43Z</time>
      </trkpt>
      <trkpt lat="45.98241" lon="4.50874">
        <ele>313</ele>
        <time>2022-09-30T00:28:52Z</time>
      </trkpt>
      <trkpt lat="45.98185" lon="4.5087">
        <ele>311</ele>
        <time>2022-09-30T00:29:02Z</time>
      </trkpt>
      <trkpt lat="45.98158" lon="4.50865">
        <ele>310</ele>
        <time>2022-09-30T00:29:07Z</time>
      </trkpt>
      <trkpt lat="45.98097" lon="4.50813">
        <ele>309</ele>
        <time>2022-09-30T00:29:19Z</time>
      </trkpt>
      <trkpt lat="45.98074" lon="4.50798">
        <ele>310</ele>
        <time>2022-09-30T00:29:24Z</time>
      </trkpt>
      <trkpt lat="45.98055" lon="4.50778">
        <ele>312</ele>
        <time>2022-09-30T00:29:28Z</time>
      </trkpt>
      <trkpt lat="45.98034" lon="4.50744">
        <ele>313</ele>
        <time>2022-09-30T00:29:34Z</time>
      </trkpt>
    </trkseg>
  </trk>
</gpx>